<?xml version="1.0" encoding="UTF-8" standalone="no" ?>
<gpx xmlns="http://www.topografix.com/GPX/1/1" xmlns:xsi="http://www.w3.org/2001/XMLSchema-instance" xsi:schemaLocation="http://www.topografix.com/GPX/1/1 http://www.topografix.com/GPX/1/1/gpx.xsd" version="1.1" creator="VisuGPX - https://www.visugpx.com">
  <metadata>
    <name>Oppidum de Nages (à partir du stade de Langlade)</name>
    <desc><![CDATA[#ombre #court #enregistré]]></desc>
  </metadata>
  <trk>
    <name><![CDATA[2026-05-02 09:45]]></name>
    <trkseg>
      <trkpt lat="43.79801" lon="4.23898">
        <ele>145.57</ele>
        <time>2026-05-02T08:53:57.173Z</time>
      </trkpt>
      <trkpt lat="43.79801" lon="4.23887">
        <ele>146.28</ele>
        <time>2026-05-02T08:54:05.522Z</time>
      </trkpt>
      <trkpt lat="43.79808" lon="4.23874">
        <ele>147.13</ele>
        <time>2026-05-02T08:54:16.721Z</time>
      </trkpt>
      <trkpt lat="43.79812" lon="4.2387">
        <ele>147.41</ele>
        <time>2026-05-02T08:54:21.643Z</time>
      </trkpt>
      <trkpt lat="43.79825" lon="4.23852">
        <ele>148.9</ele>
        <time>2026-05-02T08:54:40.337Z</time>
      </trkpt>
      <trkpt lat="43.79842" lon="4.23843">
        <ele>149.71</ele>
        <time>2026-05-02T08:54:57.720Z</time>
      </trkpt>
      <trkpt lat="43.79849" lon="4.23835">
        <ele>150.39</ele>
        <time>2026-05-02T08:55:07.086Z</time>
      </trkpt>
      <trkpt lat="43.79857" lon="4.23823">
        <ele>151.33</ele>
        <time>2026-05-02T08:55:18.977Z</time>
      </trkpt>
      <trkpt lat="43.79849" lon="4.23781">
        <ele>151.49</ele>
        <time>2026-05-02T08:55:50.770Z</time>
      </trkpt>
      <trkpt lat="43.79839" lon="4.23752">
        <ele>150.91</ele>
        <time>2026-05-02T08:56:14.041Z</time>
      </trkpt>
      <trkpt lat="43.79838" lon="4.23745">
        <ele>150.84</ele>
        <time>2026-05-02T08:56:19.029Z</time>
      </trkpt>
      <trkpt lat="43.79843" lon="4.23748">
        <ele>151.17</ele>
        <time>2026-05-02T08:56:24.397Z</time>
      </trkpt>
      <trkpt lat="43.79842" lon="4.23752">
        <ele>150.70097840136</ele>
        <time>2026-05-02T08:56:27.187Z</time>
      </trkpt>
      <trkpt lat="43.79848" lon="4.23751">
        <ele>150.84411599427</ele>
        <time>2026-05-02T08:57:01.358Z</time>
      </trkpt>
      <trkpt lat="43.79851" lon="4.23749">
        <ele>151.06174868025</ele>
        <time>2026-05-02T08:57:06.372Z</time>
      </trkpt>
      <trkpt lat="43.79855" lon="4.23749">
        <ele>151.18479088522</ele>
        <time>2026-05-02T08:57:12.349Z</time>
      </trkpt>
      <trkpt lat="43.79861" lon="4.23747">
        <ele>151.40445555104</ele>
        <time>2026-05-02T08:57:17.794Z</time>
      </trkpt>
      <trkpt lat="43.79868" lon="4.23746">
        <ele>151.52970708823</ele>
        <time>2026-05-02T08:57:23.306Z</time>
      </trkpt>
      <trkpt lat="43.79878" lon="4.23743">
        <ele>151.67304178391</ele>
        <time>2026-05-02T08:57:29.248Z</time>
      </trkpt>
      <trkpt lat="43.79884" lon="4.23741">
        <ele>151.78237348262</ele>
        <time>2026-05-02T08:57:34.304Z</time>
      </trkpt>
      <trkpt lat="43.79892" lon="4.2374">
        <ele>151.88855141545</ele>
        <time>2026-05-02T08:57:40.230Z</time>
      </trkpt>
      <trkpt lat="43.79897" lon="4.23739">
        <ele>151.97443406119</ele>
        <time>2026-05-02T08:57:45.291Z</time>
      </trkpt>
      <trkpt lat="43.79903" lon="4.23737">
        <ele>151.99676962139</ele>
        <time>2026-05-02T08:57:50.337Z</time>
      </trkpt>
      <trkpt lat="43.79909" lon="4.23735">
        <ele>152.09835216836</ele>
        <time>2026-05-02T08:57:55.676Z</time>
      </trkpt>
      <trkpt lat="43.79914" lon="4.23738">
        <ele>151.77508788638</ele>
        <time>2026-05-02T08:58:00.946Z</time>
      </trkpt>
      <trkpt lat="43.79915" lon="4.23739">
        <ele>151.66879813274</ele>
        <time>2026-05-02T08:58:06.342Z</time>
      </trkpt>
      <trkpt lat="43.79915" lon="4.23742">
        <ele>151.49555039281</ele>
        <time>2026-05-02T08:58:11.358Z</time>
      </trkpt>
      <trkpt lat="43.79922" lon="4.23747">
        <ele>150.94845096841</ele>
        <time>2026-05-02T08:58:16.372Z</time>
      </trkpt>
      <trkpt lat="43.79926" lon="4.23744">
        <ele>150.99191316578</ele>
        <time>2026-05-02T08:58:21.601Z</time>
      </trkpt>
      <trkpt lat="43.79932" lon="4.23743">
        <ele>150.81084681676</ele>
        <time>2026-05-02T08:58:27.251Z</time>
      </trkpt>
      <trkpt lat="43.79938" lon="4.23746">
        <ele>150.37300299526</ele>
        <time>2026-05-02T08:58:32.380Z</time>
      </trkpt>
      <trkpt lat="43.79944" lon="4.23746">
        <ele>149.96321102288</ele>
        <time>2026-05-02T08:58:37.852Z</time>
      </trkpt>
      <trkpt lat="43.79951" lon="4.23746">
        <ele>149.57913122074</ele>
        <time>2026-05-02T08:58:42.895Z</time>
      </trkpt>
      <trkpt lat="43.79955" lon="4.23741">
        <ele>149.77540764832</ele>
        <time>2026-05-02T08:58:47.952Z</time>
      </trkpt>
      <trkpt lat="43.79959" lon="4.23739">
        <ele>149.67450980023</ele>
        <time>2026-05-02T08:58:53.401Z</time>
      </trkpt>
      <trkpt lat="43.79967" lon="4.23742">
        <ele>149.07626671563</ele>
        <time>2026-05-02T08:58:59.227Z</time>
      </trkpt>
      <trkpt lat="43.79974" lon="4.23741">
        <ele>148.81290037802</ele>
        <time>2026-05-02T08:59:04.253Z</time>
      </trkpt>
      <trkpt lat="43.7998" lon="4.23743">
        <ele>148.38164396297</ele>
        <time>2026-05-02T08:59:09.687Z</time>
      </trkpt>
      <trkpt lat="43.79985" lon="4.23746">
        <ele>148.0014858884</ele>
        <time>2026-05-02T08:59:15.305Z</time>
      </trkpt>
      <trkpt lat="43.79988" lon="4.23742">
        <ele>148.30200651346</ele>
        <time>2026-05-02T08:59:20.350Z</time>
      </trkpt>
      <trkpt lat="43.79991" lon="4.23741">
        <ele>148.33074826287</ele>
        <time>2026-05-02T08:59:25.414Z</time>
      </trkpt>
      <trkpt lat="43.79992" lon="4.23744">
        <ele>148.18059609795</ele>
        <time>2026-05-02T08:59:31.388Z</time>
      </trkpt>
      <trkpt lat="43.7999" lon="4.23744">
        <ele>148.1702588466</ele>
        <time>2026-05-02T08:59:36.405Z</time>
      </trkpt>
      <trkpt lat="43.79995" lon="4.23754">
        <ele>147.29097148737</ele>
        <time>2026-05-02T08:59:42.169Z</time>
      </trkpt>
      <trkpt lat="43.79996" lon="4.23764">
        <ele>146.34587498732</ele>
        <time>2026-05-02T08:59:47.396Z</time>
      </trkpt>
      <trkpt lat="43.80002" lon="4.23769">
        <ele>146.28955934728</ele>
        <time>2026-05-02T08:59:53.371Z</time>
      </trkpt>
      <trkpt lat="43.80008" lon="4.23773">
        <ele>146.32014089872</ele>
        <time>2026-05-02T08:59:58.805Z</time>
      </trkpt>
      <trkpt lat="43.80014" lon="4.23778">
        <ele>146.22897940083</ele>
        <time>2026-05-02T09:00:03.972Z</time>
      </trkpt>
      <trkpt lat="43.80021" lon="4.23779">
        <ele>146.31162340156</ele>
        <time>2026-05-02T09:00:09.069Z</time>
      </trkpt>
      <trkpt lat="43.80028" lon="4.23784">
        <ele>146.2206310882</ele>
        <time>2026-05-02T09:00:14.393Z</time>
      </trkpt>
      <trkpt lat="43.80035" lon="4.23788">
        <ele>146.16399294922</ele>
        <time>2026-05-02T09:00:20.149Z</time>
      </trkpt>
      <trkpt lat="43.80041" lon="4.23789">
        <ele>146.30128936688</ele>
        <time>2026-05-02T09:00:25.815Z</time>
      </trkpt>
      <trkpt lat="43.80049" lon="4.23791">
        <ele>146.41441286022</ele>
        <time>2026-05-02T09:00:31.360Z</time>
      </trkpt>
      <trkpt lat="43.80056" lon="4.23794">
        <ele>146.56504742116</ele>
        <time>2026-05-02T09:00:37.135Z</time>
      </trkpt>
      <trkpt lat="43.80061" lon="4.23795">
        <ele>146.68753779131</ele>
        <time>2026-05-02T09:00:42.791Z</time>
      </trkpt>
      <trkpt lat="43.80067" lon="4.23797">
        <ele>146.78154949838</ele>
        <time>2026-05-02T09:00:48.326Z</time>
      </trkpt>
      <trkpt lat="43.80073" lon="4.23799">
        <ele>146.82305661448</ele>
        <time>2026-05-02T09:00:54.207Z</time>
      </trkpt>
      <trkpt lat="43.8008" lon="4.23804">
        <ele>146.67499297554</ele>
        <time>2026-05-02T09:00:59.318Z</time>
      </trkpt>
      <trkpt lat="43.80086" lon="4.23806">
        <ele>146.74068558281</ele>
        <time>2026-05-02T09:01:04.333Z</time>
      </trkpt>
      <trkpt lat="43.80092" lon="4.23807">
        <ele>146.93133912497</ele>
        <time>2026-05-02T09:01:10.416Z</time>
      </trkpt>
      <trkpt lat="43.80098" lon="4.2381">
        <ele>147.01278565897</ele>
        <time>2026-05-02T09:01:16.071Z</time>
      </trkpt>
      <trkpt lat="43.80104" lon="4.23812">
        <ele>147.16405451956</ele>
        <time>2026-05-02T09:01:21.407Z</time>
      </trkpt>
      <trkpt lat="43.8011" lon="4.23812">
        <ele>147.54855827356</ele>
        <time>2026-05-02T09:01:26.422Z</time>
      </trkpt>
      <trkpt lat="43.80117" lon="4.23811">
        <ele>148.01917393763</ele>
        <time>2026-05-02T09:01:32.106Z</time>
      </trkpt>
      <trkpt lat="43.80123" lon="4.23813">
        <ele>148.33098304895</ele>
        <time>2026-05-02T09:01:37.413Z</time>
      </trkpt>
      <trkpt lat="43.8013" lon="4.2381">
        <ele>148.99305048979</ele>
        <time>2026-05-02T09:01:42.849Z</time>
      </trkpt>
      <trkpt lat="43.80136" lon="4.23806">
        <ele>149.58509884175</ele>
        <time>2026-05-02T09:01:48.290Z</time>
      </trkpt>
      <trkpt lat="43.80138" lon="4.23799">
        <ele>150.30961591127</ele>
        <time>2026-05-02T09:01:53.390Z</time>
      </trkpt>
      <trkpt lat="43.80141" lon="4.2379">
        <ele>151.32101608682</ele>
        <time>2026-05-02T09:01:59.032Z</time>
      </trkpt>
      <trkpt lat="43.80145" lon="4.23785">
        <ele>151.87328431008</ele>
        <time>2026-05-02T09:02:04.376Z</time>
      </trkpt>
      <trkpt lat="43.8015" lon="4.23778">
        <ele>152.7601292412</ele>
        <time>2026-05-02T09:02:10.386Z</time>
      </trkpt>
      <trkpt lat="43.80152" lon="4.2377">
        <ele>153.45629214075</ele>
        <time>2026-05-02T09:02:15.795Z</time>
      </trkpt>
      <trkpt lat="43.80155" lon="4.23763">
        <ele>153.98181760639</ele>
        <time>2026-05-02T09:02:21.228Z</time>
      </trkpt>
      <trkpt lat="43.80158" lon="4.23758">
        <ele>154.41789359791</ele>
        <time>2026-05-02T09:02:26.736Z</time>
      </trkpt>
      <trkpt lat="43.80161" lon="4.23751">
        <ele>155.04523496478</ele>
        <time>2026-05-02T09:02:32.414Z</time>
      </trkpt>
      <trkpt lat="43.80164" lon="4.23745">
        <ele>155.53473065394</ele>
        <time>2026-05-02T09:02:37.447Z</time>
      </trkpt>
      <trkpt lat="43.80168" lon="4.2374">
        <ele>155.89352505698</ele>
        <time>2026-05-02T09:02:42.478Z</time>
      </trkpt>
      <trkpt lat="43.80173" lon="4.23737">
        <ele>156.25628561545</ele>
        <time>2026-05-02T09:02:48.372Z</time>
      </trkpt>
      <trkpt lat="43.80178" lon="4.23736">
        <ele>156.53946426243</ele>
        <time>2026-05-02T09:02:53.389Z</time>
      </trkpt>
      <trkpt lat="43.80182" lon="4.23739">
        <ele>156.75031957091</ele>
        <time>2026-05-02T09:02:58.969Z</time>
      </trkpt>
      <trkpt lat="43.80186" lon="4.23745">
        <ele>157.03404212926</ele>
        <time>2026-05-02T09:03:04.053Z</time>
      </trkpt>
      <trkpt lat="43.80191" lon="4.23749">
        <ele>157.50060885455</ele>
        <time>2026-05-02T09:03:09.394Z</time>
      </trkpt>
      <trkpt lat="43.802" lon="4.23755">
        <ele>158.46604041211</ele>
        <time>2026-05-02T09:03:15.370Z</time>
      </trkpt>
      <trkpt lat="43.80208" lon="4.23759">
        <ele>159.45926010156</ele>
        <time>2026-05-02T09:03:20.609Z</time>
      </trkpt>
      <trkpt lat="43.80214" lon="4.23763">
        <ele>160.12276833142</ele>
        <time>2026-05-02T09:03:26.276Z</time>
      </trkpt>
      <trkpt lat="43.80219" lon="4.23761">
        <ele>160.57212138526</ele>
        <time>2026-05-02T09:03:31.376Z</time>
      </trkpt>
      <trkpt lat="43.80225" lon="4.23755">
        <ele>160.87622190199</ele>
        <time>2026-05-02T09:03:37.056Z</time>
      </trkpt>
      <trkpt lat="43.8023" lon="4.2375">
        <ele>161.13776301349</ele>
        <time>2026-05-02T09:03:42.529Z</time>
      </trkpt>
      <trkpt lat="43.80234" lon="4.23744">
        <ele>161.38744064234</ele>
        <time>2026-05-02T09:03:48.293Z</time>
      </trkpt>
      <trkpt lat="43.80239" lon="4.23737">
        <ele>161.49426425861</ele>
        <time>2026-05-02T09:03:54.187Z</time>
      </trkpt>
      <trkpt lat="43.80243" lon="4.23734">
        <ele>161.39573469964</ele>
        <time>2026-05-02T09:03:59.325Z</time>
      </trkpt>
      <trkpt lat="43.80243" lon="4.23735">
        <ele>161.4979768161</ele>
        <time>2026-05-02T09:04:05.505Z</time>
      </trkpt>
      <trkpt lat="43.80244" lon="4.23734">
        <ele>161.49529722236</ele>
        <time>2026-05-02T09:04:11.605Z</time>
      </trkpt>
      <trkpt lat="43.80254" lon="4.23733">
        <ele>160.2513257828</ele>
        <time>2026-05-02T09:04:17.228Z</time>
      </trkpt>
      <trkpt lat="43.80254" lon="4.23723">
        <ele>158.50705286928</ele>
        <time>2026-05-02T09:04:22.268Z</time>
      </trkpt>
      <trkpt lat="43.80253" lon="4.23715">
        <ele>157.51608514659</ele>
        <time>2026-05-02T09:04:27.934Z</time>
      </trkpt>
      <trkpt lat="43.80254" lon="4.23714">
        <ele>157.07907590813</ele>
        <time>2026-05-02T09:04:33.010Z</time>
      </trkpt>
      <trkpt lat="43.80256" lon="4.2371">
        <ele>155.79330985637</ele>
        <time>2026-05-02T09:04:38.328Z</time>
      </trkpt>
      <trkpt lat="43.80257" lon="4.23707">
        <ele>154.65607609775</ele>
        <time>2026-05-02T09:04:43.404Z</time>
      </trkpt>
      <trkpt lat="43.80256" lon="4.23706">
        <ele>154.64909755901</ele>
        <time>2026-05-02T09:04:50.254Z</time>
      </trkpt>
      <trkpt lat="43.80256" lon="4.23704">
        <ele>154.43774834945</ele>
        <time>2026-05-02T09:04:55.461Z</time>
      </trkpt>
      <trkpt lat="43.80254" lon="4.23702">
        <ele>154.14835460754</ele>
        <time>2026-05-02T09:05:01.412Z</time>
      </trkpt>
      <trkpt lat="43.80254" lon="4.23698">
        <ele>153.41260474221</ele>
        <time>2026-05-02T09:05:07.273Z</time>
      </trkpt>
      <trkpt lat="43.80253" lon="4.23691">
        <ele>152.18698755169</ele>
        <time>2026-05-02T09:05:12.321Z</time>
      </trkpt>
      <trkpt lat="43.80252" lon="4.23684">
        <ele>150.69162358946</ele>
        <time>2026-05-02T09:05:17.443Z</time>
      </trkpt>
      <trkpt lat="43.80253" lon="4.23681">
        <ele>149.97885913147</ele>
        <time>2026-05-02T09:05:23.414Z</time>
      </trkpt>
      <trkpt lat="43.80253" lon="4.2368">
        <ele>149.55742766469</ele>
        <time>2026-05-02T09:05:28.433Z</time>
      </trkpt>
      <trkpt lat="43.80256" lon="4.23672">
        <ele>146.57960567196</ele>
        <time>2026-05-02T09:05:33.434Z</time>
      </trkpt>
      <trkpt lat="43.80258" lon="4.23665">
        <ele>144.02296401801</ele>
        <time>2026-05-02T09:05:38.991Z</time>
      </trkpt>
      <trkpt lat="43.80258" lon="4.23661">
        <ele>143.19243642668</ele>
        <time>2026-05-02T09:05:43.998Z</time>
      </trkpt>
      <trkpt lat="43.80257" lon="4.23658">
        <ele>143.1547805162</ele>
        <time>2026-05-02T09:05:49.316Z</time>
      </trkpt>
      <trkpt lat="43.80257" lon="4.23655">
        <ele>142.36072972552</ele>
        <time>2026-05-02T09:05:54.740Z</time>
      </trkpt>
      <trkpt lat="43.80255" lon="4.23647">
        <ele>141.18077160326</ele>
        <time>2026-05-02T09:05:59.754Z</time>
      </trkpt>
      <trkpt lat="43.80252" lon="4.23641">
        <ele>140.77789021626</ele>
        <time>2026-05-02T09:06:05.154Z</time>
      </trkpt>
      <trkpt lat="43.80252" lon="4.23637">
        <ele>140.17740665902</ele>
        <time>2026-05-02T09:06:10.756Z</time>
      </trkpt>
      <trkpt lat="43.80251" lon="4.23633">
        <ele>139.59567980656</ele>
        <time>2026-05-02T09:06:15.878Z</time>
      </trkpt>
      <trkpt lat="43.80248" lon="4.23624">
        <ele>138.84973640401</ele>
        <time>2026-05-02T09:06:20.892Z</time>
      </trkpt>
      <trkpt lat="43.80246" lon="4.23617">
        <ele>138.23433167003</ele>
        <time>2026-05-02T09:06:25.997Z</time>
      </trkpt>
      <trkpt lat="43.80246" lon="4.23611">
        <ele>137.19528145285</ele>
        <time>2026-05-02T09:06:31.252Z</time>
      </trkpt>
      <trkpt lat="43.80243" lon="4.23603">
        <ele>137.04348982655</ele>
        <time>2026-05-02T09:06:36.726Z</time>
      </trkpt>
      <trkpt lat="43.80238" lon="4.23598">
        <ele>138.29612492091</ele>
        <time>2026-05-02T09:06:41.778Z</time>
      </trkpt>
      <trkpt lat="43.80235" lon="4.2359">
        <ele>139.06175189514</ele>
        <time>2026-05-02T09:06:47.339Z</time>
      </trkpt>
      <trkpt lat="43.80234" lon="4.23582">
        <ele>139.06673261796</ele>
        <time>2026-05-02T09:06:52.673Z</time>
      </trkpt>
      <trkpt lat="43.80234" lon="4.23575">
        <ele>138.73704637516</ele>
        <time>2026-05-02T09:06:58.195Z</time>
      </trkpt>
      <trkpt lat="43.80233" lon="4.23568">
        <ele>138.71542710948</ele>
        <time>2026-05-02T09:07:03.412Z</time>
      </trkpt>
      <trkpt lat="43.80232" lon="4.2356">
        <ele>138.83670430689</ele>
        <time>2026-05-02T09:07:09.174Z</time>
      </trkpt>
      <trkpt lat="43.80229" lon="4.2355">
        <ele>139.38895631889</ele>
        <time>2026-05-02T09:07:14.403Z</time>
      </trkpt>
      <trkpt lat="43.80227" lon="4.23544">
        <ele>140.06168441496</ele>
        <time>2026-05-02T09:07:19.884Z</time>
      </trkpt>
      <trkpt lat="43.80223" lon="4.23539">
        <ele>141.10642218931</ele>
        <time>2026-05-02T09:07:25.341Z</time>
      </trkpt>
      <trkpt lat="43.80221" lon="4.23534">
        <ele>141.41152977473</ele>
        <time>2026-05-02T09:07:30.411Z</time>
      </trkpt>
      <trkpt lat="43.80219" lon="4.23525">
        <ele>141.14768685901</ele>
        <time>2026-05-02T09:07:35.961Z</time>
      </trkpt>
      <trkpt lat="43.80215" lon="4.23518">
        <ele>142.31452607936</ele>
        <time>2026-05-02T09:07:41.399Z</time>
      </trkpt>
      <trkpt lat="43.80215" lon="4.23513">
        <ele>142.00911890114</ele>
        <time>2026-05-02T09:07:46.415Z</time>
      </trkpt>
      <trkpt lat="43.80216" lon="4.23509">
        <ele>141.13429169569</ele>
        <time>2026-05-02T09:07:51.430Z</time>
      </trkpt>
      <trkpt lat="43.80216" lon="4.23501">
        <ele>141.0700655049</ele>
        <time>2026-05-02T09:07:57.043Z</time>
      </trkpt>
      <trkpt lat="43.80214" lon="4.23496">
        <ele>142.13148477693</ele>
        <time>2026-05-02T09:08:02.420Z</time>
      </trkpt>
      <trkpt lat="43.80213" lon="4.23493">
        <ele>142.62385281042</ele>
        <time>2026-05-02T09:08:07.803Z</time>
      </trkpt>
      <trkpt lat="43.80209" lon="4.23487">
        <ele>144.18299802123</ele>
        <time>2026-05-02T09:08:13.360Z</time>
      </trkpt>
      <trkpt lat="43.80206" lon="4.23479">
        <ele>145.51732019553</ele>
        <time>2026-05-02T09:08:18.616Z</time>
      </trkpt>
      <trkpt lat="43.80205" lon="4.23474">
        <ele>145.69492869799</ele>
        <time>2026-05-02T09:08:24.458Z</time>
      </trkpt>
      <trkpt lat="43.80202" lon="4.23468">
        <ele>146.83253520797</ele>
        <time>2026-05-02T09:08:30.281Z</time>
      </trkpt>
      <trkpt lat="43.80201" lon="4.23463">
        <ele>147.09216927922</ele>
        <time>2026-05-02T09:08:35.393Z</time>
      </trkpt>
      <trkpt lat="43.802" lon="4.23457">
        <ele>147.22394784912</ele>
        <time>2026-05-02T09:08:41.060Z</time>
      </trkpt>
      <trkpt lat="43.80197" lon="4.23451">
        <ele>148.3336325587</ele>
        <time>2026-05-02T09:08:46.383Z</time>
      </trkpt>
      <trkpt lat="43.80194" lon="4.23447">
        <ele>149.4683645505</ele>
        <time>2026-05-02T09:08:51.399Z</time>
      </trkpt>
      <trkpt lat="43.80193" lon="4.23441">
        <ele>149.68051730436</ele>
        <time>2026-05-02T09:08:57.026Z</time>
      </trkpt>
      <trkpt lat="43.80193" lon="4.23435">
        <ele>149.06016894697</ele>
        <time>2026-05-02T09:09:02.287Z</time>
      </trkpt>
      <trkpt lat="43.80192" lon="4.23428">
        <ele>148.61969532248</ele>
        <time>2026-05-02T09:09:07.364Z</time>
      </trkpt>
      <trkpt lat="43.8019" lon="4.23418">
        <ele>147.83438404912</ele>
        <time>2026-05-02T09:09:12.616Z</time>
      </trkpt>
      <trkpt lat="43.80189" lon="4.23411">
        <ele>146.77807958297</ele>
        <time>2026-05-02T09:09:18.397Z</time>
      </trkpt>
      <trkpt lat="43.80186" lon="4.23404">
        <ele>147.28250671913</ele>
        <time>2026-05-02T09:09:23.806Z</time>
      </trkpt>
      <trkpt lat="43.80183" lon="4.234">
        <ele>147.88176021422</ele>
        <time>2026-05-02T09:09:29.267Z</time>
      </trkpt>
      <trkpt lat="43.8018" lon="4.23394">
        <ele>147.70980061639</ele>
        <time>2026-05-02T09:09:34.361Z</time>
      </trkpt>
      <trkpt lat="43.80177" lon="4.23387">
        <ele>147.79607513184</ele>
        <time>2026-05-02T09:09:39.761Z</time>
      </trkpt>
      <trkpt lat="43.80172" lon="4.23382">
        <ele>148.90209507654</ele>
        <time>2026-05-02T09:09:45.394Z</time>
      </trkpt>
      <trkpt lat="43.80168" lon="4.23372">
        <ele>148.60757220718</ele>
        <time>2026-05-02T09:09:50.410Z</time>
      </trkpt>
      <trkpt lat="43.80163" lon="4.23363">
        <ele>148.40755385654</ele>
        <time>2026-05-02T09:09:56.385Z</time>
      </trkpt>
      <trkpt lat="43.80159" lon="4.23356">
        <ele>148.46687502024</ele>
        <time>2026-05-02T09:10:01.403Z</time>
      </trkpt>
      <trkpt lat="43.80156" lon="4.23351">
        <ele>148.49499529078</ele>
        <time>2026-05-02T09:10:06.497Z</time>
      </trkpt>
      <trkpt lat="43.80154" lon="4.23346">
        <ele>148.34254245594</ele>
        <time>2026-05-02T09:10:12.340Z</time>
      </trkpt>
      <trkpt lat="43.80152" lon="4.23342">
        <ele>148.32758491779</ele>
        <time>2026-05-02T09:10:18.041Z</time>
      </trkpt>
      <trkpt lat="43.80146" lon="4.23336">
        <ele>148.87330100373</ele>
        <time>2026-05-02T09:10:23.966Z</time>
      </trkpt>
      <trkpt lat="43.80142" lon="4.23328">
        <ele>148.35434810898</ele>
        <time>2026-05-02T09:10:28.978Z</time>
      </trkpt>
      <trkpt lat="43.80137" lon="4.23319">
        <ele>147.54315452697</ele>
        <time>2026-05-02T09:10:34.438Z</time>
      </trkpt>
      <trkpt lat="43.80132" lon="4.23312">
        <ele>147.78293603347</ele>
        <time>2026-05-02T09:10:40.218Z</time>
      </trkpt>
      <trkpt lat="43.80127" lon="4.23308">
        <ele>148.49894217716</ele>
        <time>2026-05-02T09:10:45.244Z</time>
      </trkpt>
      <trkpt lat="43.80122" lon="4.23304">
        <ele>149.25897583036</ele>
        <time>2026-05-02T09:10:50.397Z</time>
      </trkpt>
      <trkpt lat="43.80115" lon="4.23296">
        <ele>149.69422816002</ele>
        <time>2026-05-02T09:10:56.323Z</time>
      </trkpt>
      <trkpt lat="43.80112" lon="4.23289">
        <ele>148.69104339117</ele>
        <time>2026-05-02T09:11:01.388Z</time>
      </trkpt>
      <trkpt lat="43.8011" lon="4.23282">
        <ele>147.62465673057</ele>
        <time>2026-05-02T09:11:06.403Z</time>
      </trkpt>
      <trkpt lat="43.80105" lon="4.23275">
        <ele>147.14347396516</ele>
        <time>2026-05-02T09:11:12.399Z</time>
      </trkpt>
      <trkpt lat="43.801" lon="4.23269">
        <ele>146.90753357958</ele>
        <time>2026-05-02T09:11:18.147Z</time>
      </trkpt>
      <trkpt lat="43.80096" lon="4.23262">
        <ele>146.7610182381</ele>
        <time>2026-05-02T09:11:23.370Z</time>
      </trkpt>
      <trkpt lat="43.80091" lon="4.23256">
        <ele>146.84566866564</ele>
        <time>2026-05-02T09:11:28.384Z</time>
      </trkpt>
      <trkpt lat="43.80087" lon="4.23252">
        <ele>147.67317787354</ele>
        <time>2026-05-02T09:11:33.733Z</time>
      </trkpt>
      <trkpt lat="43.80084" lon="4.23247">
        <ele>148.12120806675</ele>
        <time>2026-05-02T09:11:39.282Z</time>
      </trkpt>
      <trkpt lat="43.80084" lon="4.23241">
        <ele>147.52706841377</ele>
        <time>2026-05-02T09:11:44.390Z</time>
      </trkpt>
      <trkpt lat="43.80086" lon="4.23233">
        <ele>145.5724781839</ele>
        <time>2026-05-02T09:11:49.406Z</time>
      </trkpt>
      <trkpt lat="43.80091" lon="4.23223">
        <ele>144.38182716854</ele>
        <time>2026-05-02T09:11:54.995Z</time>
      </trkpt>
      <trkpt lat="43.80096" lon="4.2322">
        <ele>143.11656964322</ele>
        <time>2026-05-02T09:12:00.133Z</time>
      </trkpt>
      <trkpt lat="43.80097" lon="4.23213">
        <ele>143.4127596587</ele>
        <time>2026-05-02T09:12:05.412Z</time>
      </trkpt>
      <trkpt lat="43.80099" lon="4.23206">
        <ele>144.21125287982</ele>
        <time>2026-05-02T09:12:11.094Z</time>
      </trkpt>
      <trkpt lat="43.80102" lon="4.23205">
        <ele>143.08202132198</ele>
        <time>2026-05-02T09:12:16.402Z</time>
      </trkpt>
      <trkpt lat="43.80106" lon="4.23201">
        <ele>142.64731807302</ele>
        <time>2026-05-02T09:12:22.425Z</time>
      </trkpt>
      <trkpt lat="43.80111" lon="4.23194">
        <ele>142.52095848619</ele>
        <time>2026-05-02T09:12:28.313Z</time>
      </trkpt>
      <trkpt lat="43.80113" lon="4.23186">
        <ele>143.18829593191</ele>
        <time>2026-05-02T09:12:33.487Z</time>
      </trkpt>
      <trkpt lat="43.80114" lon="4.23177">
        <ele>144.19782964314</ele>
        <time>2026-05-02T09:12:38.726Z</time>
      </trkpt>
      <trkpt lat="43.80115" lon="4.23168">
        <ele>145.22237190536</ele>
        <time>2026-05-02T09:12:44.088Z</time>
      </trkpt>
      <trkpt lat="43.80117" lon="4.23162">
        <ele>145.6933432236</ele>
        <time>2026-05-02T09:12:49.609Z</time>
      </trkpt>
      <trkpt lat="43.80118" lon="4.23154">
        <ele>146.54395288801</ele>
        <time>2026-05-02T09:12:55.008Z</time>
      </trkpt>
      <trkpt lat="43.80119" lon="4.23146">
        <ele>147.48635592465</ele>
        <time>2026-05-02T09:13:00.226Z</time>
      </trkpt>
      <trkpt lat="43.80119" lon="4.23139">
        <ele>148.62864327287</ele>
        <time>2026-05-02T09:13:05.750Z</time>
      </trkpt>
      <trkpt lat="43.8012" lon="4.23131">
        <ele>149.44005280577</ele>
        <time>2026-05-02T09:13:11.129Z</time>
      </trkpt>
      <trkpt lat="43.80122" lon="4.23123">
        <ele>149.3632430735</ele>
        <time>2026-05-02T09:13:16.372Z</time>
      </trkpt>
      <trkpt lat="43.80124" lon="4.23116">
        <ele>148.57346890197</ele>
        <time>2026-05-02T09:13:21.388Z</time>
      </trkpt>
      <trkpt lat="43.80126" lon="4.23107">
        <ele>148.08509699662</ele>
        <time>2026-05-02T09:13:27.427Z</time>
      </trkpt>
      <trkpt lat="43.80128" lon="4.23098">
        <ele>147.33544237291</ele>
        <time>2026-05-02T09:13:33.190Z</time>
      </trkpt>
      <trkpt lat="43.80125" lon="4.23089">
        <ele>147.66982334832</ele>
        <time>2026-05-02T09:13:38.460Z</time>
      </trkpt>
      <trkpt lat="43.80125" lon="4.23083">
        <ele>146.93592915333</ele>
        <time>2026-05-02T09:13:43.586Z</time>
      </trkpt>
      <trkpt lat="43.80124" lon="4.23081">
        <ele>146.96092576696</ele>
        <time>2026-05-02T09:13:50.117Z</time>
      </trkpt>
      <trkpt lat="43.80121" lon="4.23076">
        <ele>147.47818932568</ele>
        <time>2026-05-02T09:13:56.266Z</time>
      </trkpt>
      <trkpt lat="43.80118" lon="4.23067">
        <ele>146.1046128796</ele>
        <time>2026-05-02T09:14:01.369Z</time>
      </trkpt>
      <trkpt lat="43.80115" lon="4.2306">
        <ele>145.30431624444</ele>
        <time>2026-05-02T09:14:06.418Z</time>
      </trkpt>
      <trkpt lat="43.80108" lon="4.23053">
        <ele>145.66586444207</ele>
        <time>2026-05-02T09:14:12.370Z</time>
      </trkpt>
      <trkpt lat="43.80103" lon="4.23047">
        <ele>145.09924688603</ele>
        <time>2026-05-02T09:14:17.408Z</time>
      </trkpt>
      <trkpt lat="43.801" lon="4.23038">
        <ele>143.7076799868</ele>
        <time>2026-05-02T09:14:22.908Z</time>
      </trkpt>
      <trkpt lat="43.80097" lon="4.23033">
        <ele>143.48163932183</ele>
        <time>2026-05-02T09:14:28.399Z</time>
      </trkpt>
      <trkpt lat="43.80093" lon="4.23028">
        <ele>143.45974343979</ele>
        <time>2026-05-02T09:14:33.809Z</time>
      </trkpt>
      <trkpt lat="43.80087" lon="4.23022">
        <ele>143.5008428224</ele>
        <time>2026-05-02T09:14:39.393Z</time>
      </trkpt>
      <trkpt lat="43.80081" lon="4.23018">
        <ele>144.22133899508</ele>
        <time>2026-05-02T09:14:44.405Z</time>
      </trkpt>
      <trkpt lat="43.80076" lon="4.23008">
        <ele>143.81980778121</ele>
        <time>2026-05-02T09:14:49.912Z</time>
      </trkpt>
      <trkpt lat="43.80072" lon="4.23004">
        <ele>144.61078825069</ele>
        <time>2026-05-02T09:14:55.372Z</time>
      </trkpt>
      <trkpt lat="43.80067" lon="4.22998">
        <ele>144.69009144891</ele>
        <time>2026-05-02T09:15:00.689Z</time>
      </trkpt>
      <trkpt lat="43.80064" lon="4.22991">
        <ele>144.32087607609</ele>
        <time>2026-05-02T09:15:06.386Z</time>
      </trkpt>
      <trkpt lat="43.8006" lon="4.22984">
        <ele>144.75736034897</ele>
        <time>2026-05-02T09:15:11.707Z</time>
      </trkpt>
      <trkpt lat="43.80055" lon="4.22979">
        <ele>145.39432069673</ele>
        <time>2026-05-02T09:15:16.828Z</time>
      </trkpt>
      <trkpt lat="43.80048" lon="4.22977">
        <ele>146.11033507276</ele>
        <time>2026-05-02T09:15:22.492Z</time>
      </trkpt>
      <trkpt lat="43.80045" lon="4.22971">
        <ele>146.45852374922</ele>
        <time>2026-05-02T09:15:27.846Z</time>
      </trkpt>
      <trkpt lat="43.80045" lon="4.22963">
        <ele>146.88372396728</ele>
        <time>2026-05-02T09:15:33.465Z</time>
      </trkpt>
      <trkpt lat="43.80046" lon="4.22959">
        <ele>147.08290287457</ele>
        <time>2026-05-02T09:15:38.712Z</time>
      </trkpt>
      <trkpt lat="43.80047" lon="4.22953">
        <ele>147.45149589478</ele>
        <time>2026-05-02T09:15:43.826Z</time>
      </trkpt>
      <trkpt lat="43.80048" lon="4.22947">
        <ele>147.73144607097</ele>
        <time>2026-05-02T09:15:49.389Z</time>
      </trkpt>
      <trkpt lat="43.80049" lon="4.22939">
        <ele>148.31003135511</ele>
        <time>2026-05-02T09:15:54.805Z</time>
      </trkpt>
      <trkpt lat="43.80048" lon="4.22933">
        <ele>148.87559914398</ele>
        <time>2026-05-02T09:15:59.830Z</time>
      </trkpt>
      <trkpt lat="43.80046" lon="4.22925">
        <ele>149.52678622456</ele>
        <time>2026-05-02T09:16:04.993Z</time>
      </trkpt>
      <trkpt lat="43.80042" lon="4.22919">
        <ele>150.16416681853</ele>
        <time>2026-05-02T09:16:10.410Z</time>
      </trkpt>
      <trkpt lat="43.80039" lon="4.22912">
        <ele>151.14339739934</ele>
        <time>2026-05-02T09:16:15.986Z</time>
      </trkpt>
      <trkpt lat="43.8004" lon="4.22906">
        <ele>151.84795663935</ele>
        <time>2026-05-02T09:16:21.401Z</time>
      </trkpt>
      <trkpt lat="43.80042" lon="4.229">
        <ele>152.34447663397</ele>
        <time>2026-05-02T09:16:26.749Z</time>
      </trkpt>
      <trkpt lat="43.80044" lon="4.22895">
        <ele>152.67394789299</ele>
        <time>2026-05-02T09:16:32.368Z</time>
      </trkpt>
      <trkpt lat="43.80045" lon="4.2289">
        <ele>153.12245605678</ele>
        <time>2026-05-02T09:16:37.407Z</time>
      </trkpt>
      <trkpt lat="43.80043" lon="4.22885">
        <ele>153.81518557477</ele>
        <time>2026-05-02T09:16:42.849Z</time>
      </trkpt>
      <trkpt lat="43.80044" lon="4.22876">
        <ele>154.20735924399</ele>
        <time>2026-05-02T09:16:47.886Z</time>
      </trkpt>
      <trkpt lat="43.80043" lon="4.22868">
        <ele>154.77865420486</ele>
        <time>2026-05-02T09:16:53.371Z</time>
      </trkpt>
      <trkpt lat="43.80042" lon="4.22866">
        <ele>154.88079236333</ele>
        <time>2026-05-02T09:17:01.424Z</time>
      </trkpt>
      <trkpt lat="43.80041" lon="4.2286">
        <ele>155.3135956128</ele>
        <time>2026-05-02T09:17:06.871Z</time>
      </trkpt>
      <trkpt lat="43.80038" lon="4.22847">
        <ele>156.37445569862</ele>
        <time>2026-05-02T09:17:12.055Z</time>
      </trkpt>
      <trkpt lat="43.80035" lon="4.22837">
        <ele>157.20903550124</ele>
        <time>2026-05-02T09:17:17.325Z</time>
      </trkpt>
      <trkpt lat="43.80031" lon="4.22833">
        <ele>157.72544214399</ele>
        <time>2026-05-02T09:17:23.134Z</time>
      </trkpt>
      <trkpt lat="43.80029" lon="4.22829">
        <ele>158.02333276876</ele>
        <time>2026-05-02T09:17:28.897Z</time>
      </trkpt>
      <trkpt lat="43.80026" lon="4.22823">
        <ele>158.49931643817</ele>
        <time>2026-05-02T09:17:34.294Z</time>
      </trkpt>
      <trkpt lat="43.80023" lon="4.22822">
        <ele>158.69352877897</ele>
        <time>2026-05-02T09:17:39.413Z</time>
      </trkpt>
      <trkpt lat="43.80022" lon="4.22823">
        <ele>158.70737783436</ele>
        <time>2026-05-02T09:17:45.278Z</time>
      </trkpt>
      <trkpt lat="43.80021" lon="4.22823">
        <ele>158.67148625735</ele>
        <time>2026-05-02T09:17:51.364Z</time>
      </trkpt>
      <trkpt lat="43.8002" lon="4.22822">
        <ele>158.6618002667</ele>
        <time>2026-05-02T09:17:58.407Z</time>
      </trkpt>
      <trkpt lat="43.80019" lon="4.22823">
        <ele>158.59631772824</ele>
        <time>2026-05-02T09:18:08.437Z</time>
      </trkpt>
      <trkpt lat="43.80019" lon="4.22824">
        <ele>158.52956623675</ele>
        <time>2026-05-02T09:18:24.443Z</time>
      </trkpt>
      <trkpt lat="43.8002" lon="4.22823">
        <ele>158.63710914694</ele>
        <time>2026-05-02T09:18:29.452Z</time>
      </trkpt>
      <trkpt lat="43.80026" lon="4.22814">
        <ele>158.95757764785</ele>
        <time>2026-05-02T09:18:34.933Z</time>
      </trkpt>
      <trkpt lat="43.80032" lon="4.22802">
        <ele>159.21329113383</ele>
        <time>2026-05-02T09:18:39.955Z</time>
      </trkpt>
      <trkpt lat="43.80036" lon="4.22793">
        <ele>159.53527006743</ele>
        <time>2026-05-02T09:18:45.125Z</time>
      </trkpt>
      <trkpt lat="43.80039" lon="4.22787">
        <ele>159.56853325069</ele>
        <time>2026-05-02T09:18:50.399Z</time>
      </trkpt>
      <trkpt lat="43.80042" lon="4.22781">
        <ele>159.61627246306</ele>
        <time>2026-05-02T09:18:55.469Z</time>
      </trkpt>
      <trkpt lat="43.80046" lon="4.22775">
        <ele>159.76892151413</ele>
        <time>2026-05-02T09:19:01.216Z</time>
      </trkpt>
      <trkpt lat="43.80045" lon="4.22766">
        <ele>160.65989333027</ele>
        <time>2026-05-02T09:19:06.391Z</time>
      </trkpt>
      <trkpt lat="43.80041" lon="4.22759">
        <ele>161.56507501086</ele>
        <time>2026-05-02T09:19:11.833Z</time>
      </trkpt>
      <trkpt lat="43.8004" lon="4.22753">
        <ele>162.28640439229</ele>
        <time>2026-05-02T09:19:16.974Z</time>
      </trkpt>
      <trkpt lat="43.80038" lon="4.22744">
        <ele>162.84175721654</ele>
        <time>2026-05-02T09:19:22.789Z</time>
      </trkpt>
      <trkpt lat="43.80036" lon="4.22736">
        <ele>163.51547873776</ele>
        <time>2026-05-02T09:19:28.361Z</time>
      </trkpt>
      <trkpt lat="43.80032" lon="4.22728">
        <ele>164.26929588502</ele>
        <time>2026-05-02T09:19:33.833Z</time>
      </trkpt>
      <trkpt lat="43.80028" lon="4.22721">
        <ele>164.63534729938</ele>
        <time>2026-05-02T09:19:39.376Z</time>
      </trkpt>
      <trkpt lat="43.80025" lon="4.22716">
        <ele>164.91068033682</ele>
        <time>2026-05-02T09:19:44.636Z</time>
      </trkpt>
      <trkpt lat="43.80021" lon="4.22712">
        <ele>165.16994549862</ele>
        <time>2026-05-02T09:19:49.834Z</time>
      </trkpt>
      <trkpt lat="43.80017" lon="4.22707">
        <ele>165.1342689075</ele>
        <time>2026-05-02T09:19:55.191Z</time>
      </trkpt>
      <trkpt lat="43.80016" lon="4.22697">
        <ele>165.33143900302</ele>
        <time>2026-05-02T09:20:00.373Z</time>
      </trkpt>
      <trkpt lat="43.80017" lon="4.22689">
        <ele>165.57049280376</ele>
        <time>2026-05-02T09:20:06.271Z</time>
      </trkpt>
      <trkpt lat="43.80014" lon="4.22682">
        <ele>165.90522706203</ele>
        <time>2026-05-02T09:20:11.396Z</time>
      </trkpt>
      <trkpt lat="43.80011" lon="4.22677">
        <ele>166.21773944826</ele>
        <time>2026-05-02T09:20:16.592Z</time>
      </trkpt>
      <trkpt lat="43.80009" lon="4.2267">
        <ele>166.7458893452</ele>
        <time>2026-05-02T09:20:22.277Z</time>
      </trkpt>
      <trkpt lat="43.80008" lon="4.22664">
        <ele>166.9923065896</ele>
        <time>2026-05-02T09:20:27.369Z</time>
      </trkpt>
      <trkpt lat="43.80005" lon="4.22658">
        <ele>167.44887912103</ele>
        <time>2026-05-02T09:20:33.216Z</time>
      </trkpt>
      <trkpt lat="43.80001" lon="4.22652">
        <ele>168.20242135252</ele>
        <time>2026-05-02T09:20:38.360Z</time>
      </trkpt>
      <trkpt lat="43.79997" lon="4.22646">
        <ele>168.99170449335</ele>
        <time>2026-05-02T09:20:43.912Z</time>
      </trkpt>
      <trkpt lat="43.79994" lon="4.22641">
        <ele>169.29635249427</ele>
        <time>2026-05-02T09:20:49.456Z</time>
      </trkpt>
      <trkpt lat="43.79992" lon="4.22635">
        <ele>169.56227566112</ele>
        <time>2026-05-02T09:20:54.633Z</time>
      </trkpt>
      <trkpt lat="43.79989" lon="4.22631">
        <ele>169.77120440149</ele>
        <time>2026-05-02T09:20:59.988Z</time>
      </trkpt>
      <trkpt lat="43.79987" lon="4.22625">
        <ele>170.0612859232</ele>
        <time>2026-05-02T09:21:04.996Z</time>
      </trkpt>
      <trkpt lat="43.79985" lon="4.22617">
        <ele>170.62611931529</ele>
        <time>2026-05-02T09:21:10.252Z</time>
      </trkpt>
      <trkpt lat="43.79985" lon="4.22609">
        <ele>170.79302653595</ele>
        <time>2026-05-02T09:21:15.354Z</time>
      </trkpt>
      <trkpt lat="43.79983" lon="4.22601">
        <ele>171.11667515069</ele>
        <time>2026-05-02T09:21:21.151Z</time>
      </trkpt>
      <trkpt lat="43.79981" lon="4.22592">
        <ele>171.23056284521</ele>
        <time>2026-05-02T09:21:27.113Z</time>
      </trkpt>
      <trkpt lat="43.7998" lon="4.22584">
        <ele>171.04181900553</ele>
        <time>2026-05-02T09:21:32.293Z</time>
      </trkpt>
      <trkpt lat="43.79978" lon="4.22577">
        <ele>171.26006785199</ele>
        <time>2026-05-02T09:21:37.771Z</time>
      </trkpt>
      <trkpt lat="43.79976" lon="4.2257">
        <ele>171.2116529517</ele>
        <time>2026-05-02T09:21:42.972Z</time>
      </trkpt>
      <trkpt lat="43.79973" lon="4.22563">
        <ele>171.68133329571</ele>
        <time>2026-05-02T09:21:48.359Z</time>
      </trkpt>
      <trkpt lat="43.79969" lon="4.22557">
        <ele>171.90437934894</ele>
        <time>2026-05-02T09:21:53.694Z</time>
      </trkpt>
      <trkpt lat="43.79966" lon="4.22552">
        <ele>172.18787365536</ele>
        <time>2026-05-02T09:21:58.853Z</time>
      </trkpt>
      <trkpt lat="43.79965" lon="4.22543">
        <ele>172.03104351404</ele>
        <time>2026-05-02T09:22:04.092Z</time>
      </trkpt>
      <trkpt lat="43.79963" lon="4.22535">
        <ele>172.03889310898</ele>
        <time>2026-05-02T09:22:09.380Z</time>
      </trkpt>
      <trkpt lat="43.79961" lon="4.22528">
        <ele>172.34579858477</ele>
        <time>2026-05-02T09:22:14.394Z</time>
      </trkpt>
      <trkpt lat="43.79957" lon="4.22522">
        <ele>172.70361210272</ele>
        <time>2026-05-02T09:22:19.687Z</time>
      </trkpt>
      <trkpt lat="43.79953" lon="4.22518">
        <ele>173.08021891994</ele>
        <time>2026-05-02T09:22:25.386Z</time>
      </trkpt>
      <trkpt lat="43.79951" lon="4.22515">
        <ele>173.32107567541</ele>
        <time>2026-05-02T09:22:30.394Z</time>
      </trkpt>
      <trkpt lat="43.79949" lon="4.22512">
        <ele>173.67091695032</ele>
        <time>2026-05-02T09:22:35.917Z</time>
      </trkpt>
      <trkpt lat="43.79946" lon="4.22507">
        <ele>174.18576431621</ele>
        <time>2026-05-02T09:22:41.030Z</time>
      </trkpt>
      <trkpt lat="43.79943" lon="4.225">
        <ele>174.62273833664</ele>
        <time>2026-05-02T09:22:46.407Z</time>
      </trkpt>
      <trkpt lat="43.79945" lon="4.22492">
        <ele>174.57216162768</ele>
        <time>2026-05-02T09:22:51.834Z</time>
      </trkpt>
      <trkpt lat="43.79946" lon="4.22484">
        <ele>174.3154159689</ele>
        <time>2026-05-02T09:22:57.397Z</time>
      </trkpt>
      <trkpt lat="43.79944" lon="4.22477">
        <ele>174.33619884959</ele>
        <time>2026-05-02T09:23:03.251Z</time>
      </trkpt>
      <trkpt lat="43.7994" lon="4.22472">
        <ele>174.78649414895</ele>
        <time>2026-05-02T09:23:08.293Z</time>
      </trkpt>
      <trkpt lat="43.79934" lon="4.22472">
        <ele>175.4291386231</ele>
        <time>2026-05-02T09:23:13.930Z</time>
      </trkpt>
      <trkpt lat="43.79931" lon="4.22468">
        <ele>175.38361524165</ele>
        <time>2026-05-02T09:23:19.132Z</time>
      </trkpt>
      <trkpt lat="43.79926" lon="4.22465">
        <ele>175.29692132666</ele>
        <time>2026-05-02T09:23:25.410Z</time>
      </trkpt>
      <trkpt lat="43.79919" lon="4.22462">
        <ele>175.25092072451</ele>
        <time>2026-05-02T09:23:30.772Z</time>
      </trkpt>
      <trkpt lat="43.79913" lon="4.22458">
        <ele>175.36746301372</ele>
        <time>2026-05-02T09:23:36.312Z</time>
      </trkpt>
      <trkpt lat="43.7991" lon="4.22452">
        <ele>175.61128134791</ele>
        <time>2026-05-02T09:23:42.427Z</time>
      </trkpt>
      <trkpt lat="43.79908" lon="4.22445">
        <ele>175.93478775954</ele>
        <time>2026-05-02T09:23:47.488Z</time>
      </trkpt>
      <trkpt lat="43.79906" lon="4.22435">
        <ele>176.46298214225</ele>
        <time>2026-05-02T09:23:53.217Z</time>
      </trkpt>
      <trkpt lat="43.79902" lon="4.22429">
        <ele>176.69189277937</ele>
        <time>2026-05-02T09:23:58.792Z</time>
      </trkpt>
      <trkpt lat="43.79902" lon="4.22421">
        <ele>177.30317672985</ele>
        <time>2026-05-02T09:24:04.215Z</time>
      </trkpt>
      <trkpt lat="43.79901" lon="4.22413">
        <ele>177.78764392046</ele>
        <time>2026-05-02T09:24:09.328Z</time>
      </trkpt>
      <trkpt lat="43.79898" lon="4.22406">
        <ele>178.12945494266</ele>
        <time>2026-05-02T09:24:14.438Z</time>
      </trkpt>
      <trkpt lat="43.79897" lon="4.22398">
        <ele>178.59084408725</ele>
        <time>2026-05-02T09:24:19.679Z</time>
      </trkpt>
      <trkpt lat="43.79896" lon="4.22389">
        <ele>179.03948869506</ele>
        <time>2026-05-02T09:24:25.237Z</time>
      </trkpt>
      <trkpt lat="43.79895" lon="4.2238">
        <ele>179.35179851326</ele>
        <time>2026-05-02T09:24:30.678Z</time>
      </trkpt>
      <trkpt lat="43.79895" lon="4.22372">
        <ele>179.67527421352</ele>
        <time>2026-05-02T09:24:35.778Z</time>
      </trkpt>
      <trkpt lat="43.79895" lon="4.22363">
        <ele>179.87984425176</ele>
        <time>2026-05-02T09:24:41.180Z</time>
      </trkpt>
      <trkpt lat="43.79895" lon="4.22356">
        <ele>180.02892294559</ele>
        <time>2026-05-02T09:24:46.738Z</time>
      </trkpt>
      <trkpt lat="43.79896" lon="4.2235">
        <ele>180.00997086269</ele>
        <time>2026-05-02T09:24:52.100Z</time>
      </trkpt>
      <trkpt lat="43.79896" lon="4.22348">
        <ele>180.00838599747</ele>
        <time>2026-05-02T09:24:57.441Z</time>
      </trkpt>
      <trkpt lat="43.79895" lon="4.22349">
        <ele>179.95963296682</ele>
        <time>2026-05-02T09:25:03.215Z</time>
      </trkpt>
      <trkpt lat="43.79895" lon="4.22348">
        <ele>179.93322934715</ele>
        <time>2026-05-02T09:25:54.421Z</time>
      </trkpt>
      <trkpt lat="43.79894" lon="4.22347">
        <ele>179.88713843641</ele>
        <time>2026-05-02T09:26:06.358Z</time>
      </trkpt>
      <trkpt lat="43.79892" lon="4.22347">
        <ele>179.80600805784</ele>
        <time>2026-05-02T09:26:12.348Z</time>
      </trkpt>
      <trkpt lat="43.7989" lon="4.22346">
        <ele>179.7249519703</ele>
        <time>2026-05-02T09:26:17.362Z</time>
      </trkpt>
      <trkpt lat="43.79885" lon="4.22338">
        <ele>179.4790476484</ele>
        <time>2026-05-02T09:26:22.435Z</time>
      </trkpt>
      <trkpt lat="43.7988" lon="4.22323">
        <ele>178.76300303283</ele>
        <time>2026-05-02T09:26:27.680Z</time>
      </trkpt>
      <trkpt lat="43.79877" lon="4.22314">
        <ele>177.93254038021</ele>
        <time>2026-05-02T09:26:33.369Z</time>
      </trkpt>
      <trkpt lat="43.79874" lon="4.22306">
        <ele>177.34468107408</ele>
        <time>2026-05-02T09:26:39.055Z</time>
      </trkpt>
      <trkpt lat="43.79869" lon="4.22301">
        <ele>176.79601233642</ele>
        <time>2026-05-02T09:26:44.078Z</time>
      </trkpt>
      <trkpt lat="43.79863" lon="4.22297">
        <ele>176.26964680795</ele>
        <time>2026-05-02T09:26:49.375Z</time>
      </trkpt>
      <trkpt lat="43.79859" lon="4.22291">
        <ele>175.76050358776</ele>
        <time>2026-05-02T09:26:54.740Z</time>
      </trkpt>
      <trkpt lat="43.79854" lon="4.22288">
        <ele>175.10090266936</ele>
        <time>2026-05-02T09:26:59.818Z</time>
      </trkpt>
      <trkpt lat="43.79848" lon="4.22288">
        <ele>174.29048838134</ele>
        <time>2026-05-02T09:27:05.258Z</time>
      </trkpt>
      <trkpt lat="43.79841" lon="4.22293">
        <ele>173.81859477351</ele>
        <time>2026-05-02T09:27:10.396Z</time>
      </trkpt>
      <trkpt lat="43.79837" lon="4.22298">
        <ele>173.36039009889</ele>
        <time>2026-05-02T09:27:15.411Z</time>
      </trkpt>
      <trkpt lat="43.79832" lon="4.22298">
        <ele>172.94982982352</ele>
        <time>2026-05-02T09:27:20.653Z</time>
      </trkpt>
      <trkpt lat="43.79827" lon="4.22302">
        <ele>172.6173686368</ele>
        <time>2026-05-02T09:27:26.055Z</time>
      </trkpt>
      <trkpt lat="43.79821" lon="4.223">
        <ele>172.26307058987</ele>
        <time>2026-05-02T09:27:31.309Z</time>
      </trkpt>
      <trkpt lat="43.79817" lon="4.22299">
        <ele>172.08385694616</ele>
        <time>2026-05-02T09:27:36.370Z</time>
      </trkpt>
      <trkpt lat="43.79811" lon="4.22298">
        <ele>171.87631349616</ele>
        <time>2026-05-02T09:27:42.081Z</time>
      </trkpt>
      <trkpt lat="43.79804" lon="4.22298">
        <ele>171.89688725337</ele>
        <time>2026-05-02T09:27:47.317Z</time>
      </trkpt>
      <trkpt lat="43.79798" lon="4.22299">
        <ele>171.90704559612</ele>
        <time>2026-05-02T09:27:52.438Z</time>
      </trkpt>
      <trkpt lat="43.79792" lon="4.22298">
        <ele>172.08745966631</ele>
        <time>2026-05-02T09:27:58.124Z</time>
      </trkpt>
      <trkpt lat="43.79787" lon="4.223">
        <ele>172.18474885762</ele>
        <time>2026-05-02T09:28:03.430Z</time>
      </trkpt>
      <trkpt lat="43.79779" lon="4.22298">
        <ele>172.80924598772</ele>
        <time>2026-05-02T09:28:09.406Z</time>
      </trkpt>
      <trkpt lat="43.79773" lon="4.22295">
        <ele>173.31143168617</ele>
        <time>2026-05-02T09:28:14.583Z</time>
      </trkpt>
      <trkpt lat="43.79767" lon="4.22295">
        <ele>173.74759415449</ele>
        <time>2026-05-02T09:28:20.397Z</time>
      </trkpt>
      <trkpt lat="43.79762" lon="4.22298">
        <ele>173.96841740988</ele>
        <time>2026-05-02T09:28:25.412Z</time>
      </trkpt>
      <trkpt lat="43.79755" lon="4.223">
        <ele>174.24966076733</ele>
        <time>2026-05-02T09:28:31.064Z</time>
      </trkpt>
      <trkpt lat="43.7975" lon="4.223">
        <ele>174.53171139305</ele>
        <time>2026-05-02T09:28:36.405Z</time>
      </trkpt>
      <trkpt lat="43.79743" lon="4.22301">
        <ele>174.7152919313</ele>
        <time>2026-05-02T09:28:42.115Z</time>
      </trkpt>
      <trkpt lat="43.79738" lon="4.22302">
        <ele>174.86292512369</ele>
        <time>2026-05-02T09:28:47.338Z</time>
      </trkpt>
      <trkpt lat="43.79732" lon="4.223">
        <ele>175.05302827671</ele>
        <time>2026-05-02T09:28:52.412Z</time>
      </trkpt>
      <trkpt lat="43.79727" lon="4.223">
        <ele>175.13451782283</ele>
        <time>2026-05-02T09:28:57.437Z</time>
      </trkpt>
      <trkpt lat="43.79721" lon="4.22301">
        <ele>175.10435273855</ele>
        <time>2026-05-02T09:29:02.444Z</time>
      </trkpt>
      <trkpt lat="43.79714" lon="4.223">
        <ele>174.94324923733</ele>
        <time>2026-05-02T09:29:07.458Z</time>
      </trkpt>
      <trkpt lat="43.79707" lon="4.223">
        <ele>174.71227768649</ele>
        <time>2026-05-02T09:29:13.280Z</time>
      </trkpt>
      <trkpt lat="43.797" lon="4.22301">
        <ele>174.53779962157</ele>
        <time>2026-05-02T09:29:18.451Z</time>
      </trkpt>
      <trkpt lat="43.79692" lon="4.22303">
        <ele>174.19391071492</ele>
        <time>2026-05-02T09:29:24.420Z</time>
      </trkpt>
      <trkpt lat="43.79686" lon="4.22304">
        <ele>173.90550235808</ele>
        <time>2026-05-02T09:29:30.184Z</time>
      </trkpt>
      <trkpt lat="43.79681" lon="4.22306">
        <ele>173.56753190907</ele>
        <time>2026-05-02T09:29:35.418Z</time>
      </trkpt>
      <trkpt lat="43.79674" lon="4.22305">
        <ele>173.08719651673</ele>
        <time>2026-05-02T09:29:41.477Z</time>
      </trkpt>
      <trkpt lat="43.79668" lon="4.22303">
        <ele>172.54049523342</ele>
        <time>2026-05-02T09:29:47.205Z</time>
      </trkpt>
      <trkpt lat="43.79661" lon="4.22302">
        <ele>171.92991509419</ele>
        <time>2026-05-02T09:29:52.857Z</time>
      </trkpt>
      <trkpt lat="43.79655" lon="4.22305">
        <ele>171.65604186348</ele>
        <time>2026-05-02T09:29:58.400Z</time>
      </trkpt>
      <trkpt lat="43.79647" lon="4.22311">
        <ele>170.89729985276</ele>
        <time>2026-05-02T09:30:03.860Z</time>
      </trkpt>
      <trkpt lat="43.7964" lon="4.22315">
        <ele>170.31851171295</ele>
        <time>2026-05-02T09:30:09.417Z</time>
      </trkpt>
      <trkpt lat="43.79634" lon="4.2232">
        <ele>169.85120907053</ele>
        <time>2026-05-02T09:30:14.925Z</time>
      </trkpt>
      <trkpt lat="43.79629" lon="4.22323">
        <ele>169.47897892254</ele>
        <time>2026-05-02T09:30:20.000Z</time>
      </trkpt>
      <trkpt lat="43.79622" lon="4.22326">
        <ele>169.11431021546</ele>
        <time>2026-05-02T09:30:25.300Z</time>
      </trkpt>
      <trkpt lat="43.79617" lon="4.22329">
        <ele>168.85798074684</ele>
        <time>2026-05-02T09:30:30.375Z</time>
      </trkpt>
      <trkpt lat="43.79612" lon="4.22334">
        <ele>168.73021185906</ele>
        <time>2026-05-02T09:30:35.424Z</time>
      </trkpt>
      <trkpt lat="43.79607" lon="4.22341">
        <ele>168.68422901069</ele>
        <time>2026-05-02T09:30:40.864Z</time>
      </trkpt>
      <trkpt lat="43.79601" lon="4.22346">
        <ele>168.74344589384</ele>
        <time>2026-05-02T09:30:46.305Z</time>
      </trkpt>
      <trkpt lat="43.79594" lon="4.22352">
        <ele>168.79212532173</ele>
        <time>2026-05-02T09:30:51.818Z</time>
      </trkpt>
      <trkpt lat="43.7959" lon="4.22358">
        <ele>168.92888702865</ele>
        <time>2026-05-02T09:30:57.226Z</time>
      </trkpt>
      <trkpt lat="43.79584" lon="4.22363">
        <ele>169.05025201604</ele>
        <time>2026-05-02T09:31:02.721Z</time>
      </trkpt>
      <trkpt lat="43.79579" lon="4.2237">
        <ele>169.27438816858</ele>
        <time>2026-05-02T09:31:08.100Z</time>
      </trkpt>
      <trkpt lat="43.79578" lon="4.2238">
        <ele>169.46222194841</ele>
        <time>2026-05-02T09:31:13.487Z</time>
      </trkpt>
      <trkpt lat="43.7958" lon="4.22388">
        <ele>169.53009753884</ele>
        <time>2026-05-02T09:31:18.821Z</time>
      </trkpt>
      <trkpt lat="43.79585" lon="4.22395">
        <ele>168.97846035015</ele>
        <time>2026-05-02T09:31:23.920Z</time>
      </trkpt>
      <trkpt lat="43.79591" lon="4.224">
        <ele>168.46497078877</ele>
        <time>2026-05-02T09:31:29.461Z</time>
      </trkpt>
      <trkpt lat="43.79598" lon="4.22406">
        <ele>167.98527293984</ele>
        <time>2026-05-02T09:31:35.143Z</time>
      </trkpt>
      <trkpt lat="43.79599" lon="4.22416">
        <ele>167.45401387438</ele>
        <time>2026-05-02T09:31:40.842Z</time>
      </trkpt>
      <trkpt lat="43.79597" lon="4.22426">
        <ele>167.00935238662</ele>
        <time>2026-05-02T09:31:46.445Z</time>
      </trkpt>
      <trkpt lat="43.79594" lon="4.22436">
        <ele>166.58367025642</ele>
        <time>2026-05-02T09:31:51.942Z</time>
      </trkpt>
      <trkpt lat="43.79594" lon="4.22445">
        <ele>166.16463320053</ele>
        <time>2026-05-02T09:31:57.451Z</time>
      </trkpt>
      <trkpt lat="43.79597" lon="4.22452">
        <ele>165.93592617397</ele>
        <time>2026-05-02T09:32:02.467Z</time>
      </trkpt>
      <trkpt lat="43.79596" lon="4.22451">
        <ele>165.91432533211</ele>
        <time>2026-05-02T09:32:08.443Z</time>
      </trkpt>
      <trkpt lat="43.79596" lon="4.22452">
        <ele>165.90650934204</ele>
        <time>2026-05-02T09:32:16.446Z</time>
      </trkpt>
      <trkpt lat="43.79596" lon="4.22451">
        <ele>165.93553210163</ele>
        <time>2026-05-02T09:32:26.369Z</time>
      </trkpt>
      <trkpt lat="43.79597" lon="4.22451">
        <ele>165.96275007622</ele>
        <time>2026-05-02T09:32:51.446Z</time>
      </trkpt>
      <trkpt lat="43.79597" lon="4.22452">
        <ele>165.93529346397</ele>
        <time>2026-05-02T09:33:07.420Z</time>
      </trkpt>
      <trkpt lat="43.79598" lon="4.22453">
        <ele>165.89284936756</ele>
        <time>2026-05-02T09:33:18.445Z</time>
      </trkpt>
      <trkpt lat="43.79596" lon="4.22454">
        <ele>165.8267369606</ele>
        <time>2026-05-02T09:33:26.460Z</time>
      </trkpt>
      <trkpt lat="43.79595" lon="4.22457">
        <ele>165.67860994372</ele>
        <time>2026-05-02T09:33:31.464Z</time>
      </trkpt>
      <trkpt lat="43.79596" lon="4.22459">
        <ele>165.64450028244</ele>
        <time>2026-05-02T09:33:37.442Z</time>
      </trkpt>
      <trkpt lat="43.79595" lon="4.22462">
        <ele>165.56474153074</ele>
        <time>2026-05-02T09:33:43.099Z</time>
      </trkpt>
      <trkpt lat="43.7959" lon="4.22472">
        <ele>165.15854385847</ele>
        <time>2026-05-02T09:33:48.940Z</time>
      </trkpt>
      <trkpt lat="43.79589" lon="4.2248">
        <ele>165.0059124015</ele>
        <time>2026-05-02T09:33:54.407Z</time>
      </trkpt>
      <trkpt lat="43.79588" lon="4.22487">
        <ele>164.87273116644</ele>
        <time>2026-05-02T09:33:59.422Z</time>
      </trkpt>
      <trkpt lat="43.79589" lon="4.22497">
        <ele>164.83361903848</ele>
        <time>2026-05-02T09:34:05.398Z</time>
      </trkpt>
      <trkpt lat="43.79589" lon="4.22505">
        <ele>164.77534607114</ele>
        <time>2026-05-02T09:34:11.180Z</time>
      </trkpt>
      <trkpt lat="43.79588" lon="4.22515">
        <ele>164.78487068544</ele>
        <time>2026-05-02T09:34:17.343Z</time>
      </trkpt>
      <trkpt lat="43.79588" lon="4.22523">
        <ele>164.92791858143</ele>
        <time>2026-05-02T09:34:22.471Z</time>
      </trkpt>
      <trkpt lat="43.79588" lon="4.22533">
        <ele>165.55806320557</ele>
        <time>2026-05-02T09:34:27.963Z</time>
      </trkpt>
      <trkpt lat="43.79588" lon="4.2254">
        <ele>166.25813501041</ele>
        <time>2026-05-02T09:34:33.058Z</time>
      </trkpt>
      <trkpt lat="43.79587" lon="4.22547">
        <ele>166.66087221439</ele>
        <time>2026-05-02T09:34:38.401Z</time>
      </trkpt>
      <trkpt lat="43.79586" lon="4.22553">
        <ele>166.57401161289</ele>
        <time>2026-05-02T09:34:43.720Z</time>
      </trkpt>
      <trkpt lat="43.79585" lon="4.22559">
        <ele>166.48973026229</ele>
        <time>2026-05-02T09:34:48.958Z</time>
      </trkpt>
      <trkpt lat="43.79585" lon="4.22567">
        <ele>166.29105575543</ele>
        <time>2026-05-02T09:34:54.320Z</time>
      </trkpt>
      <trkpt lat="43.79585" lon="4.22574">
        <ele>166.07016865652</ele>
        <time>2026-05-02T09:35:00.340Z</time>
      </trkpt>
      <trkpt lat="43.79584" lon="4.2258">
        <ele>165.88949037408</ele>
        <time>2026-05-02T09:35:05.370Z</time>
      </trkpt>
      <trkpt lat="43.79581" lon="4.22585">
        <ele>165.77008760288</ele>
        <time>2026-05-02T09:35:10.398Z</time>
      </trkpt>
      <trkpt lat="43.79575" lon="4.22588">
        <ele>165.66954379057</ele>
        <time>2026-05-02T09:35:15.600Z</time>
      </trkpt>
      <trkpt lat="43.7957" lon="4.22584">
        <ele>165.56597126157</ele>
        <time>2026-05-02T09:35:21.343Z</time>
      </trkpt>
      <trkpt lat="43.7957" lon="4.2258">
        <ele>165.556903651</ele>
        <time>2026-05-02T09:35:26.393Z</time>
      </trkpt>
      <trkpt lat="43.7957" lon="4.22582">
        <ele>165.54529103027</ele>
        <time>2026-05-02T09:35:44.427Z</time>
      </trkpt>
      <trkpt lat="43.79569" lon="4.22583">
        <ele>165.52903307562</ele>
        <time>2026-05-02T09:35:52.430Z</time>
      </trkpt>
      <trkpt lat="43.79568" lon="4.22583">
        <ele>165.50038545283</ele>
        <time>2026-05-02T09:35:58.123Z</time>
      </trkpt>
      <trkpt lat="43.79567" lon="4.22584">
        <ele>165.45648406486</ele>
        <time>2026-05-02T09:36:03.422Z</time>
      </trkpt>
      <trkpt lat="43.79564" lon="4.22584">
        <ele>165.37270763375</ele>
        <time>2026-05-02T09:36:09.159Z</time>
      </trkpt>
      <trkpt lat="43.79558" lon="4.22585">
        <ele>165.02242604474</ele>
        <time>2026-05-02T09:36:14.380Z</time>
      </trkpt>
      <trkpt lat="43.79547" lon="4.22589">
        <ele>164.20551750821</ele>
        <time>2026-05-02T09:36:19.983Z</time>
      </trkpt>
      <trkpt lat="43.7954" lon="4.22594">
        <ele>163.43255842426</ele>
        <time>2026-05-02T09:36:24.997Z</time>
      </trkpt>
      <trkpt lat="43.79534" lon="4.22598">
        <ele>163.00062994354</ele>
        <time>2026-05-02T09:36:30.447Z</time>
      </trkpt>
      <trkpt lat="43.79528" lon="4.22601">
        <ele>162.81727299415</ele>
        <time>2026-05-02T09:36:35.481Z</time>
      </trkpt>
      <trkpt lat="43.79522" lon="4.22603">
        <ele>162.61558049064</ele>
        <time>2026-05-02T09:36:41.042Z</time>
      </trkpt>
      <trkpt lat="43.79517" lon="4.22607">
        <ele>162.5331150901</ele>
        <time>2026-05-02T09:36:46.261Z</time>
      </trkpt>
      <trkpt lat="43.79512" lon="4.2261">
        <ele>162.38152962795</ele>
        <time>2026-05-02T09:36:51.800Z</time>
      </trkpt>
      <trkpt lat="43.79507" lon="4.22612">
        <ele>162.23545524706</ele>
        <time>2026-05-02T09:36:57.384Z</time>
      </trkpt>
      <trkpt lat="43.79501" lon="4.22616">
        <ele>161.75623452951</ele>
        <time>2026-05-02T09:37:02.978Z</time>
      </trkpt>
      <trkpt lat="43.79501" lon="4.22625">
        <ele>161.19256666557</ele>
        <time>2026-05-02T09:37:08.102Z</time>
      </trkpt>
      <trkpt lat="43.79502" lon="4.22634">
        <ele>160.76241182123</ele>
        <time>2026-05-02T09:37:13.423Z</time>
      </trkpt>
      <trkpt lat="43.79506" lon="4.22641">
        <ele>161.06876322438</ele>
        <time>2026-05-02T09:37:18.440Z</time>
      </trkpt>
      <trkpt lat="43.7951" lon="4.22646">
        <ele>161.44361004569</ele>
        <time>2026-05-02T09:37:23.455Z</time>
      </trkpt>
      <trkpt lat="43.79512" lon="4.22653">
        <ele>161.26056523731</ele>
        <time>2026-05-02T09:37:28.651Z</time>
      </trkpt>
      <trkpt lat="43.79516" lon="4.22659">
        <ele>161.07682875855</ele>
        <time>2026-05-02T09:37:34.157Z</time>
      </trkpt>
      <trkpt lat="43.79519" lon="4.22665">
        <ele>160.58428808609</ele>
        <time>2026-05-02T09:37:39.911Z</time>
      </trkpt>
      <trkpt lat="43.79521" lon="4.22673">
        <ele>160.02462270422</ele>
        <time>2026-05-02T09:37:44.996Z</time>
      </trkpt>
      <trkpt lat="43.79521" lon="4.22684">
        <ele>159.54889977063</ele>
        <time>2026-05-02T09:37:50.471Z</time>
      </trkpt>
      <trkpt lat="43.79515" lon="4.22686">
        <ele>159.27170426082</ele>
        <time>2026-05-02T09:37:55.951Z</time>
      </trkpt>
      <trkpt lat="43.79511" lon="4.22693">
        <ele>159.17210788949</ele>
        <time>2026-05-02T09:38:00.995Z</time>
      </trkpt>
      <trkpt lat="43.79506" lon="4.22694">
        <ele>158.85586301734</ele>
        <time>2026-05-02T09:38:06.355Z</time>
      </trkpt>
      <trkpt lat="43.79501" lon="4.22696">
        <ele>158.50525641076</ele>
        <time>2026-05-02T09:38:12.395Z</time>
      </trkpt>
      <trkpt lat="43.79498" lon="4.22701">
        <ele>158.16437241059</ele>
        <time>2026-05-02T09:38:17.489Z</time>
      </trkpt>
      <trkpt lat="43.79498" lon="4.22708">
        <ele>157.30230203695</ele>
        <time>2026-05-02T09:38:22.515Z</time>
      </trkpt>
      <trkpt lat="43.79498" lon="4.22712">
        <ele>156.83870089427</ele>
        <time>2026-05-02T09:38:28.115Z</time>
      </trkpt>
      <trkpt lat="43.79503" lon="4.22719">
        <ele>156.2860921648</ele>
        <time>2026-05-02T09:38:33.476Z</time>
      </trkpt>
      <trkpt lat="43.79508" lon="4.22725">
        <ele>155.95946712406</ele>
        <time>2026-05-02T09:38:38.877Z</time>
      </trkpt>
      <trkpt lat="43.79506" lon="4.22732">
        <ele>154.9750207984</ele>
        <time>2026-05-02T09:38:43.955Z</time>
      </trkpt>
      <trkpt lat="43.79506" lon="4.22738">
        <ele>154.3742665788</ele>
        <time>2026-05-02T09:38:48.996Z</time>
      </trkpt>
      <trkpt lat="43.79503" lon="4.22741">
        <ele>153.77299800536</ele>
        <time>2026-05-02T09:38:54.085Z</time>
      </trkpt>
      <trkpt lat="43.79499" lon="4.22744">
        <ele>153.22328306696</ele>
        <time>2026-05-02T09:38:59.469Z</time>
      </trkpt>
      <trkpt lat="43.79497" lon="4.22749">
        <ele>152.70459887032</ele>
        <time>2026-05-02T09:39:05.003Z</time>
      </trkpt>
      <trkpt lat="43.79493" lon="4.22755">
        <ele>152.30145725044</ele>
        <time>2026-05-02T09:39:10.382Z</time>
      </trkpt>
      <trkpt lat="43.7949" lon="4.22762">
        <ele>151.9740093281</ele>
        <time>2026-05-02T09:39:15.474Z</time>
      </trkpt>
      <trkpt lat="43.79488" lon="4.22768">
        <ele>151.40769948034</ele>
        <time>2026-05-02T09:39:20.787Z</time>
      </trkpt>
      <trkpt lat="43.7949" lon="4.22777">
        <ele>150.26694007119</ele>
        <time>2026-05-02T09:39:26.359Z</time>
      </trkpt>
      <trkpt lat="43.79488" lon="4.22786">
        <ele>148.6625361646</ele>
        <time>2026-05-02T09:39:31.668Z</time>
      </trkpt>
      <trkpt lat="43.79492" lon="4.22792">
        <ele>148.28796557006</ele>
        <time>2026-05-02T09:39:37.458Z</time>
      </trkpt>
      <trkpt lat="43.79499" lon="4.22796">
        <ele>148.51328186169</ele>
        <time>2026-05-02T09:39:42.473Z</time>
      </trkpt>
      <trkpt lat="43.79504" lon="4.22799">
        <ele>148.83484096067</ele>
        <time>2026-05-02T09:39:47.482Z</time>
      </trkpt>
      <trkpt lat="43.79509" lon="4.22803">
        <ele>148.89939060553</ele>
        <time>2026-05-02T09:39:53.464Z</time>
      </trkpt>
      <trkpt lat="43.79515" lon="4.2281">
        <ele>148.43436589233</ele>
        <time>2026-05-02T09:39:59.440Z</time>
      </trkpt>
      <trkpt lat="43.7952" lon="4.2282">
        <ele>147.58029041688</ele>
        <time>2026-05-02T09:40:05.416Z</time>
      </trkpt>
      <trkpt lat="43.79519" lon="4.22828">
        <ele>146.65617937283</ele>
        <time>2026-05-02T09:40:10.959Z</time>
      </trkpt>
      <trkpt lat="43.79521" lon="4.22834">
        <ele>146.32922263572</ele>
        <time>2026-05-02T09:40:16.225Z</time>
      </trkpt>
      <trkpt lat="43.79524" lon="4.22841">
        <ele>146.00956432652</ele>
        <time>2026-05-02T09:40:21.422Z</time>
      </trkpt>
      <trkpt lat="43.79524" lon="4.22847">
        <ele>145.37062898397</ele>
        <time>2026-05-02T09:40:26.780Z</time>
      </trkpt>
      <trkpt lat="43.79523" lon="4.22849">
        <ele>145.15365026628</ele>
        <time>2026-05-02T09:40:32.381Z</time>
      </trkpt>
      <trkpt lat="43.79522" lon="4.22852">
        <ele>144.78553364649</ele>
        <time>2026-05-02T09:40:38.002Z</time>
      </trkpt>
      <trkpt lat="43.79522" lon="4.22856">
        <ele>144.46609816044</ele>
        <time>2026-05-02T09:40:43.505Z</time>
      </trkpt>
      <trkpt lat="43.79521" lon="4.22866">
        <ele>143.46102057285</ele>
        <time>2026-05-02T09:40:48.780Z</time>
      </trkpt>
      <trkpt lat="43.79516" lon="4.22873">
        <ele>142.63390765049</ele>
        <time>2026-05-02T09:40:54.397Z</time>
      </trkpt>
      <trkpt lat="43.79512" lon="4.22876">
        <ele>142.08238614501</ele>
        <time>2026-05-02T09:40:59.771Z</time>
      </trkpt>
      <trkpt lat="43.79511" lon="4.22883">
        <ele>141.44209430972</ele>
        <time>2026-05-02T09:41:04.859Z</time>
      </trkpt>
      <trkpt lat="43.79511" lon="4.22893">
        <ele>140.47422061639</ele>
        <time>2026-05-02T09:41:10.175Z</time>
      </trkpt>
      <trkpt lat="43.79509" lon="4.22903">
        <ele>139.3675596663</ele>
        <time>2026-05-02T09:41:15.668Z</time>
      </trkpt>
      <trkpt lat="43.79506" lon="4.22911">
        <ele>138.65582779398</ele>
        <time>2026-05-02T09:41:21.158Z</time>
      </trkpt>
      <trkpt lat="43.79502" lon="4.22916">
        <ele>138.23257263954</ele>
        <time>2026-05-02T09:41:26.410Z</time>
      </trkpt>
      <trkpt lat="43.79495" lon="4.22918">
        <ele>137.79151811891</ele>
        <time>2026-05-02T09:41:32.210Z</time>
      </trkpt>
      <trkpt lat="43.79488" lon="4.22921">
        <ele>137.23185518453</ele>
        <time>2026-05-02T09:41:37.401Z</time>
      </trkpt>
      <trkpt lat="43.79486" lon="4.2293">
        <ele>136.28447722355</ele>
        <time>2026-05-02T09:41:42.935Z</time>
      </trkpt>
      <trkpt lat="43.79481" lon="4.22936">
        <ele>135.3961290331</ele>
        <time>2026-05-02T09:41:48.498Z</time>
      </trkpt>
      <trkpt lat="43.79479" lon="4.22944">
        <ele>133.99738822281</ele>
        <time>2026-05-02T09:41:53.940Z</time>
      </trkpt>
      <trkpt lat="43.79479" lon="4.22952">
        <ele>132.5316157549</ele>
        <time>2026-05-02T09:41:59.456Z</time>
      </trkpt>
      <trkpt lat="43.79479" lon="4.22957">
        <ele>131.46056833042</ele>
        <time>2026-05-02T09:42:05.113Z</time>
      </trkpt>
      <trkpt lat="43.79477" lon="4.22961">
        <ele>130.80012312368</ele>
        <time>2026-05-02T09:42:10.351Z</time>
      </trkpt>
      <trkpt lat="43.79475" lon="4.22965">
        <ele>129.79890753387</ele>
        <time>2026-05-02T09:42:15.497Z</time>
      </trkpt>
      <trkpt lat="43.7947" lon="4.22968">
        <ele>128.82216562271</ele>
        <time>2026-05-02T09:42:21.412Z</time>
      </trkpt>
      <trkpt lat="43.79466" lon="4.22975">
        <ele>127.03685050504</ele>
        <time>2026-05-02T09:42:27.417Z</time>
      </trkpt>
      <trkpt lat="43.79466" lon="4.22979">
        <ele>126.31562143074</ele>
        <time>2026-05-02T09:42:33.424Z</time>
      </trkpt>
      <trkpt lat="43.79466" lon="4.22984">
        <ele>125.54094152997</ele>
        <time>2026-05-02T09:42:38.835Z</time>
      </trkpt>
      <trkpt lat="43.79465" lon="4.22988">
        <ele>124.82732459476</ele>
        <time>2026-05-02T09:42:43.876Z</time>
      </trkpt>
      <trkpt lat="43.79465" lon="4.22993">
        <ele>123.69159573872</ele>
        <time>2026-05-02T09:42:49.212Z</time>
      </trkpt>
      <trkpt lat="43.79464" lon="4.23001">
        <ele>121.44403707156</ele>
        <time>2026-05-02T09:42:54.512Z</time>
      </trkpt>
      <trkpt lat="43.79461" lon="4.23003">
        <ele>120.76794167833</ele>
        <time>2026-05-02T09:43:00.081Z</time>
      </trkpt>
      <trkpt lat="43.79458" lon="4.23003">
        <ele>120.75817483856</ele>
        <time>2026-05-02T09:43:05.975Z</time>
      </trkpt>
      <trkpt lat="43.79453" lon="4.23001">
        <ele>120.99600175774</ele>
        <time>2026-05-02T09:43:11.412Z</time>
      </trkpt>
      <trkpt lat="43.79448" lon="4.23004">
        <ele>120.1278699619</ele>
        <time>2026-05-02T09:43:16.958Z</time>
      </trkpt>
      <trkpt lat="43.79442" lon="4.23008">
        <ele>119.17552387138</ele>
        <time>2026-05-02T09:43:22.150Z</time>
      </trkpt>
      <trkpt lat="43.79436" lon="4.23009">
        <ele>117.97655442459</ele>
        <time>2026-05-02T09:43:27.876Z</time>
      </trkpt>
      <trkpt lat="43.79433" lon="4.2301">
        <ele>117.14051772939</ele>
        <time>2026-05-02T09:43:33.353Z</time>
      </trkpt>
      <trkpt lat="43.79433" lon="4.23009">
        <ele>117.4338081435</ele>
        <time>2026-05-02T09:43:39.009Z</time>
      </trkpt>
      <trkpt lat="43.79428" lon="4.2301">
        <ele>116.21154320938</ele>
        <time>2026-05-02T09:43:44.416Z</time>
      </trkpt>
      <trkpt lat="43.79419" lon="4.23011">
        <ele>114.20323013354</ele>
        <time>2026-05-02T09:43:50.055Z</time>
      </trkpt>
      <trkpt lat="43.79411" lon="4.23011">
        <ele>113.48070744396</ele>
        <time>2026-05-02T09:43:55.194Z</time>
      </trkpt>
      <trkpt lat="43.79406" lon="4.2301">
        <ele>113.44576825238</ele>
        <time>2026-05-02T09:44:00.475Z</time>
      </trkpt>
      <trkpt lat="43.79399" lon="4.23014">
        <ele>112.00118350517</ele>
        <time>2026-05-02T09:44:05.663Z</time>
      </trkpt>
      <trkpt lat="43.79393" lon="4.23015">
        <ele>111.46421259364</ele>
        <time>2026-05-02T09:44:10.996Z</time>
      </trkpt>
      <trkpt lat="43.79387" lon="4.23019">
        <ele>109.947286209</ele>
        <time>2026-05-02T09:44:16.712Z</time>
      </trkpt>
      <trkpt lat="43.79383" lon="4.23025">
        <ele>108.32210499014</ele>
        <time>2026-05-02T09:44:22.157Z</time>
      </trkpt>
      <trkpt lat="43.79382" lon="4.23029">
        <ele>107.09686990492</ele>
        <time>2026-05-02T09:44:27.498Z</time>
      </trkpt>
      <trkpt lat="43.79378" lon="4.23034">
        <ele>105.48509753106</ele>
        <time>2026-05-02T09:44:33.174Z</time>
      </trkpt>
      <trkpt lat="43.79373" lon="4.23036">
        <ele>104.71993156768</ele>
        <time>2026-05-02T09:44:38.270Z</time>
      </trkpt>
      <trkpt lat="43.79372" lon="4.2304">
        <ele>103.6720428106</ele>
        <time>2026-05-02T09:44:43.471Z</time>
      </trkpt>
      <trkpt lat="43.79369" lon="4.23043">
        <ele>102.97991091905</ele>
        <time>2026-05-02T09:44:48.733Z</time>
      </trkpt>
      <trkpt lat="43.79365" lon="4.23046">
        <ele>101.77079050396</ele>
        <time>2026-05-02T09:44:54.312Z</time>
      </trkpt>
      <trkpt lat="43.7936" lon="4.23051">
        <ele>100.13163302991</ele>
        <time>2026-05-02T09:44:59.675Z</time>
      </trkpt>
      <trkpt lat="43.79355" lon="4.23054">
        <ele>99.476335795511</ele>
        <time>2026-05-02T09:45:05.117Z</time>
      </trkpt>
      <trkpt lat="43.79351" lon="4.23056">
        <ele>98.98662162615</ele>
        <time>2026-05-02T09:45:10.396Z</time>
      </trkpt>
      <trkpt lat="43.79348" lon="4.23056">
        <ele>98.956374949069</ele>
        <time>2026-05-02T09:45:15.411Z</time>
      </trkpt>
      <trkpt lat="43.79343" lon="4.23057">
        <ele>98.69998531497</ele>
        <time>2026-05-02T09:45:20.778Z</time>
      </trkpt>
      <trkpt lat="43.79339" lon="4.2306">
        <ele>97.877577421645</ele>
        <time>2026-05-02T09:45:26.316Z</time>
      </trkpt>
      <trkpt lat="43.79334" lon="4.23065">
        <ele>96.567158450704</ele>
        <time>2026-05-02T09:45:32.378Z</time>
      </trkpt>
      <trkpt lat="43.7933" lon="4.23068">
        <ele>95.715124798025</ele>
        <time>2026-05-02T09:45:37.393Z</time>
      </trkpt>
      <trkpt lat="43.79326" lon="4.2307">
        <ele>94.953096698386</ele>
        <time>2026-05-02T09:45:42.875Z</time>
      </trkpt>
      <trkpt lat="43.79321" lon="4.23074">
        <ele>93.587747649058</ele>
        <time>2026-05-02T09:45:48.281Z</time>
      </trkpt>
      <trkpt lat="43.79315" lon="4.23081">
        <ele>91.776396527935</ele>
        <time>2026-05-02T09:45:54.345Z</time>
      </trkpt>
      <trkpt lat="43.79314" lon="4.23088">
        <ele>90.356253141392</ele>
        <time>2026-05-02T09:45:59.805Z</time>
      </trkpt>
      <trkpt lat="43.79316" lon="4.23096">
        <ele>89.46451664041</ele>
        <time>2026-05-02T09:46:04.980Z</time>
      </trkpt>
      <trkpt lat="43.79316" lon="4.231">
        <ele>88.896578884939</ele>
        <time>2026-05-02T09:46:10.376Z</time>
      </trkpt>
      <trkpt lat="43.79314" lon="4.23105">
        <ele>88.130615245846</ele>
        <time>2026-05-02T09:46:16.505Z</time>
      </trkpt>
      <trkpt lat="43.79311" lon="4.23105">
        <ele>87.744129071088</ele>
        <time>2026-05-02T09:46:21.922Z</time>
      </trkpt>
      <trkpt lat="43.7931" lon="4.23111">
        <ele>86.921129114086</ele>
        <time>2026-05-02T09:46:26.964Z</time>
      </trkpt>
      <trkpt lat="43.79308" lon="4.23115">
        <ele>86.312777219231</ele>
        <time>2026-05-02T09:46:32.358Z</time>
      </trkpt>
      <trkpt lat="43.7931" lon="4.23122">
        <ele>85.960044697474</ele>
        <time>2026-05-02T09:46:41.963Z</time>
      </trkpt>
      <trkpt lat="43.7931" lon="4.23122">
        <ele>85.960044697474</ele>
        <time>2026-05-02T09:46:41.963Z</time>
      </trkpt>
      <trkpt lat="43.79311" lon="4.23123">
        <ele>86.056899905205</ele>
        <time>2026-05-02T09:46:43.974Z</time>
      </trkpt>
      <trkpt lat="43.7931" lon="4.23132">
        <ele>86.314148943252</ele>
        <time>2026-05-02T09:46:55.437Z</time>
      </trkpt>
      <trkpt lat="43.7931" lon="4.23132">
        <ele>86.314148943252</ele>
        <time>2026-05-02T09:46:55.437Z</time>
      </trkpt>
      <trkpt lat="43.7931" lon="4.23133">
        <ele>86.652831099933</ele>
        <time>2026-05-02T09:47:03.436Z</time>
      </trkpt>
      <trkpt lat="43.7931" lon="4.23135">
        <ele>86.934034788928</ele>
        <time>2026-05-02T09:47:09.631Z</time>
      </trkpt>
      <trkpt lat="43.79314" lon="4.23142">
        <ele>88.762600405665</ele>
        <time>2026-05-02T09:47:15.315Z</time>
      </trkpt>
      <trkpt lat="43.79318" lon="4.23143">
        <ele>89.553782054097</ele>
        <time>2026-05-02T09:47:20.600Z</time>
      </trkpt>
      <trkpt lat="43.79322" lon="4.23143">
        <ele>90.316163847446</ele>
        <time>2026-05-02T09:47:26.574Z</time>
      </trkpt>
      <trkpt lat="43.79327" lon="4.23141">
        <ele>90.669012554468</ele>
        <time>2026-05-02T09:47:32.018Z</time>
      </trkpt>
      <trkpt lat="43.79331" lon="4.23137">
        <ele>90.327890757195</ele>
        <time>2026-05-02T09:47:37.573Z</time>
      </trkpt>
      <trkpt lat="43.79336" lon="4.23133">
        <ele>90.253258940892</ele>
        <time>2026-05-02T09:47:43.180Z</time>
      </trkpt>
      <trkpt lat="43.79343" lon="4.23133">
        <ele>91.067506137654</ele>
        <time>2026-05-02T09:47:48.616Z</time>
      </trkpt>
      <trkpt lat="43.79348" lon="4.23133">
        <ele>91.819690252135</ele>
        <time>2026-05-02T09:47:54.251Z</time>
      </trkpt>
      <trkpt lat="43.79352" lon="4.23135">
        <ele>92.963944135238</ele>
        <time>2026-05-02T09:47:59.557Z</time>
      </trkpt>
      <trkpt lat="43.79356" lon="4.23136">
        <ele>94.028272493619</ele>
        <time>2026-05-02T09:48:04.573Z</time>
      </trkpt>
      <trkpt lat="43.79359" lon="4.23136">
        <ele>94.439705270723</ele>
        <time>2026-05-02T09:48:10.233Z</time>
      </trkpt>
      <trkpt lat="43.7936" lon="4.23138">
        <ele>95.42451839517</ele>
        <time>2026-05-02T09:48:15.551Z</time>
      </trkpt>
      <trkpt lat="43.79363" lon="4.23138">
        <ele>95.653674115845</ele>
        <time>2026-05-02T09:48:21.331Z</time>
      </trkpt>
      <trkpt lat="43.79367" lon="4.23135">
        <ele>95.495664280593</ele>
        <time>2026-05-02T09:48:26.557Z</time>
      </trkpt>
      <trkpt lat="43.7937" lon="4.23134">
        <ele>95.562858755731</ele>
        <time>2026-05-02T09:48:31.572Z</time>
      </trkpt>
      <trkpt lat="43.79374" lon="4.23131">
        <ele>95.563776326599</ele>
        <time>2026-05-02T09:48:37.132Z</time>
      </trkpt>
      <trkpt lat="43.79379" lon="4.23128">
        <ele>95.493070999558</ele>
        <time>2026-05-02T09:48:42.611Z</time>
      </trkpt>
      <trkpt lat="43.79384" lon="4.23125">
        <ele>95.41964973112</ele>
        <time>2026-05-02T09:48:48.393Z</time>
      </trkpt>
      <trkpt lat="43.79389" lon="4.23124">
        <ele>95.6010606879</ele>
        <time>2026-05-02T09:48:53.394Z</time>
      </trkpt>
      <trkpt lat="43.79393" lon="4.2312">
        <ele>95.276112753919</ele>
        <time>2026-05-02T09:48:58.862Z</time>
      </trkpt>
      <trkpt lat="43.79399" lon="4.23118">
        <ele>95.219493365063</ele>
        <time>2026-05-02T09:49:04.363Z</time>
      </trkpt>
      <trkpt lat="43.79402" lon="4.23119">
        <ele>96.208651603703</ele>
        <time>2026-05-02T09:49:09.688Z</time>
      </trkpt>
      <trkpt lat="43.79408" lon="4.23118">
        <ele>96.42691198481</ele>
        <time>2026-05-02T09:49:15.548Z</time>
      </trkpt>
      <trkpt lat="43.79415" lon="4.23118">
        <ele>96.931386351193</ele>
        <time>2026-05-02T09:49:20.949Z</time>
      </trkpt>
      <trkpt lat="43.79419" lon="4.23117">
        <ele>97.021395957686</ele>
        <time>2026-05-02T09:49:26.107Z</time>
      </trkpt>
      <trkpt lat="43.79423" lon="4.23119">
        <ele>97.674509239478</ele>
        <time>2026-05-02T09:49:31.589Z</time>
      </trkpt>
      <trkpt lat="43.79428" lon="4.23121">
        <ele>98.376043708497</ele>
        <time>2026-05-02T09:49:36.595Z</time>
      </trkpt>
      <trkpt lat="43.79434" lon="4.23122">
        <ele>98.777940319217</ele>
        <time>2026-05-02T09:49:42.149Z</time>
      </trkpt>
      <trkpt lat="43.7944" lon="4.23122">
        <ele>99.124280676621</ele>
        <time>2026-05-02T09:49:47.546Z</time>
      </trkpt>
      <trkpt lat="43.79445" lon="4.23124">
        <ele>99.388040498455</ele>
        <time>2026-05-02T09:49:52.578Z</time>
      </trkpt>
      <trkpt lat="43.79448" lon="4.23126">
        <ele>99.915266055898</ele>
        <time>2026-05-02T09:49:57.666Z</time>
      </trkpt>
      <trkpt lat="43.79454" lon="4.23126">
        <ele>100.01840296585</ele>
        <time>2026-05-02T09:50:03.029Z</time>
      </trkpt>
      <trkpt lat="43.79458" lon="4.23126">
        <ele>99.779072835058</ele>
        <time>2026-05-02T09:50:08.232Z</time>
      </trkpt>
      <trkpt lat="43.7946" lon="4.23123">
        <ele>98.632386972071</ele>
        <time>2026-05-02T09:50:13.494Z</time>
      </trkpt>
      <trkpt lat="43.79465" lon="4.23123">
        <ele>98.545881842691</ele>
        <time>2026-05-02T09:50:19.109Z</time>
      </trkpt>
      <trkpt lat="43.79468" lon="4.23125">
        <ele>98.842628434172</ele>
        <time>2026-05-02T09:50:24.592Z</time>
      </trkpt>
      <trkpt lat="43.79473" lon="4.23125">
        <ele>98.532295806623</ele>
        <time>2026-05-02T09:50:30.367Z</time>
      </trkpt>
      <trkpt lat="43.79478" lon="4.23127">
        <ele>98.8265140668</ele>
        <time>2026-05-02T09:50:36.148Z</time>
      </trkpt>
      <trkpt lat="43.79482" lon="4.2313">
        <ele>99.970294697974</ele>
        <time>2026-05-02T09:50:41.560Z</time>
      </trkpt>
      <trkpt lat="43.79484" lon="4.23133">
        <ele>100.82282224506</ele>
        <time>2026-05-02T09:50:46.575Z</time>
      </trkpt>
      <trkpt lat="43.79489" lon="4.2313">
        <ele>99.322000413088</ele>
        <time>2026-05-02T09:50:51.591Z</time>
      </trkpt>
      <trkpt lat="43.79494" lon="4.23128">
        <ele>98.42274746832</ele>
        <time>2026-05-02T09:50:57.205Z</time>
      </trkpt>
      <trkpt lat="43.79499" lon="4.23125">
        <ele>97.971500243487</ele>
        <time>2026-05-02T09:51:02.212Z</time>
      </trkpt>
      <trkpt lat="43.79504" lon="4.2312">
        <ele>97.367449364294</ele>
        <time>2026-05-02T09:51:07.596Z</time>
      </trkpt>
      <trkpt lat="43.79508" lon="4.23119">
        <ele>97.515620473703</ele>
        <time>2026-05-02T09:51:12.784Z</time>
      </trkpt>
      <trkpt lat="43.79512" lon="4.23117">
        <ele>97.270537280355</ele>
        <time>2026-05-02T09:51:18.404Z</time>
      </trkpt>
      <trkpt lat="43.79514" lon="4.23113">
        <ele>96.268835750113</ele>
        <time>2026-05-02T09:51:23.603Z</time>
      </trkpt>
      <trkpt lat="43.79516" lon="4.23109">
        <ele>95.913571795396</ele>
        <time>2026-05-02T09:51:28.951Z</time>
      </trkpt>
      <trkpt lat="43.79522" lon="4.2311">
        <ele>96.902230175596</ele>
        <time>2026-05-02T09:51:34.252Z</time>
      </trkpt>
      <trkpt lat="43.79526" lon="4.23108">
        <ele>97.623632927708</ele>
        <time>2026-05-02T09:51:40.112Z</time>
      </trkpt>
      <trkpt lat="43.79532" lon="4.23104">
        <ele>98.478846535808</ele>
        <time>2026-05-02T09:51:45.587Z</time>
      </trkpt>
      <trkpt lat="43.79534" lon="4.231">
        <ele>98.08683840179</ele>
        <time>2026-05-02T09:51:50.601Z</time>
      </trkpt>
      <trkpt lat="43.79539" lon="4.23096">
        <ele>97.372933343434</ele>
        <time>2026-05-02T09:51:55.940Z</time>
      </trkpt>
      <trkpt lat="43.79542" lon="4.2309">
        <ele>98.030369511612</ele>
        <time>2026-05-02T09:52:01.216Z</time>
      </trkpt>
      <trkpt lat="43.79545" lon="4.23088">
        <ele>98.517824060913</ele>
        <time>2026-05-02T09:52:06.608Z</time>
      </trkpt>
      <trkpt lat="43.79547" lon="4.23082">
        <ele>98.150651379929</ele>
        <time>2026-05-02T09:52:12.177Z</time>
      </trkpt>
      <trkpt lat="43.79551" lon="4.23079">
        <ele>97.426566059621</ele>
        <time>2026-05-02T09:52:18.565Z</time>
      </trkpt>
      <trkpt lat="43.79553" lon="4.23077">
        <ele>97.418014646125</ele>
        <time>2026-05-02T09:52:23.580Z</time>
      </trkpt>
      <trkpt lat="43.79557" lon="4.23073">
        <ele>98.491014336262</ele>
        <time>2026-05-02T09:52:29.556Z</time>
      </trkpt>
      <trkpt lat="43.7956" lon="4.23068">
        <ele>98.825958221716</ele>
        <time>2026-05-02T09:52:35.290Z</time>
      </trkpt>
      <trkpt lat="43.79566" lon="4.23064">
        <ele>98.828410647199</ele>
        <time>2026-05-02T09:52:40.298Z</time>
      </trkpt>
      <trkpt lat="43.7957" lon="4.2306">
        <ele>98.680423434669</ele>
        <time>2026-05-02T09:52:45.567Z</time>
      </trkpt>
      <trkpt lat="43.79573" lon="4.23055">
        <ele>99.252880205199</ele>
        <time>2026-05-02T09:52:50.581Z</time>
      </trkpt>
      <trkpt lat="43.79577" lon="4.23049">
        <ele>99.616394473258</ele>
        <time>2026-05-02T09:52:56.583Z</time>
      </trkpt>
      <trkpt lat="43.79581" lon="4.23047">
        <ele>99.852789932655</ele>
        <time>2026-05-02T09:53:01.603Z</time>
      </trkpt>
      <trkpt lat="43.79583" lon="4.23047">
        <ele>99.95720520697</ele>
        <time>2026-05-02T09:53:07.544Z</time>
      </trkpt>
      <trkpt lat="43.79588" lon="4.23044">
        <ele>99.46657945208</ele>
        <time>2026-05-02T09:53:13.524Z</time>
      </trkpt>
      <trkpt lat="43.79594" lon="4.23042">
        <ele>100.21014759551</ele>
        <time>2026-05-02T09:53:18.541Z</time>
      </trkpt>
      <trkpt lat="43.79597" lon="4.23042">
        <ele>100.99270443745</ele>
        <time>2026-05-02T09:53:24.021Z</time>
      </trkpt>
      <trkpt lat="43.79602" lon="4.23045">
        <ele>102.71533845489</ele>
        <time>2026-05-02T09:53:29.594Z</time>
      </trkpt>
      <trkpt lat="43.79607" lon="4.23045">
        <ele>103.63166310238</ele>
        <time>2026-05-02T09:53:34.604Z</time>
      </trkpt>
      <trkpt lat="43.79611" lon="4.23043">
        <ele>103.99896849311</ele>
        <time>2026-05-02T09:53:40.260Z</time>
      </trkpt>
      <trkpt lat="43.79615" lon="4.23042">
        <ele>104.06297076066</ele>
        <time>2026-05-02T09:53:45.538Z</time>
      </trkpt>
      <trkpt lat="43.79619" lon="4.23043">
        <ele>104.73573709847</ele>
        <time>2026-05-02T09:53:51.109Z</time>
      </trkpt>
      <trkpt lat="43.79626" lon="4.23042">
        <ele>105.03191574829</ele>
        <time>2026-05-02T09:53:56.392Z</time>
      </trkpt>
      <trkpt lat="43.79631" lon="4.2304">
        <ele>104.82737010119</ele>
        <time>2026-05-02T09:54:01.450Z</time>
      </trkpt>
      <trkpt lat="43.79634" lon="4.23041">
        <ele>105.0066248521</ele>
        <time>2026-05-02T09:54:06.458Z</time>
      </trkpt>
      <trkpt lat="43.79637" lon="4.23041">
        <ele>105.22132725754</ele>
        <time>2026-05-02T09:54:11.580Z</time>
      </trkpt>
      <trkpt lat="43.79642" lon="4.23039">
        <ele>104.85264508258</ele>
        <time>2026-05-02T09:54:17.224Z</time>
      </trkpt>
      <trkpt lat="43.79644" lon="4.2304">
        <ele>104.90329053868</ele>
        <time>2026-05-02T09:54:22.365Z</time>
      </trkpt>
      <trkpt lat="43.79645" lon="4.2304">
        <ele>104.94195706322</ele>
        <time>2026-05-02T09:54:27.586Z</time>
      </trkpt>
      <trkpt lat="43.79647" lon="4.23041">
        <ele>105.05853003148</ele>
        <time>2026-05-02T09:54:33.562Z</time>
      </trkpt>
      <trkpt lat="43.79652" lon="4.23045">
        <ele>105.81387896775</ele>
        <time>2026-05-02T09:54:39.029Z</time>
      </trkpt>
      <trkpt lat="43.79658" lon="4.23049">
        <ele>106.50008028548</ele>
        <time>2026-05-02T09:54:44.553Z</time>
      </trkpt>
      <trkpt lat="43.79662" lon="4.23054">
        <ele>107.36887729431</ele>
        <time>2026-05-02T09:54:49.965Z</time>
      </trkpt>
      <trkpt lat="43.79665" lon="4.2306">
        <ele>108.39000933085</ele>
        <time>2026-05-02T09:54:54.975Z</time>
      </trkpt>
      <trkpt lat="43.79667" lon="4.23067">
        <ele>110.45049563705</ele>
        <time>2026-05-02T09:55:00.210Z</time>
      </trkpt>
      <trkpt lat="43.79669" lon="4.23071">
        <ele>111.3868125769</ele>
        <time>2026-05-02T09:55:05.349Z</time>
      </trkpt>
      <trkpt lat="43.79672" lon="4.23074">
        <ele>111.80071615674</ele>
        <time>2026-05-02T09:55:10.393Z</time>
      </trkpt>
      <trkpt lat="43.79674" lon="4.23078">
        <ele>112.27354077079</ele>
        <time>2026-05-02T09:55:15.410Z</time>
      </trkpt>
      <trkpt lat="43.79678" lon="4.23083">
        <ele>112.92624183603</ele>
        <time>2026-05-02T09:55:20.514Z</time>
      </trkpt>
      <trkpt lat="43.79682" lon="4.23085">
        <ele>112.82243199248</ele>
        <time>2026-05-02T09:55:25.529Z</time>
      </trkpt>
      <trkpt lat="43.79684" lon="4.23086">
        <ele>112.51793161114</ele>
        <time>2026-05-02T09:55:30.545Z</time>
      </trkpt>
      <trkpt lat="43.79686" lon="4.23088">
        <ele>112.78531903059</ele>
        <time>2026-05-02T09:55:35.560Z</time>
      </trkpt>
      <trkpt lat="43.7969" lon="4.23091">
        <ele>112.97542766715</ele>
        <time>2026-05-02T09:55:40.882Z</time>
      </trkpt>
      <trkpt lat="43.79694" lon="4.23095">
        <ele>113.54981026999</ele>
        <time>2026-05-02T09:55:46.550Z</time>
      </trkpt>
      <trkpt lat="43.79696" lon="4.23096">
        <ele>113.57877055814</ele>
        <time>2026-05-02T09:55:52.444Z</time>
      </trkpt>
      <trkpt lat="43.79699" lon="4.23097">
        <ele>113.01455356599</ele>
        <time>2026-05-02T09:55:57.541Z</time>
      </trkpt>
      <trkpt lat="43.79705" lon="4.23098">
        <ele>113.03097150143</ele>
        <time>2026-05-02T09:56:02.929Z</time>
      </trkpt>
      <trkpt lat="43.7971" lon="4.231">
        <ele>113.36492771193</ele>
        <time>2026-05-02T09:56:08.407Z</time>
      </trkpt>
      <trkpt lat="43.79714" lon="4.23103">
        <ele>114.39007280078</ele>
        <time>2026-05-02T09:56:13.548Z</time>
      </trkpt>
      <trkpt lat="43.79718" lon="4.23104">
        <ele>114.72291247235</ele>
        <time>2026-05-02T09:56:18.563Z</time>
      </trkpt>
      <trkpt lat="43.79722" lon="4.23104">
        <ele>114.7516933444</ele>
        <time>2026-05-02T09:56:23.985Z</time>
      </trkpt>
      <trkpt lat="43.79725" lon="4.23106">
        <ele>115.1764772378</ele>
        <time>2026-05-02T09:56:29.554Z</time>
      </trkpt>
      <trkpt lat="43.79728" lon="4.23108">
        <ele>115.88092213351</ele>
        <time>2026-05-02T09:56:35.191Z</time>
      </trkpt>
      <trkpt lat="43.79732" lon="4.23109">
        <ele>116.11317168151</ele>
        <time>2026-05-02T09:56:40.571Z</time>
      </trkpt>
      <trkpt lat="43.79735" lon="4.23112">
        <ele>116.77703121818</ele>
        <time>2026-05-02T09:56:46.230Z</time>
      </trkpt>
      <trkpt lat="43.79738" lon="4.23114">
        <ele>117.37106559284</ele>
        <time>2026-05-02T09:56:51.793Z</time>
      </trkpt>
      <trkpt lat="43.79741" lon="4.23117">
        <ele>118.60517106908</ele>
        <time>2026-05-02T09:56:57.171Z</time>
      </trkpt>
      <trkpt lat="43.79741" lon="4.23118">
        <ele>118.96123721865</ele>
        <time>2026-05-02T09:57:02.527Z</time>
      </trkpt>
      <trkpt lat="43.79743" lon="4.23119">
        <ele>119.14476955515</ele>
        <time>2026-05-02T09:57:08.465Z</time>
      </trkpt>
      <trkpt lat="43.79745" lon="4.23121">
        <ele>119.96768468651</ele>
        <time>2026-05-02T09:57:14.585Z</time>
      </trkpt>
      <trkpt lat="43.79747" lon="4.23125">
        <ele>121.20486048077</ele>
        <time>2026-05-02T09:57:19.601Z</time>
      </trkpt>
      <trkpt lat="43.79749" lon="4.23126">
        <ele>121.60846135045</ele>
        <time>2026-05-02T09:57:24.616Z</time>
      </trkpt>
      <trkpt lat="43.79753" lon="4.23128">
        <ele>122.09883194928</ele>
        <time>2026-05-02T09:57:30.127Z</time>
      </trkpt>
      <trkpt lat="43.79754" lon="4.23132">
        <ele>123.08141626996</ele>
        <time>2026-05-02T09:57:35.528Z</time>
      </trkpt>
      <trkpt lat="43.79755" lon="4.23138">
        <ele>124.59776922984</ele>
        <time>2026-05-02T09:57:41.545Z</time>
      </trkpt>
      <trkpt lat="43.79757" lon="4.23142">
        <ele>125.4662503223</ele>
        <time>2026-05-02T09:57:46.611Z</time>
      </trkpt>
      <trkpt lat="43.79758" lon="4.23144">
        <ele>125.98646344642</ele>
        <time>2026-05-02T09:57:52.188Z</time>
      </trkpt>
      <trkpt lat="43.79759" lon="4.23147">
        <ele>126.65673699701</ele>
        <time>2026-05-02T09:57:57.482Z</time>
      </trkpt>
      <trkpt lat="43.7976" lon="4.23153">
        <ele>127.89427985999</ele>
        <time>2026-05-02T09:58:03.190Z</time>
      </trkpt>
      <trkpt lat="43.7976" lon="4.23155">
        <ele>128.58906256132</ele>
        <time>2026-05-02T09:58:08.366Z</time>
      </trkpt>
      <trkpt lat="43.79761" lon="4.23161">
        <ele>129.94074011933</ele>
        <time>2026-05-02T09:58:13.547Z</time>
      </trkpt>
      <trkpt lat="43.7976" lon="4.23166">
        <ele>131.05117739095</ele>
        <time>2026-05-02T09:58:19.266Z</time>
      </trkpt>
      <trkpt lat="43.79761" lon="4.23169">
        <ele>131.67391711874</ele>
        <time>2026-05-02T09:58:24.586Z</time>
      </trkpt>
      <trkpt lat="43.79762" lon="4.23169">
        <ele>131.67808858408</ele>
        <time>2026-05-02T09:58:30.390Z</time>
      </trkpt>
      <trkpt lat="43.79764" lon="4.23172">
        <ele>132.2591021171</ele>
        <time>2026-05-02T09:58:36.152Z</time>
      </trkpt>
      <trkpt lat="43.79765" lon="4.23178">
        <ele>133.45232297467</ele>
        <time>2026-05-02T09:58:41.486Z</time>
      </trkpt>
      <trkpt lat="43.79767" lon="4.23181">
        <ele>133.99514948854</ele>
        <time>2026-05-02T09:58:46.567Z</time>
      </trkpt>
      <trkpt lat="43.79773" lon="4.23184">
        <ele>134.28009143976</ele>
        <time>2026-05-02T09:58:52.026Z</time>
      </trkpt>
      <trkpt lat="43.79776" lon="4.23187">
        <ele>134.49190892551</ele>
        <time>2026-05-02T09:58:57.558Z</time>
      </trkpt>
      <trkpt lat="43.79778" lon="4.23191">
        <ele>135.25874360669</ele>
        <time>2026-05-02T09:59:02.574Z</time>
      </trkpt>
      <trkpt lat="43.79779" lon="4.23196">
        <ele>136.12075334873</ele>
        <time>2026-05-02T09:59:08.129Z</time>
      </trkpt>
      <trkpt lat="43.79781" lon="4.232">
        <ele>136.75284061931</ele>
        <time>2026-05-02T09:59:13.564Z</time>
      </trkpt>
      <trkpt lat="43.79784" lon="4.23203">
        <ele>137.19025937603</ele>
        <time>2026-05-02T09:59:18.579Z</time>
      </trkpt>
      <trkpt lat="43.79785" lon="4.23207">
        <ele>137.79692397675</ele>
        <time>2026-05-02T09:59:23.595Z</time>
      </trkpt>
      <trkpt lat="43.79786" lon="4.23209">
        <ele>138.15601324757</ele>
        <time>2026-05-02T09:59:28.610Z</time>
      </trkpt>
      <trkpt lat="43.79786" lon="4.23208">
        <ele>137.90068455099</ele>
        <time>2026-05-02T09:59:51.353Z</time>
      </trkpt>
      <trkpt lat="43.79786" lon="4.23207">
        <ele>137.62840599746</ele>
        <time>2026-05-02T10:00:02.543Z</time>
      </trkpt>
      <trkpt lat="43.79787" lon="4.23207">
        <ele>137.42343671969</ele>
        <time>2026-05-02T10:00:29.379Z</time>
      </trkpt>
      <trkpt lat="43.79786" lon="4.23206">
        <ele>137.45534028237</ele>
        <time>2026-05-02T10:00:37.543Z</time>
      </trkpt>
      <trkpt lat="43.79785" lon="4.23207">
        <ele>137.8076426648</ele>
        <time>2026-05-02T10:01:21.580Z</time>
      </trkpt>
      <trkpt lat="43.79783" lon="4.23213">
        <ele>139.23495106632</ele>
        <time>2026-05-02T10:01:27.595Z</time>
      </trkpt>
      <trkpt lat="43.79781" lon="4.23216">
        <ele>140.1624892056</ele>
        <time>2026-05-02T10:01:33.179Z</time>
      </trkpt>
      <trkpt lat="43.7978" lon="4.23222">
        <ele>141.25055456524</ele>
        <time>2026-05-02T10:01:38.579Z</time>
      </trkpt>
      <trkpt lat="43.79778" lon="4.23225">
        <ele>141.9772426736</ele>
        <time>2026-05-02T10:01:43.595Z</time>
      </trkpt>
      <trkpt lat="43.79777" lon="4.2323">
        <ele>142.85255041095</ele>
        <time>2026-05-02T10:01:49.320Z</time>
      </trkpt>
      <trkpt lat="43.79777" lon="4.23233">
        <ele>143.2108647014</ele>
        <time>2026-05-02T10:01:54.585Z</time>
      </trkpt>
      <trkpt lat="43.79777" lon="4.23239">
        <ele>143.92533251878</ele>
        <time>2026-05-02T10:02:00.355Z</time>
      </trkpt>
      <trkpt lat="43.79774" lon="4.23247">
        <ele>144.83891803039</ele>
        <time>2026-05-02T10:02:06.100Z</time>
      </trkpt>
      <trkpt lat="43.79771" lon="4.23253">
        <ele>145.35020064665</ele>
        <time>2026-05-02T10:02:11.434Z</time>
      </trkpt>
      <trkpt lat="43.7977" lon="4.23251">
        <ele>145.18980569259</ele>
        <time>2026-05-02T10:02:16.461Z</time>
      </trkpt>
      <trkpt lat="43.79769" lon="4.23252">
        <ele>145.27440882316</ele>
        <time>2026-05-02T10:02:30.978Z</time>
      </trkpt>
      <trkpt lat="43.79765" lon="4.23251">
        <ele>145.18540953482</ele>
        <time>2026-05-02T10:02:36.060Z</time>
      </trkpt>
      <trkpt lat="43.7976" lon="4.23246">
        <ele>144.81796901043</ele>
        <time>2026-05-02T10:02:41.559Z</time>
      </trkpt>
      <trkpt lat="43.79756" lon="4.23245">
        <ele>144.79568138018</ele>
        <time>2026-05-02T10:02:47.136Z</time>
      </trkpt>
      <trkpt lat="43.79752" lon="4.23241">
        <ele>144.47909618667</ele>
        <time>2026-05-02T10:02:52.551Z</time>
      </trkpt>
      <trkpt lat="43.79747" lon="4.23237">
        <ele>144.29682939183</ele>
        <time>2026-05-02T10:02:57.566Z</time>
      </trkpt>
      <trkpt lat="43.79742" lon="4.23235">
        <ele>144.39150508146</ele>
        <time>2026-05-02T10:03:03.101Z</time>
      </trkpt>
      <trkpt lat="43.79737" lon="4.23234">
        <ele>144.52471289982</ele>
        <time>2026-05-02T10:03:08.559Z</time>
      </trkpt>
      <trkpt lat="43.79733" lon="4.23234">
        <ele>144.6596195189</ele>
        <time>2026-05-02T10:03:14.040Z</time>
      </trkpt>
      <trkpt lat="43.79728" lon="4.23233">
        <ele>144.82506023506</ele>
        <time>2026-05-02T10:03:19.550Z</time>
      </trkpt>
      <trkpt lat="43.79723" lon="4.23233">
        <ele>145.01940422982</ele>
        <time>2026-05-02T10:03:24.932Z</time>
      </trkpt>
      <trkpt lat="43.79718" lon="4.23231">
        <ele>144.97922406162</ele>
        <time>2026-05-02T10:03:30.054Z</time>
      </trkpt>
      <trkpt lat="43.79713" lon="4.23229">
        <ele>144.89926899628</ele>
        <time>2026-05-02T10:03:35.320Z</time>
      </trkpt>
      <trkpt lat="43.79707" lon="4.23226">
        <ele>144.83876269747</ele>
        <time>2026-05-02T10:03:41.391Z</time>
      </trkpt>
      <trkpt lat="43.797" lon="4.23224">
        <ele>144.74545715718</ele>
        <time>2026-05-02T10:03:46.548Z</time>
      </trkpt>
      <trkpt lat="43.79693" lon="4.2322">
        <ele>144.55787991212</ele>
        <time>2026-05-02T10:03:51.635Z</time>
      </trkpt>
      <trkpt lat="43.79687" lon="4.23217">
        <ele>144.43840947442</ele>
        <time>2026-05-02T10:03:56.792Z</time>
      </trkpt>
      <trkpt lat="43.79681" lon="4.23216">
        <ele>144.38056033838</ele>
        <time>2026-05-02T10:04:02.282Z</time>
      </trkpt>
      <trkpt lat="43.79675" lon="4.23214">
        <ele>144.27986319216</ele>
        <time>2026-05-02T10:04:07.421Z</time>
      </trkpt>
      <trkpt lat="43.79668" lon="4.23215">
        <ele>144.2979526846</ele>
        <time>2026-05-02T10:04:12.585Z</time>
      </trkpt>
      <trkpt lat="43.79661" lon="4.23216">
        <ele>144.34273781652</ele>
        <time>2026-05-02T10:04:18.421Z</time>
      </trkpt>
      <trkpt lat="43.79654" lon="4.23217">
        <ele>144.09981348719</ele>
        <time>2026-05-02T10:04:24.254Z</time>
      </trkpt>
      <trkpt lat="43.79646" lon="4.2322">
        <ele>143.99655653729</ele>
        <time>2026-05-02T10:04:29.920Z</time>
      </trkpt>
      <trkpt lat="43.79639" lon="4.23224">
        <ele>144.05953172525</ele>
        <time>2026-05-02T10:04:35.601Z</time>
      </trkpt>
      <trkpt lat="43.79633" lon="4.23228">
        <ele>144.0042531155</ele>
        <time>2026-05-02T10:04:41.239Z</time>
      </trkpt>
      <trkpt lat="43.79628" lon="4.23232">
        <ele>143.93429631536</ele>
        <time>2026-05-02T10:04:46.518Z</time>
      </trkpt>
      <trkpt lat="43.79621" lon="4.23231">
        <ele>143.40069968</ele>
        <time>2026-05-02T10:04:52.576Z</time>
      </trkpt>
      <trkpt lat="43.79612" lon="4.2323">
        <ele>142.66223143269</ele>
        <time>2026-05-02T10:04:58.214Z</time>
      </trkpt>
      <trkpt lat="43.79605" lon="4.2323">
        <ele>142.09412878145</ele>
        <time>2026-05-02T10:05:03.590Z</time>
      </trkpt>
      <trkpt lat="43.79599" lon="4.23229">
        <ele>141.52644897858</ele>
        <time>2026-05-02T10:05:08.607Z</time>
      </trkpt>
      <trkpt lat="43.79593" lon="4.2323">
        <ele>141.03851824633</ele>
        <time>2026-05-02T10:05:13.874Z</time>
      </trkpt>
      <trkpt lat="43.79585" lon="4.23233">
        <ele>140.58023091905</ele>
        <time>2026-05-02T10:05:19.414Z</time>
      </trkpt>
      <trkpt lat="43.79577" lon="4.23235">
        <ele>140.07327917066</ele>
        <time>2026-05-02T10:05:24.935Z</time>
      </trkpt>
      <trkpt lat="43.7957" lon="4.23236">
        <ele>139.49540215851</ele>
        <time>2026-05-02T10:05:30.475Z</time>
      </trkpt>
      <trkpt lat="43.79564" lon="4.23234">
        <ele>138.74685450568</ele>
        <time>2026-05-02T10:05:35.604Z</time>
      </trkpt>
      <trkpt lat="43.79558" lon="4.23236">
        <ele>138.55667331421</ele>
        <time>2026-05-02T10:05:40.613Z</time>
      </trkpt>
      <trkpt lat="43.7955" lon="4.2324">
        <ele>138.31701401829</ele>
        <time>2026-05-02T10:05:46.179Z</time>
      </trkpt>
      <trkpt lat="43.79543" lon="4.2324">
        <ele>137.7152466189</ele>
        <time>2026-05-02T10:05:51.609Z</time>
      </trkpt>
      <trkpt lat="43.79536" lon="4.23242">
        <ele>137.35375844606</ele>
        <time>2026-05-02T10:05:57.180Z</time>
      </trkpt>
      <trkpt lat="43.7953" lon="4.23243">
        <ele>137.03542974388</ele>
        <time>2026-05-02T10:06:02.620Z</time>
      </trkpt>
      <trkpt lat="43.79522" lon="4.23245">
        <ele>136.73191432274</ele>
        <time>2026-05-02T10:06:08.576Z</time>
      </trkpt>
      <trkpt lat="43.79514" lon="4.23242">
        <ele>135.68413937685</ele>
        <time>2026-05-02T10:06:14.552Z</time>
      </trkpt>
      <trkpt lat="43.79506" lon="4.23241">
        <ele>134.94416544168</ele>
        <time>2026-05-02T10:06:20.077Z</time>
      </trkpt>
      <trkpt lat="43.79499" lon="4.23241">
        <ele>134.5156629476</ele>
        <time>2026-05-02T10:06:25.500Z</time>
      </trkpt>
      <trkpt lat="43.79491" lon="4.23241">
        <ele>134.06059468127</ele>
        <time>2026-05-02T10:06:30.558Z</time>
      </trkpt>
      <trkpt lat="43.79484" lon="4.23239">
        <ele>133.13855724635</ele>
        <time>2026-05-02T10:06:36.536Z</time>
      </trkpt>
      <trkpt lat="43.79478" lon="4.23238">
        <ele>132.45953547182</ele>
        <time>2026-05-02T10:06:41.548Z</time>
      </trkpt>
      <trkpt lat="43.7947" lon="4.23239">
        <ele>132.04222934318</ele>
        <time>2026-05-02T10:06:47.632Z</time>
      </trkpt>
      <trkpt lat="43.79466" lon="4.23244">
        <ele>132.55332724992</ele>
        <time>2026-05-02T10:06:53.252Z</time>
      </trkpt>
      <trkpt lat="43.7947" lon="4.2325">
        <ele>133.96821187084</ele>
        <time>2026-05-02T10:06:58.457Z</time>
      </trkpt>
      <trkpt lat="43.79474" lon="4.23255">
        <ele>134.95778264101</ele>
        <time>2026-05-02T10:07:04.060Z</time>
      </trkpt>
      <trkpt lat="43.79478" lon="4.23256">
        <ele>135.40001148425</ele>
        <time>2026-05-02T10:07:09.578Z</time>
      </trkpt>
      <trkpt lat="43.79482" lon="4.23257">
        <ele>135.78827472406</ele>
        <time>2026-05-02T10:07:14.975Z</time>
      </trkpt>
      <trkpt lat="43.79484" lon="4.23265">
        <ele>137.03341094297</ele>
        <time>2026-05-02T10:07:20.376Z</time>
      </trkpt>
      <trkpt lat="43.79488" lon="4.23268">
        <ele>137.54709823463</ele>
        <time>2026-05-02T10:07:25.619Z</time>
      </trkpt>
      <trkpt lat="43.79492" lon="4.23274">
        <ele>138.32797125719</ele>
        <time>2026-05-02T10:07:31.278Z</time>
      </trkpt>
      <trkpt lat="43.79495" lon="4.23278">
        <ele>138.85362822882</ele>
        <time>2026-05-02T10:07:37.040Z</time>
      </trkpt>
      <trkpt lat="43.795" lon="4.23281">
        <ele>139.27201653669</ele>
        <time>2026-05-02T10:07:42.116Z</time>
      </trkpt>
      <trkpt lat="43.79502" lon="4.23285">
        <ele>139.7625179006</ele>
        <time>2026-05-02T10:07:47.580Z</time>
      </trkpt>
      <trkpt lat="43.79503" lon="4.2329">
        <ele>140.17924862129</ele>
        <time>2026-05-02T10:07:52.977Z</time>
      </trkpt>
      <trkpt lat="43.79505" lon="4.23294">
        <ele>140.56997678186</ele>
        <time>2026-05-02T10:07:58.496Z</time>
      </trkpt>
      <trkpt lat="43.79508" lon="4.23292">
        <ele>140.57917378195</ele>
        <time>2026-05-02T10:08:04.214Z</time>
      </trkpt>
      <trkpt lat="43.79508" lon="4.23293">
        <ele>140.66590904032</ele>
        <time>2026-05-02T10:08:09.417Z</time>
      </trkpt>
      <trkpt lat="43.79509" lon="4.23293">
        <ele>140.68223043238</ele>
        <time>2026-05-02T10:08:15.004Z</time>
      </trkpt>
      <trkpt lat="43.79509" lon="4.23297">
        <ele>140.96973895453</ele>
        <time>2026-05-02T10:08:20.319Z</time>
      </trkpt>
      <trkpt lat="43.79509" lon="4.23301">
        <ele>141.22948347435</ele>
        <time>2026-05-02T10:08:25.589Z</time>
      </trkpt>
      <trkpt lat="43.79511" lon="4.23305">
        <ele>141.46756949027</ele>
        <time>2026-05-02T10:08:30.794Z</time>
      </trkpt>
      <trkpt lat="43.79512" lon="4.23311">
        <ele>141.72629354527</ele>
        <time>2026-05-02T10:08:36.254Z</time>
      </trkpt>
      <trkpt lat="43.79508" lon="4.23319">
        <ele>141.9048965027</ele>
        <time>2026-05-02T10:08:41.277Z</time>
      </trkpt>
      <trkpt lat="43.79504" lon="4.23325">
        <ele>141.8770200538</ele>
        <time>2026-05-02T10:08:46.595Z</time>
      </trkpt>
      <trkpt lat="43.795" lon="4.23328">
        <ele>141.82426983954</ele>
        <time>2026-05-02T10:08:51.886Z</time>
      </trkpt>
      <trkpt lat="43.79496" lon="4.23329">
        <ele>141.68758065314</ele>
        <time>2026-05-02T10:08:57.338Z</time>
      </trkpt>
      <trkpt lat="43.79489" lon="4.23332">
        <ele>141.49148220574</ele>
        <time>2026-05-02T10:09:03.437Z</time>
      </trkpt>
      <trkpt lat="43.79488" lon="4.23335">
        <ele>141.51434794901</ele>
        <time>2026-05-02T10:09:08.515Z</time>
      </trkpt>
      <trkpt lat="43.79483" lon="4.23341">
        <ele>141.35502249406</ele>
        <time>2026-05-02T10:09:14.596Z</time>
      </trkpt>
      <trkpt lat="43.79478" lon="4.23345">
        <ele>141.1549653521</ele>
        <time>2026-05-02T10:09:20.023Z</time>
      </trkpt>
      <trkpt lat="43.79475" lon="4.2335">
        <ele>141.03578372971</ele>
        <time>2026-05-02T10:09:25.559Z</time>
      </trkpt>
      <trkpt lat="43.79471" lon="4.23353">
        <ele>140.84364805509</ele>
        <time>2026-05-02T10:09:30.755Z</time>
      </trkpt>
      <trkpt lat="43.79464" lon="4.23353">
        <ele>140.60629785261</ele>
        <time>2026-05-02T10:09:36.322Z</time>
      </trkpt>
      <trkpt lat="43.79458" lon="4.23357">
        <ele>140.35469308196</ele>
        <time>2026-05-02T10:09:41.564Z</time>
      </trkpt>
      <trkpt lat="43.79453" lon="4.2336">
        <ele>140.19543848451</ele>
        <time>2026-05-02T10:09:46.579Z</time>
      </trkpt>
      <trkpt lat="43.79449" lon="4.23365">
        <ele>140.02748764717</ele>
        <time>2026-05-02T10:09:52.156Z</time>
      </trkpt>
      <trkpt lat="43.7945" lon="4.2337">
        <ele>139.92692238103</ele>
        <time>2026-05-02T10:09:57.218Z</time>
      </trkpt>
      <trkpt lat="43.79443" lon="4.23374">
        <ele>139.64930771126</ele>
        <time>2026-05-02T10:10:03.545Z</time>
      </trkpt>
      <trkpt lat="43.79445" lon="4.23373">
        <ele>139.70366963104</ele>
        <time>2026-05-02T10:10:08.561Z</time>
      </trkpt>
      <trkpt lat="43.79446" lon="4.23369">
        <ele>139.88915853824</ele>
        <time>2026-05-02T10:10:13.577Z</time>
      </trkpt>
      <trkpt lat="43.79445" lon="4.23369">
        <ele>139.84854654998</ele>
        <time>2026-05-02T10:10:37.586Z</time>
      </trkpt>
      <trkpt lat="43.79444" lon="4.23369">
        <ele>139.82674557741</ele>
        <time>2026-05-02T10:11:02.555Z</time>
      </trkpt>
      <trkpt lat="43.79444" lon="4.23371">
        <ele>139.77516579548</ele>
        <time>2026-05-02T10:11:15.619Z</time>
      </trkpt>
      <trkpt lat="43.79444" lon="4.2338">
        <ele>139.4272411053</ele>
        <time>2026-05-02T10:11:21.132Z</time>
      </trkpt>
      <trkpt lat="43.79448" lon="4.23385">
        <ele>139.30154505309</ele>
        <time>2026-05-02T10:11:26.333Z</time>
      </trkpt>
      <trkpt lat="43.7945" lon="4.23391">
        <ele>139.16666679332</ele>
        <time>2026-05-02T10:11:31.555Z</time>
      </trkpt>
      <trkpt lat="43.7945" lon="4.23395">
        <ele>139.03350429025</ele>
        <time>2026-05-02T10:11:37.024Z</time>
      </trkpt>
      <trkpt lat="43.79454" lon="4.23398">
        <ele>139.00064622465</ele>
        <time>2026-05-02T10:11:42.072Z</time>
      </trkpt>
      <trkpt lat="43.79457" lon="4.23407">
        <ele>138.68257620909</ele>
        <time>2026-05-02T10:11:47.241Z</time>
      </trkpt>
      <trkpt lat="43.79455" lon="4.2341">
        <ele>138.47634777956</ele>
        <time>2026-05-02T10:11:52.399Z</time>
      </trkpt>
      <trkpt lat="43.79449" lon="4.23415">
        <ele>138.15527363218</ele>
        <time>2026-05-02T10:11:57.614Z</time>
      </trkpt>
      <trkpt lat="43.79442" lon="4.23417">
        <ele>137.97327338421</ele>
        <time>2026-05-02T10:12:03.114Z</time>
      </trkpt>
      <trkpt lat="43.79437" lon="4.2342">
        <ele>137.82559009052</ele>
        <time>2026-05-02T10:12:08.423Z</time>
      </trkpt>
      <trkpt lat="43.79434" lon="4.23424">
        <ele>137.65856945795</ele>
        <time>2026-05-02T10:12:13.596Z</time>
      </trkpt>
      <trkpt lat="43.79431" lon="4.23431">
        <ele>137.39578866767</ele>
        <time>2026-05-02T10:12:18.700Z</time>
      </trkpt>
      <trkpt lat="43.79428" lon="4.2344">
        <ele>137.11368671136</ele>
        <time>2026-05-02T10:12:24.534Z</time>
      </trkpt>
      <trkpt lat="43.79423" lon="4.2345">
        <ele>137.06274108646</ele>
        <time>2026-05-02T10:12:29.782Z</time>
      </trkpt>
      <trkpt lat="43.79421" lon="4.23458">
        <ele>137.01057475961</ele>
        <time>2026-05-02T10:12:34.961Z</time>
      </trkpt>
      <trkpt lat="43.79419" lon="4.23466">
        <ele>137.00030494152</ele>
        <time>2026-05-02T10:12:40.239Z</time>
      </trkpt>
      <trkpt lat="43.79415" lon="4.23473">
        <ele>137.08508136787</ele>
        <time>2026-05-02T10:12:45.281Z</time>
      </trkpt>
      <trkpt lat="43.79412" lon="4.2348">
        <ele>137.15158724762</ele>
        <time>2026-05-02T10:12:50.561Z</time>
      </trkpt>
      <trkpt lat="43.79411" lon="4.2349">
        <ele>137.06328496717</ele>
        <time>2026-05-02T10:12:56.314Z</time>
      </trkpt>
      <trkpt lat="43.79407" lon="4.23498">
        <ele>137.14549494023</ele>
        <time>2026-05-02T10:13:01.638Z</time>
      </trkpt>
      <trkpt lat="43.79405" lon="4.23504">
        <ele>137.16615878529</ele>
        <time>2026-05-02T10:13:07.198Z</time>
      </trkpt>
      <trkpt lat="43.79401" lon="4.2351">
        <ele>137.25929899178</ele>
        <time>2026-05-02T10:13:12.559Z</time>
      </trkpt>
      <trkpt lat="43.79396" lon="4.23515">
        <ele>137.38355813049</ele>
        <time>2026-05-02T10:13:18.296Z</time>
      </trkpt>
      <trkpt lat="43.7939" lon="4.2352">
        <ele>137.50582935366</ele>
        <time>2026-05-02T10:13:24.441Z</time>
      </trkpt>
      <trkpt lat="43.79385" lon="4.23526">
        <ele>137.57799862313</ele>
        <time>2026-05-02T10:13:30.434Z</time>
      </trkpt>
      <trkpt lat="43.79386" lon="4.23537">
        <ele>137.50957279994</ele>
        <time>2026-05-02T10:13:36.436Z</time>
      </trkpt>
      <trkpt lat="43.79386" lon="4.23545">
        <ele>137.40273618771</ele>
        <time>2026-05-02T10:13:42.517Z</time>
      </trkpt>
      <trkpt lat="43.79383" lon="4.23552">
        <ele>137.34321840645</ele>
        <time>2026-05-02T10:13:48.587Z</time>
      </trkpt>
      <trkpt lat="43.79378" lon="4.23558">
        <ele>137.30897592983</ele>
        <time>2026-05-02T10:13:54.256Z</time>
      </trkpt>
      <trkpt lat="43.79374" lon="4.23562">
        <ele>137.1909047231</ele>
        <time>2026-05-02T10:13:59.258Z</time>
      </trkpt>
      <trkpt lat="43.79368" lon="4.23566">
        <ele>137.06260968483</ele>
        <time>2026-05-02T10:14:05.442Z</time>
      </trkpt>
      <trkpt lat="43.79366" lon="4.23571">
        <ele>136.90166924285</ele>
        <time>2026-05-02T10:14:10.473Z</time>
      </trkpt>
      <trkpt lat="43.79361" lon="4.23576">
        <ele>136.67451112798</ele>
        <time>2026-05-02T10:14:16.636Z</time>
      </trkpt>
      <trkpt lat="43.79355" lon="4.2358">
        <ele>136.47150015324</ele>
        <time>2026-05-02T10:14:22.538Z</time>
      </trkpt>
      <trkpt lat="43.7935" lon="4.23583">
        <ele>136.28336064381</ele>
        <time>2026-05-02T10:14:27.599Z</time>
      </trkpt>
      <trkpt lat="43.79344" lon="4.23587">
        <ele>135.99266215111</ele>
        <time>2026-05-02T10:14:32.776Z</time>
      </trkpt>
      <trkpt lat="43.7934" lon="4.2359">
        <ele>135.74560867716</ele>
        <time>2026-05-02T10:14:38.117Z</time>
      </trkpt>
      <trkpt lat="43.79336" lon="4.23595">
        <ele>135.39867500742</ele>
        <time>2026-05-02T10:14:43.482Z</time>
      </trkpt>
      <trkpt lat="43.79334" lon="4.23602">
        <ele>134.91283864466</ele>
        <time>2026-05-02T10:14:48.496Z</time>
      </trkpt>
      <trkpt lat="43.79337" lon="4.23603">
        <ele>134.90699575582</ele>
        <time>2026-05-02T10:14:53.679Z</time>
      </trkpt>
      <trkpt lat="43.7934" lon="4.236">
        <ele>135.13585098628</ele>
        <time>2026-05-02T10:14:59.434Z</time>
      </trkpt>
      <trkpt lat="43.79345" lon="4.236">
        <ele>135.28827912436</ele>
        <time>2026-05-02T10:15:04.457Z</time>
      </trkpt>
      <trkpt lat="43.79348" lon="4.23606">
        <ele>135.03796187494</ele>
        <time>2026-05-02T10:15:10.234Z</time>
      </trkpt>
      <trkpt lat="43.79352" lon="4.23611">
        <ele>134.81528468553</ele>
        <time>2026-05-02T10:15:15.276Z</time>
      </trkpt>
      <trkpt lat="43.79357" lon="4.23618">
        <ele>134.40208693162</ele>
        <time>2026-05-02T10:15:21.316Z</time>
      </trkpt>
      <trkpt lat="43.79362" lon="4.23628">
        <ele>133.70565526345</ele>
        <time>2026-05-02T10:15:27.319Z</time>
      </trkpt>
      <trkpt lat="43.79364" lon="4.23636">
        <ele>133.10791649542</ele>
        <time>2026-05-02T10:15:32.535Z</time>
      </trkpt>
      <trkpt lat="43.79367" lon="4.23642">
        <ele>132.63944104026</ele>
        <time>2026-05-02T10:15:38.017Z</time>
      </trkpt>
      <trkpt lat="43.79369" lon="4.23649">
        <ele>131.91006872821</ele>
        <time>2026-05-02T10:15:43.633Z</time>
      </trkpt>
      <trkpt lat="43.79372" lon="4.23655">
        <ele>131.27021667058</ele>
        <time>2026-05-02T10:15:49.090Z</time>
      </trkpt>
      <trkpt lat="43.79376" lon="4.23658">
        <ele>130.78503065777</ele>
        <time>2026-05-02T10:15:54.538Z</time>
      </trkpt>
      <trkpt lat="43.79381" lon="4.23664">
        <ele>129.9001466883</ele>
        <time>2026-05-02T10:16:00.379Z</time>
      </trkpt>
      <trkpt lat="43.79381" lon="4.23674">
        <ele>128.75399163356</ele>
        <time>2026-05-02T10:16:05.670Z</time>
      </trkpt>
      <trkpt lat="43.79378" lon="4.23681">
        <ele>127.99989669042</ele>
        <time>2026-05-02T10:16:11.237Z</time>
      </trkpt>
      <trkpt lat="43.79376" lon="4.23683">
        <ele>127.97225373865</ele>
        <time>2026-05-02T10:16:16.506Z</time>
      </trkpt>
      <trkpt lat="43.79381" lon="4.23686">
        <ele>127.29906677193</ele>
        <time>2026-05-02T10:16:22.039Z</time>
      </trkpt>
      <trkpt lat="43.79382" lon="4.23693">
        <ele>126.24978541829</ele>
        <time>2026-05-02T10:16:27.474Z</time>
      </trkpt>
      <trkpt lat="43.79388" lon="4.23691">
        <ele>126.19133640023</ele>
        <time>2026-05-02T10:16:33.135Z</time>
      </trkpt>
      <trkpt lat="43.79393" lon="4.23689">
        <ele>125.9526221924</ele>
        <time>2026-05-02T10:16:39.282Z</time>
      </trkpt>
      <trkpt lat="43.79397" lon="4.23682">
        <ele>126.47618701648</ele>
        <time>2026-05-02T10:16:44.604Z</time>
      </trkpt>
      <trkpt lat="43.79401" lon="4.23679">
        <ele>126.55491867033</ele>
        <time>2026-05-02T10:16:50.335Z</time>
      </trkpt>
      <trkpt lat="43.79403" lon="4.23675">
        <ele>126.8429861922</ele>
        <time>2026-05-02T10:16:55.580Z</time>
      </trkpt>
      <trkpt lat="43.79407" lon="4.2367">
        <ele>127.07647271498</ele>
        <time>2026-05-02T10:17:01.297Z</time>
      </trkpt>
      <trkpt lat="43.7941" lon="4.23666">
        <ele>127.38620685024</ele>
        <time>2026-05-02T10:17:06.598Z</time>
      </trkpt>
      <trkpt lat="43.79412" lon="4.2366">
        <ele>127.92770415598</ele>
        <time>2026-05-02T10:17:12.526Z</time>
      </trkpt>
      <trkpt lat="43.79419" lon="4.23652">
        <ele>128.25956710053</ele>
        <time>2026-05-02T10:17:17.540Z</time>
      </trkpt>
      <trkpt lat="43.79424" lon="4.23646">
        <ele>128.65875443187</ele>
        <time>2026-05-02T10:17:22.558Z</time>
      </trkpt>
      <trkpt lat="43.79428" lon="4.2364">
        <ele>128.92202023569</ele>
        <time>2026-05-02T10:17:28.100Z</time>
      </trkpt>
      <trkpt lat="43.79431" lon="4.23635">
        <ele>129.09371482728</ele>
        <time>2026-05-02T10:17:33.546Z</time>
      </trkpt>
      <trkpt lat="43.79431" lon="4.23637">
        <ele>128.950098631</ele>
        <time>2026-05-02T10:17:39.094Z</time>
      </trkpt>
      <trkpt lat="43.79431" lon="4.23635">
        <ele>129.14888753375</ele>
        <time>2026-05-02T10:17:59.581Z</time>
      </trkpt>
      <trkpt lat="43.79431" lon="4.23634">
        <ele>129.2798657771</ele>
        <time>2026-05-02T10:18:27.643Z</time>
      </trkpt>
      <trkpt lat="43.79431" lon="4.23636">
        <ele>129.10649809855</ele>
        <time>2026-05-02T10:18:42.976Z</time>
      </trkpt>
      <trkpt lat="43.79432" lon="4.23637">
        <ele>128.87472848425</ele>
        <time>2026-05-02T10:18:48.000Z</time>
      </trkpt>
      <trkpt lat="43.79434" lon="4.23645">
        <ele>127.78924896932</ele>
        <time>2026-05-02T10:18:53.362Z</time>
      </trkpt>
      <trkpt lat="43.79434" lon="4.2365">
        <ele>126.98858593397</ele>
        <time>2026-05-02T10:18:59.000Z</time>
      </trkpt>
      <trkpt lat="43.79433" lon="4.23657">
        <ele>126.21425216303</ele>
        <time>2026-05-02T10:19:04.562Z</time>
      </trkpt>
      <trkpt lat="43.79431" lon="4.23663">
        <ele>125.6286743059</ele>
        <time>2026-05-02T10:19:09.578Z</time>
      </trkpt>
      <trkpt lat="43.79429" lon="4.23669">
        <ele>124.96856796171</ele>
        <time>2026-05-02T10:19:14.692Z</time>
      </trkpt>
      <trkpt lat="43.79425" lon="4.23673">
        <ele>124.89258525358</ele>
        <time>2026-05-02T10:19:19.893Z</time>
      </trkpt>
      <trkpt lat="43.79422" lon="4.23676">
        <ele>124.78042044984</ele>
        <time>2026-05-02T10:19:25.620Z</time>
      </trkpt>
      <trkpt lat="43.79417" lon="4.23681">
        <ele>124.59745337745</ele>
        <time>2026-05-02T10:19:30.973Z</time>
      </trkpt>
      <trkpt lat="43.79413" lon="4.23689">
        <ele>123.94353092628</ele>
        <time>2026-05-02T10:19:36.335Z</time>
      </trkpt>
      <trkpt lat="43.79407" lon="4.23694">
        <ele>123.78597795048</ele>
        <time>2026-05-02T10:19:41.538Z</time>
      </trkpt>
      <trkpt lat="43.79401" lon="4.23698">
        <ele>123.63988525913</ele>
        <time>2026-05-02T10:19:47.113Z</time>
      </trkpt>
      <trkpt lat="43.79398" lon="4.23705">
        <ele>122.91478206398</ele>
        <time>2026-05-02T10:19:52.360Z</time>
      </trkpt>
      <trkpt lat="43.79395" lon="4.23708">
        <ele>122.68984731371</ele>
        <time>2026-05-02T10:19:57.594Z</time>
      </trkpt>
      <trkpt lat="43.79393" lon="4.23711">
        <ele>122.52931688126</ele>
        <time>2026-05-02T10:20:03.474Z</time>
      </trkpt>
      <trkpt lat="43.79389" lon="4.23713">
        <ele>122.77687510464</ele>
        <time>2026-05-02T10:20:09.076Z</time>
      </trkpt>
      <trkpt lat="43.79391" lon="4.23711">
        <ele>122.87636718004</ele>
        <time>2026-05-02T10:20:14.234Z</time>
      </trkpt>
      <trkpt lat="43.7939" lon="4.23712">
        <ele>122.76505554646</ele>
        <time>2026-05-02T10:20:22.201Z</time>
      </trkpt>
      <trkpt lat="43.79387" lon="4.23714">
        <ele>122.846524391</ele>
        <time>2026-05-02T10:20:27.479Z</time>
      </trkpt>
      <trkpt lat="43.79386" lon="4.23714">
        <ele>122.90843185673</ele>
        <time>2026-05-02T10:20:32.602Z</time>
      </trkpt>
      <trkpt lat="43.79385" lon="4.23715">
        <ele>122.85417977535</ele>
        <time>2026-05-02T10:20:37.616Z</time>
      </trkpt>
      <trkpt lat="43.79382" lon="4.23713">
        <ele>123.31989587737</ele>
        <time>2026-05-02T10:20:42.632Z</time>
      </trkpt>
      <trkpt lat="43.79378" lon="4.23711">
        <ele>124.00707063173</ele>
        <time>2026-05-02T10:20:47.658Z</time>
      </trkpt>
      <trkpt lat="43.79376" lon="4.23711">
        <ele>124.04119869212</ele>
        <time>2026-05-02T10:20:53.200Z</time>
      </trkpt>
      <trkpt lat="43.79376" lon="4.23713">
        <ele>123.8297502711</ele>
        <time>2026-05-02T10:20:58.320Z</time>
      </trkpt>
      <trkpt lat="43.79374" lon="4.23713">
        <ele>123.93209508854</ele>
        <time>2026-05-02T10:21:04.117Z</time>
      </trkpt>
      <trkpt lat="43.79369" lon="4.23715">
        <ele>123.86713914374</ele>
        <time>2026-05-02T10:21:09.497Z</time>
      </trkpt>
      <trkpt lat="43.79365" lon="4.23713">
        <ele>124.46940010815</ele>
        <time>2026-05-02T10:21:14.642Z</time>
      </trkpt>
      <trkpt lat="43.79364" lon="4.23712">
        <ele>124.64365260503</ele>
        <time>2026-05-02T10:21:20.597Z</time>
      </trkpt>
      <trkpt lat="43.79363" lon="4.23713">
        <ele>124.39085429523</ele>
        <time>2026-05-02T10:21:30.647Z</time>
      </trkpt>
      <trkpt lat="43.79362" lon="4.23713">
        <ele>124.47927135708</ele>
        <time>2026-05-02T10:21:39.610Z</time>
      </trkpt>
      <trkpt lat="43.79363" lon="4.23709">
        <ele>125.10004414621</ele>
        <time>2026-05-02T10:21:44.683Z</time>
      </trkpt>
      <trkpt lat="43.79362" lon="4.23709">
        <ele>125.05987782753</ele>
        <time>2026-05-02T10:21:55.360Z</time>
      </trkpt>
      <trkpt lat="43.79362" lon="4.23712">
        <ele>124.6136838409</ele>
        <time>2026-05-02T10:22:00.998Z</time>
      </trkpt>
      <trkpt lat="43.79362" lon="4.23711">
        <ele>124.82425535659</ele>
        <time>2026-05-02T10:22:08.200Z</time>
      </trkpt>
      <trkpt lat="43.79363" lon="4.23708">
        <ele>125.24552935446</ele>
        <time>2026-05-02T10:22:13.474Z</time>
      </trkpt>
      <trkpt lat="43.79364" lon="4.23705">
        <ele>125.62699799832</ele>
        <time>2026-05-02T10:22:18.664Z</time>
      </trkpt>
      <trkpt lat="43.79365" lon="4.23705">
        <ele>125.62798263835</ele>
        <time>2026-05-02T10:22:31.681Z</time>
      </trkpt>
      <trkpt lat="43.79366" lon="4.23704">
        <ele>125.71081768368</ele>
        <time>2026-05-02T10:22:40.397Z</time>
      </trkpt>
      <trkpt lat="43.7937" lon="4.23712">
        <ele>124.3296642503</ele>
        <time>2026-05-02T10:22:46.177Z</time>
      </trkpt>
      <trkpt lat="43.79373" lon="4.23718">
        <ele>123.09856603535</ele>
        <time>2026-05-02T10:22:51.635Z</time>
      </trkpt>
      <trkpt lat="43.79375" lon="4.23726">
        <ele>121.74506752297</ele>
        <time>2026-05-02T10:22:57.276Z</time>
      </trkpt>
      <trkpt lat="43.79374" lon="4.2373">
        <ele>121.02886619778</ele>
        <time>2026-05-02T10:23:03.051Z</time>
      </trkpt>
      <trkpt lat="43.79373" lon="4.23734">
        <ele>120.31536263882</ele>
        <time>2026-05-02T10:23:08.416Z</time>
      </trkpt>
      <trkpt lat="43.79371" lon="4.23739">
        <ele>119.68038715487</ele>
        <time>2026-05-02T10:23:13.614Z</time>
      </trkpt>
      <trkpt lat="43.79369" lon="4.23745">
        <ele>118.79523990602</ele>
        <time>2026-05-02T10:23:18.630Z</time>
      </trkpt>
      <trkpt lat="43.79365" lon="4.23753">
        <ele>117.72616661109</ele>
        <time>2026-05-02T10:23:24.536Z</time>
      </trkpt>
      <trkpt lat="43.79361" lon="4.23757">
        <ele>117.2291385777</ele>
        <time>2026-05-02T10:23:29.620Z</time>
      </trkpt>
      <trkpt lat="43.79354" lon="4.2376">
        <ele>117.2048502089</ele>
        <time>2026-05-02T10:23:35.377Z</time>
      </trkpt>
      <trkpt lat="43.79349" lon="4.23764">
        <ele>116.99500191677</ele>
        <time>2026-05-02T10:23:40.503Z</time>
      </trkpt>
      <trkpt lat="43.79344" lon="4.23768">
        <ele>116.56453694099</ele>
        <time>2026-05-02T10:23:45.636Z</time>
      </trkpt>
      <trkpt lat="43.7934" lon="4.23769">
        <ele>116.55774920647</ele>
        <time>2026-05-02T10:23:50.936Z</time>
      </trkpt>
      <trkpt lat="43.79339" lon="4.23774">
        <ele>115.76357614386</ele>
        <time>2026-05-02T10:23:56.282Z</time>
      </trkpt>
      <trkpt lat="43.79332" lon="4.2378">
        <ele>115.13017104613</ele>
        <time>2026-05-02T10:24:01.553Z</time>
      </trkpt>
      <trkpt lat="43.79325" lon="4.23779">
        <ele>115.74822109475</ele>
        <time>2026-05-02T10:24:07.077Z</time>
      </trkpt>
      <trkpt lat="43.79321" lon="4.2378">
        <ele>115.90404046516</ele>
        <time>2026-05-02T10:24:12.179Z</time>
      </trkpt>
      <trkpt lat="43.79316" lon="4.23783">
        <ele>115.81147060811</ele>
        <time>2026-05-02T10:24:17.517Z</time>
      </trkpt>
      <trkpt lat="43.79311" lon="4.23787">
        <ele>115.340504285</ele>
        <time>2026-05-02T10:24:22.654Z</time>
      </trkpt>
      <trkpt lat="43.79305" lon="4.2379">
        <ele>115.02267087074</ele>
        <time>2026-05-02T10:24:28.098Z</time>
      </trkpt>
      <trkpt lat="43.79299" lon="4.23793">
        <ele>114.71678405962</ele>
        <time>2026-05-02T10:24:33.536Z</time>
      </trkpt>
      <trkpt lat="43.79294" lon="4.23795">
        <ele>114.47650616407</ele>
        <time>2026-05-02T10:24:38.551Z</time>
      </trkpt>
      <trkpt lat="43.79289" lon="4.23796">
        <ele>114.64146019049</ele>
        <time>2026-05-02T10:24:44.281Z</time>
      </trkpt>
      <trkpt lat="43.79287" lon="4.23796">
        <ele>114.64196470422</ele>
        <time>2026-05-02T10:24:49.541Z</time>
      </trkpt>
      <trkpt lat="43.79286" lon="4.23796">
        <ele>114.64377026029</ele>
        <time>2026-05-02T10:24:54.812Z</time>
      </trkpt>
      <trkpt lat="43.79284" lon="4.23797">
        <ele>114.57144015596</ele>
        <time>2026-05-02T10:24:59.893Z</time>
      </trkpt>
      <trkpt lat="43.79279" lon="4.23798">
        <ele>114.61253609491</ele>
        <time>2026-05-02T10:25:05.574Z</time>
      </trkpt>
      <trkpt lat="43.79277" lon="4.23797">
        <ele>114.73013765352</ele>
        <time>2026-05-02T10:25:11.629Z</time>
      </trkpt>
      <trkpt lat="43.79277" lon="4.23798">
        <ele>114.4542553816</ele>
        <time>2026-05-02T10:25:22.619Z</time>
      </trkpt>
      <trkpt lat="43.79277" lon="4.238">
        <ele>114.15132450706</ele>
        <time>2026-05-02T10:25:29.555Z</time>
      </trkpt>
      <trkpt lat="43.79278" lon="4.238">
        <ele>114.0173371235</ele>
        <time>2026-05-02T10:25:46.626Z</time>
      </trkpt>
      <trkpt lat="43.79277" lon="4.23801">
        <ele>113.91451682919</ele>
        <time>2026-05-02T10:25:59.497Z</time>
      </trkpt>
      <trkpt lat="43.7927" lon="4.23802">
        <ele>113.61956931649</ele>
        <time>2026-05-02T10:26:04.660Z</time>
      </trkpt>
      <trkpt lat="43.79263" lon="4.23804">
        <ele>112.8933933808</ele>
        <time>2026-05-02T10:26:09.955Z</time>
      </trkpt>
      <trkpt lat="43.79256" lon="4.23807">
        <ele>111.83124161225</ele>
        <time>2026-05-02T10:26:15.075Z</time>
      </trkpt>
      <trkpt lat="43.79249" lon="4.23808">
        <ele>111.36928139608</ele>
        <time>2026-05-02T10:26:20.455Z</time>
      </trkpt>
      <trkpt lat="43.79243" lon="4.23811">
        <ele>110.61697171866</ele>
        <time>2026-05-02T10:26:26.397Z</time>
      </trkpt>
      <trkpt lat="43.7924" lon="4.23813">
        <ele>110.20545925837</ele>
        <time>2026-05-02T10:26:31.640Z</time>
      </trkpt>
      <trkpt lat="43.79237" lon="4.23815">
        <ele>109.69778505274</ele>
        <time>2026-05-02T10:26:37.216Z</time>
      </trkpt>
      <trkpt lat="43.7923" lon="4.23818">
        <ele>109.39473670193</ele>
        <time>2026-05-02T10:26:42.258Z</time>
      </trkpt>
      <trkpt lat="43.79223" lon="4.23821">
        <ele>110.36579882304</ele>
        <time>2026-05-02T10:26:47.557Z</time>
      </trkpt>
      <trkpt lat="43.79217" lon="4.23827">
        <ele>111.16514831601</ele>
        <time>2026-05-02T10:26:53.382Z</time>
      </trkpt>
      <trkpt lat="43.79214" lon="4.2383">
        <ele>111.5962079483</ele>
        <time>2026-05-02T10:26:58.845Z</time>
      </trkpt>
      <trkpt lat="43.79215" lon="4.2383">
        <ele>111.43739029636</ele>
        <time>2026-05-02T10:27:06.112Z</time>
      </trkpt>
      <trkpt lat="43.79214" lon="4.2383">
        <ele>111.70907084883</ele>
        <time>2026-05-02T10:27:11.669Z</time>
      </trkpt>
      <trkpt lat="43.79205" lon="4.23825">
        <ele>114.35501219849</ele>
        <time>2026-05-02T10:27:17.192Z</time>
      </trkpt>
      <trkpt lat="43.79202" lon="4.23816">
        <ele>115.91338168575</ele>
        <time>2026-05-02T10:27:22.659Z</time>
      </trkpt>
      <trkpt lat="43.792" lon="4.23812">
        <ele>116.70440075749</ele>
        <time>2026-05-02T10:27:28.209Z</time>
      </trkpt>
      <trkpt lat="43.79197" lon="4.2381">
        <ele>117.56486709935</ele>
        <time>2026-05-02T10:27:33.544Z</time>
      </trkpt>
      <trkpt lat="43.79194" lon="4.23814">
        <ele>117.8651709091</ele>
        <time>2026-05-02T10:27:38.558Z</time>
      </trkpt>
      <trkpt lat="43.79192" lon="4.23814">
        <ele>118.17805834743</ele>
        <time>2026-05-02T10:27:43.575Z</time>
      </trkpt>
      <trkpt lat="43.7919" lon="4.23815">
        <ele>118.54757646662</ele>
        <time>2026-05-02T10:27:49.182Z</time>
      </trkpt>
      <trkpt lat="43.79189" lon="4.23815">
        <ele>118.77371162983</ele>
        <time>2026-05-02T10:27:59.460Z</time>
      </trkpt>
      <trkpt lat="43.79187" lon="4.23813">
        <ele>119.19424751258</ele>
        <time>2026-05-02T10:28:04.619Z</time>
      </trkpt>
      <trkpt lat="43.79182" lon="4.23812">
        <ele>119.97272978616</ele>
        <time>2026-05-02T10:28:10.538Z</time>
      </trkpt>
      <trkpt lat="43.79178" lon="4.23811">
        <ele>120.72476890016</ele>
        <time>2026-05-02T10:28:15.615Z</time>
      </trkpt>
      <trkpt lat="43.7917" lon="4.2381">
        <ele>121.64177988495</ele>
        <time>2026-05-02T10:28:21.218Z</time>
      </trkpt>
      <trkpt lat="43.79166" lon="4.23809">
        <ele>122.10566610588</ele>
        <time>2026-05-02T10:28:26.362Z</time>
      </trkpt>
      <trkpt lat="43.79165" lon="4.2381">
        <ele>122.12969112031</ele>
        <time>2026-05-02T10:28:31.592Z</time>
      </trkpt>
      <trkpt lat="43.79164" lon="4.23811">
        <ele>122.21950882911</ele>
        <time>2026-05-02T10:28:37.038Z</time>
      </trkpt>
      <trkpt lat="43.79162" lon="4.23811">
        <ele>122.3096057976</ele>
        <time>2026-05-02T10:28:42.582Z</time>
      </trkpt>
      <trkpt lat="43.79161" lon="4.23812">
        <ele>122.32596898778</ele>
        <time>2026-05-02T10:28:48.000Z</time>
      </trkpt>
      <trkpt lat="43.79161" lon="4.23814">
        <ele>122.31033514686</ele>
        <time>2026-05-02T10:28:53.383Z</time>
      </trkpt>
      <trkpt lat="43.79159" lon="4.23813">
        <ele>122.47825675453</ele>
        <time>2026-05-02T10:28:58.458Z</time>
      </trkpt>
      <trkpt lat="43.79157" lon="4.23812">
        <ele>122.7153630903</ele>
        <time>2026-05-02T10:29:03.614Z</time>
      </trkpt>
      <trkpt lat="43.79156" lon="4.23815">
        <ele>122.66215446815</ele>
        <time>2026-05-02T10:29:08.617Z</time>
      </trkpt>
      <trkpt lat="43.79154" lon="4.23815">
        <ele>122.71033482147</ele>
        <time>2026-05-02T10:29:13.633Z</time>
      </trkpt>
      <trkpt lat="43.79152" lon="4.23816">
        <ele>122.67008414636</ele>
        <time>2026-05-02T10:29:19.140Z</time>
      </trkpt>
      <trkpt lat="43.79148" lon="4.23814">
        <ele>122.86061701762</ele>
        <time>2026-05-02T10:29:24.651Z</time>
      </trkpt>
      <trkpt lat="43.79141" lon="4.23812">
        <ele>123.0385473496</ele>
        <time>2026-05-02T10:29:30.433Z</time>
      </trkpt>
      <trkpt lat="43.79137" lon="4.23813">
        <ele>122.87400130478</ele>
        <time>2026-05-02T10:29:35.614Z</time>
      </trkpt>
      <trkpt lat="43.79132" lon="4.23813">
        <ele>122.76805926062</ele>
        <time>2026-05-02T10:29:41.590Z</time>
      </trkpt>
      <trkpt lat="43.79125" lon="4.23805">
        <ele>123.04731530527</ele>
        <time>2026-05-02T10:29:46.605Z</time>
      </trkpt>
      <trkpt lat="43.79119" lon="4.23799">
        <ele>123.17817002227</ele>
        <time>2026-05-02T10:29:52.004Z</time>
      </trkpt>
      <trkpt lat="43.79114" lon="4.238">
        <ele>122.698094964</ele>
        <time>2026-05-02T10:29:57.594Z</time>
      </trkpt>
      <trkpt lat="43.79112" lon="4.23797">
        <ele>122.78864103195</ele>
        <time>2026-05-02T10:30:02.610Z</time>
      </trkpt>
      <trkpt lat="43.79109" lon="4.2379">
        <ele>122.85635886036</ele>
        <time>2026-05-02T10:30:07.611Z</time>
      </trkpt>
      <trkpt lat="43.79103" lon="4.23783">
        <ele>122.65104568265</ele>
        <time>2026-05-02T10:30:12.669Z</time>
      </trkpt>
      <trkpt lat="43.79099" lon="4.23784">
        <ele>121.87832560571</ele>
        <time>2026-05-02T10:30:18.615Z</time>
      </trkpt>
      <trkpt lat="43.79097" lon="4.23783">
        <ele>121.56696831276</ele>
        <time>2026-05-02T10:30:24.230Z</time>
      </trkpt>
      <trkpt lat="43.79096" lon="4.23785">
        <ele>121.21185603289</ele>
        <time>2026-05-02T10:30:29.467Z</time>
      </trkpt>
      <trkpt lat="43.79098" lon="4.2379">
        <ele>121.1781564936</ele>
        <time>2026-05-02T10:30:34.865Z</time>
      </trkpt>
      <trkpt lat="43.791" lon="4.23797">
        <ele>121.15460749123</ele>
        <time>2026-05-02T10:30:40.605Z</time>
      </trkpt>
      <trkpt lat="43.79103" lon="4.23801">
        <ele>121.14927532319</ele>
        <time>2026-05-02T10:30:46.113Z</time>
      </trkpt>
      <trkpt lat="43.79104" lon="4.2381">
        <ele>120.50084036355</ele>
        <time>2026-05-02T10:30:51.596Z</time>
      </trkpt>
      <trkpt lat="43.79106" lon="4.23819">
        <ele>119.77123911347</ele>
        <time>2026-05-02T10:30:57.086Z</time>
      </trkpt>
      <trkpt lat="43.79108" lon="4.23829">
        <ele>118.79617747336</ele>
        <time>2026-05-02T10:31:02.332Z</time>
      </trkpt>
      <trkpt lat="43.79111" lon="4.23837">
        <ele>118.19778080757</ele>
        <time>2026-05-02T10:31:07.602Z</time>
      </trkpt>
      <trkpt lat="43.79115" lon="4.23842">
        <ele>118.14619927189</ele>
        <time>2026-05-02T10:31:12.617Z</time>
      </trkpt>
      <trkpt lat="43.79117" lon="4.23846">
        <ele>117.90470156181</ele>
        <time>2026-05-02T10:31:18.053Z</time>
      </trkpt>
      <trkpt lat="43.7912" lon="4.23849">
        <ele>118.00668004936</ele>
        <time>2026-05-02T10:31:23.387Z</time>
      </trkpt>
      <trkpt lat="43.79125" lon="4.23851">
        <ele>118.47797485327</ele>
        <time>2026-05-02T10:31:28.621Z</time>
      </trkpt>
      <trkpt lat="43.79131" lon="4.23855">
        <ele>118.6103169555</ele>
        <time>2026-05-02T10:31:34.277Z</time>
      </trkpt>
      <trkpt lat="43.79136" lon="4.23857">
        <ele>118.54792903352</ele>
        <time>2026-05-02T10:31:39.633Z</time>
      </trkpt>
      <trkpt lat="43.7914" lon="4.23859">
        <ele>118.47213994886</ele>
        <time>2026-05-02T10:31:45.588Z</time>
      </trkpt>
      <trkpt lat="43.79142" lon="4.23862">
        <ele>118.29566592925</ele>
        <time>2026-05-02T10:31:50.602Z</time>
      </trkpt>
      <trkpt lat="43.79143" lon="4.23863">
        <ele>118.18769066753</ele>
        <time>2026-05-02T10:31:55.618Z</time>
      </trkpt>
      <trkpt lat="43.79142" lon="4.23863">
        <ele>118.13034901462</ele>
        <time>2026-05-02T10:32:01.593Z</time>
      </trkpt>
      <trkpt lat="43.79143" lon="4.23864">
        <ele>118.14354305889</ele>
        <time>2026-05-02T10:32:09.862Z</time>
      </trkpt>
      <trkpt lat="43.79143" lon="4.23864">
        <ele>118.13750594746</ele>
        <time>2026-05-02T10:32:19.071Z</time>
      </trkpt>
      <trkpt lat="43.79147" lon="4.23861">
        <ele>118.53874538177</ele>
        <time>2026-05-02T10:32:24.535Z</time>
      </trkpt>
      <trkpt lat="43.79153" lon="4.23857">
        <ele>119.08717031856</ele>
        <time>2026-05-02T10:32:29.656Z</time>
      </trkpt>
      <trkpt lat="43.79162" lon="4.23862">
        <ele>118.28092908081</ele>
        <time>2026-05-02T10:32:35.608Z</time>
      </trkpt>
      <trkpt lat="43.79168" lon="4.23868">
        <ele>117.31422584196</ele>
        <time>2026-05-02T10:32:41.180Z</time>
      </trkpt>
      <trkpt lat="43.79174" lon="4.2387">
        <ele>116.61169859842</ele>
        <time>2026-05-02T10:32:46.331Z</time>
      </trkpt>
      <trkpt lat="43.79179" lon="4.23875">
        <ele>115.59102930021</ele>
        <time>2026-05-02T10:32:51.392Z</time>
      </trkpt>
      <trkpt lat="43.79181" lon="4.23879">
        <ele>114.72828421909</ele>
        <time>2026-05-02T10:32:56.547Z</time>
      </trkpt>
      <trkpt lat="43.79185" lon="4.2388">
        <ele>113.94592603207</ele>
        <time>2026-05-02T10:33:01.654Z</time>
      </trkpt>
      <trkpt lat="43.7919" lon="4.23884">
        <ele>112.67477476476</ele>
        <time>2026-05-02T10:33:07.114Z</time>
      </trkpt>
      <trkpt lat="43.79196" lon="4.23884">
        <ele>111.5987928847</ele>
        <time>2026-05-02T10:33:12.551Z</time>
      </trkpt>
      <trkpt lat="43.79199" lon="4.23887">
        <ele>110.59609258997</ele>
        <time>2026-05-02T10:33:18.129Z</time>
      </trkpt>
      <trkpt lat="43.79203" lon="4.2389">
        <ele>109.47708225385</ele>
        <time>2026-05-02T10:33:23.430Z</time>
      </trkpt>
      <trkpt lat="43.79209" lon="4.23892">
        <ele>108.10759474257</ele>
        <time>2026-05-02T10:33:29.624Z</time>
      </trkpt>
      <trkpt lat="43.79211" lon="4.23888">
        <ele>107.74795410491</ele>
        <time>2026-05-02T10:33:34.638Z</time>
      </trkpt>
      <trkpt lat="43.79218" lon="4.23885">
        <ele>106.2942861666</ele>
        <time>2026-05-02T10:33:40.210Z</time>
      </trkpt>
      <trkpt lat="43.79223" lon="4.23885">
        <ele>104.52388021161</ele>
        <time>2026-05-02T10:33:45.950Z</time>
      </trkpt>
      <trkpt lat="43.79223" lon="4.23881">
        <ele>104.9203386261</ele>
        <time>2026-05-02T10:33:51.608Z</time>
      </trkpt>
      <trkpt lat="43.7922" lon="4.23874">
        <ele>106.09900461355</ele>
        <time>2026-05-02T10:33:56.619Z</time>
      </trkpt>
      <trkpt lat="43.79222" lon="4.23867">
        <ele>106.04031317103</ele>
        <time>2026-05-02T10:34:02.287Z</time>
      </trkpt>
      <trkpt lat="43.79224" lon="4.23862">
        <ele>105.49963518994</ele>
        <time>2026-05-02T10:34:07.524Z</time>
      </trkpt>
      <trkpt lat="43.79224" lon="4.23863">
        <ele>105.31159758421</ele>
        <time>2026-05-02T10:34:12.625Z</time>
      </trkpt>
      <trkpt lat="43.79224" lon="4.23862">
        <ele>105.56676297559</ele>
        <time>2026-05-02T10:34:32.352Z</time>
      </trkpt>
      <trkpt lat="43.79226" lon="4.23857">
        <ele>105.12467822632</ele>
        <time>2026-05-02T10:34:37.572Z</time>
      </trkpt>
      <trkpt lat="43.7923" lon="4.2385">
        <ele>104.63955229796</ele>
        <time>2026-05-02T10:34:43.263Z</time>
      </trkpt>
      <trkpt lat="43.79238" lon="4.23845">
        <ele>104.76918943873</ele>
        <time>2026-05-02T10:34:48.621Z</time>
      </trkpt>
      <trkpt lat="43.79244" lon="4.23842">
        <ele>105.23640503079</ele>
        <time>2026-05-02T10:34:54.660Z</time>
      </trkpt>
      <trkpt lat="43.79249" lon="4.23841">
        <ele>105.78799593023</ele>
        <time>2026-05-02T10:35:00.201Z</time>
      </trkpt>
      <trkpt lat="43.79255" lon="4.23841">
        <ele>106.49868528195</ele>
        <time>2026-05-02T10:35:05.376Z</time>
      </trkpt>
      <trkpt lat="43.79261" lon="4.23842">
        <ele>107.37315791381</ele>
        <time>2026-05-02T10:35:10.996Z</time>
      </trkpt>
      <trkpt lat="43.79266" lon="4.23843">
        <ele>108.24440651755</ele>
        <time>2026-05-02T10:35:16.517Z</time>
      </trkpt>
      <trkpt lat="43.79269" lon="4.23843">
        <ele>108.55333873956</ele>
        <time>2026-05-02T10:35:21.592Z</time>
      </trkpt>
      <trkpt lat="43.7927" lon="4.23843">
        <ele>108.583467464</ele>
        <time>2026-05-02T10:35:27.083Z</time>
      </trkpt>
      <trkpt lat="43.79275" lon="4.23841">
        <ele>108.66848177038</ele>
        <time>2026-05-02T10:35:32.582Z</time>
      </trkpt>
      <trkpt lat="43.79276" lon="4.23838">
        <ele>108.36229827918</ele>
        <time>2026-05-02T10:35:37.598Z</time>
      </trkpt>
      <trkpt lat="43.79278" lon="4.23838">
        <ele>108.47703125926</ele>
        <time>2026-05-02T10:35:44.324Z</time>
      </trkpt>
      <trkpt lat="43.79284" lon="4.2384">
        <ele>109.12796600137</ele>
        <time>2026-05-02T10:35:49.567Z</time>
      </trkpt>
      <trkpt lat="43.7929" lon="4.2384">
        <ele>109.35246648444</ele>
        <time>2026-05-02T10:35:54.994Z</time>
      </trkpt>
      <trkpt lat="43.79294" lon="4.23837">
        <ele>109.38779594285</ele>
        <time>2026-05-02T10:36:00.481Z</time>
      </trkpt>
      <trkpt lat="43.79297" lon="4.23835">
        <ele>109.29257368115</ele>
        <time>2026-05-02T10:36:05.913Z</time>
      </trkpt>
      <trkpt lat="43.79301" lon="4.23833">
        <ele>109.28571561043</ele>
        <time>2026-05-02T10:36:11.053Z</time>
      </trkpt>
      <trkpt lat="43.79304" lon="4.2383">
        <ele>109.41927098292</ele>
        <time>2026-05-02T10:36:16.555Z</time>
      </trkpt>
      <trkpt lat="43.7931" lon="4.23827">
        <ele>110.27584728194</ele>
        <time>2026-05-02T10:36:21.919Z</time>
      </trkpt>
      <trkpt lat="43.79313" lon="4.23821">
        <ele>110.32727037835</ele>
        <time>2026-05-02T10:36:27.317Z</time>
      </trkpt>
      <trkpt lat="43.79317" lon="4.23814">
        <ele>110.05217124406</ele>
        <time>2026-05-02T10:36:32.571Z</time>
      </trkpt>
      <trkpt lat="43.79322" lon="4.23813">
        <ele>110.81261623826</ele>
        <time>2026-05-02T10:36:37.585Z</time>
      </trkpt>
      <trkpt lat="43.79324" lon="4.23811">
        <ele>111.29659050114</ele>
        <time>2026-05-02T10:36:42.600Z</time>
      </trkpt>
      <trkpt lat="43.79325" lon="4.2381">
        <ele>111.4963307685</ele>
        <time>2026-05-02T10:36:49.460Z</time>
      </trkpt>
      <trkpt lat="43.7933" lon="4.23806">
        <ele>112.07998325647</ele>
        <time>2026-05-02T10:36:54.657Z</time>
      </trkpt>
      <trkpt lat="43.79337" lon="4.23802">
        <ele>112.55373785177</ele>
        <time>2026-05-02T10:37:00.262Z</time>
      </trkpt>
      <trkpt lat="43.7934" lon="4.23797">
        <ele>112.60340353875</ele>
        <time>2026-05-02T10:37:05.278Z</time>
      </trkpt>
      <trkpt lat="43.79345" lon="4.23794">
        <ele>113.06320951878</ele>
        <time>2026-05-02T10:37:11.137Z</time>
      </trkpt>
      <trkpt lat="43.79349" lon="4.23794">
        <ele>113.10646193272</ele>
        <time>2026-05-02T10:37:16.869Z</time>
      </trkpt>
      <trkpt lat="43.79353" lon="4.23795">
        <ele>113.21719995532</ele>
        <time>2026-05-02T10:37:22.485Z</time>
      </trkpt>
      <trkpt lat="43.79355" lon="4.23795">
        <ele>113.40705134737</ele>
        <time>2026-05-02T10:37:27.981Z</time>
      </trkpt>
      <trkpt lat="43.79357" lon="4.23792">
        <ele>113.730770159</ele>
        <time>2026-05-02T10:37:33.600Z</time>
      </trkpt>
      <trkpt lat="43.79365" lon="4.23785">
        <ele>114.09256875867</ele>
        <time>2026-05-02T10:37:38.619Z</time>
      </trkpt>
      <trkpt lat="43.79371" lon="4.23777">
        <ele>114.59932636785</ele>
        <time>2026-05-02T10:37:44.324Z</time>
      </trkpt>
      <trkpt lat="43.79377" lon="4.23774">
        <ele>114.91288029702</ele>
        <time>2026-05-02T10:37:49.688Z</time>
      </trkpt>
      <trkpt lat="43.79383" lon="4.23773">
        <ele>115.48373004856</ele>
        <time>2026-05-02T10:37:55.322Z</time>
      </trkpt>
      <trkpt lat="43.79387" lon="4.23771">
        <ele>115.74892500448</ele>
        <time>2026-05-02T10:38:00.977Z</time>
      </trkpt>
      <trkpt lat="43.79389" lon="4.23769">
        <ele>115.82892581193</ele>
        <time>2026-05-02T10:38:06.577Z</time>
      </trkpt>
      <trkpt lat="43.79391" lon="4.23768">
        <ele>115.9253904312</ele>
        <time>2026-05-02T10:38:11.591Z</time>
      </trkpt>
      <trkpt lat="43.79394" lon="4.23766">
        <ele>116.1095143763</ele>
        <time>2026-05-02T10:38:17.402Z</time>
      </trkpt>
      <trkpt lat="43.79395" lon="4.23764">
        <ele>116.17005882445</ele>
        <time>2026-05-02T10:38:22.689Z</time>
      </trkpt>
      <trkpt lat="43.79396" lon="4.23764">
        <ele>116.2633713548</ele>
        <time>2026-05-02T10:38:31.651Z</time>
      </trkpt>
      <trkpt lat="43.79397" lon="4.23763">
        <ele>116.29394963956</ele>
        <time>2026-05-02T10:39:03.344Z</time>
      </trkpt>
      <trkpt lat="43.79396" lon="4.23763">
        <ele>116.18786654366</ele>
        <time>2026-05-02T10:39:11.559Z</time>
      </trkpt>
      <trkpt lat="43.79395" lon="4.23764">
        <ele>116.06976353064</ele>
        <time>2026-05-02T10:39:17.642Z</time>
      </trkpt>
      <trkpt lat="43.79392" lon="4.23766">
        <ele>115.96899839178</ele>
        <time>2026-05-02T10:39:22.768Z</time>
      </trkpt>
      <trkpt lat="43.79391" lon="4.23766">
        <ele>115.82062790585</ele>
        <time>2026-05-02T10:39:28.632Z</time>
      </trkpt>
      <trkpt lat="43.79389" lon="4.23764">
        <ele>115.58972916176</ele>
        <time>2026-05-02T10:39:34.478Z</time>
      </trkpt>
      <trkpt lat="43.79389" lon="4.23762">
        <ele>115.72600531242</ele>
        <time>2026-05-02T10:39:39.623Z</time>
      </trkpt>
      <trkpt lat="43.79387" lon="4.23756">
        <ele>116.33772890875</ele>
        <time>2026-05-02T10:39:45.599Z</time>
      </trkpt>
      <trkpt lat="43.79385" lon="4.23751">
        <ele>117.06418253323</ele>
        <time>2026-05-02T10:39:50.614Z</time>
      </trkpt>
      <trkpt lat="43.79385" lon="4.23748">
        <ele>117.49823453068</ele>
        <time>2026-05-02T10:39:55.629Z</time>
      </trkpt>
      <trkpt lat="43.79386" lon="4.23746">
        <ele>117.7438428399</ele>
        <time>2026-05-02T10:40:01.583Z</time>
      </trkpt>
      <trkpt lat="43.79388" lon="4.23739">
        <ele>118.80638346055</ele>
        <time>2026-05-02T10:40:06.619Z</time>
      </trkpt>
      <trkpt lat="43.7939" lon="4.2373">
        <ele>120.03734222304</ele>
        <time>2026-05-02T10:40:11.753Z</time>
      </trkpt>
      <trkpt lat="43.79392" lon="4.23725">
        <ele>120.73755991534</ele>
        <time>2026-05-02T10:40:17.568Z</time>
      </trkpt>
      <trkpt lat="43.79396" lon="4.23717">
        <ele>121.37850026037</ele>
        <time>2026-05-02T10:40:22.625Z</time>
      </trkpt>
      <trkpt lat="43.79403" lon="4.23712">
        <ele>121.22791599631</ele>
        <time>2026-05-02T10:40:27.976Z</time>
      </trkpt>
      <trkpt lat="43.79409" lon="4.23706">
        <ele>121.68035909167</ele>
        <time>2026-05-02T10:40:33.615Z</time>
      </trkpt>
      <trkpt lat="43.79414" lon="4.23701">
        <ele>122.0782829476</ele>
        <time>2026-05-02T10:40:39.468Z</time>
      </trkpt>
      <trkpt lat="43.79416" lon="4.23697">
        <ele>122.60199409036</ele>
        <time>2026-05-02T10:40:44.501Z</time>
      </trkpt>
      <trkpt lat="43.79419" lon="4.23692">
        <ele>122.80271045404</ele>
        <time>2026-05-02T10:40:49.621Z</time>
      </trkpt>
      <trkpt lat="43.79424" lon="4.23687">
        <ele>122.90249628635</ele>
        <time>2026-05-02T10:40:54.951Z</time>
      </trkpt>
      <trkpt lat="43.79429" lon="4.23681">
        <ele>123.1203319607</ele>
        <time>2026-05-02T10:41:00.612Z</time>
      </trkpt>
      <trkpt lat="43.79432" lon="4.23674">
        <ele>123.84822006861</ele>
        <time>2026-05-02T10:41:06.394Z</time>
      </trkpt>
      <trkpt lat="43.79435" lon="4.23668">
        <ele>124.34192877125</ele>
        <time>2026-05-02T10:41:11.634Z</time>
      </trkpt>
      <trkpt lat="43.7944" lon="4.23663">
        <ele>124.39743094327</ele>
        <time>2026-05-02T10:41:16.977Z</time>
      </trkpt>
      <trkpt lat="43.79444" lon="4.23659">
        <ele>124.42739670364</ele>
        <time>2026-05-02T10:41:22.561Z</time>
      </trkpt>
      <trkpt lat="43.79446" lon="4.23656">
        <ele>124.71819131857</ele>
        <time>2026-05-02T10:41:27.959Z</time>
      </trkpt>
      <trkpt lat="43.79447" lon="4.23648">
        <ele>125.66814096882</ele>
        <time>2026-05-02T10:41:33.356Z</time>
      </trkpt>
      <trkpt lat="43.79448" lon="4.23642">
        <ele>126.53491681193</ele>
        <time>2026-05-02T10:41:39.020Z</time>
      </trkpt>
      <trkpt lat="43.79449" lon="4.23635">
        <ele>127.15412609676</ele>
        <time>2026-05-02T10:41:44.574Z</time>
      </trkpt>
      <trkpt lat="43.7945" lon="4.23627">
        <ele>128.09826192787</ele>
        <time>2026-05-02T10:41:50.656Z</time>
      </trkpt>
      <trkpt lat="43.79451" lon="4.23621">
        <ele>128.53112075804</ele>
        <time>2026-05-02T10:41:56.343Z</time>
      </trkpt>
      <trkpt lat="43.79454" lon="4.23613">
        <ele>128.87634450184</ele>
        <time>2026-05-02T10:42:01.615Z</time>
      </trkpt>
      <trkpt lat="43.79455" lon="4.23603">
        <ele>129.29910276235</ele>
        <time>2026-05-02T10:42:07.122Z</time>
      </trkpt>
      <trkpt lat="43.79455" lon="4.23597">
        <ele>129.62639672866</ele>
        <time>2026-05-02T10:42:12.498Z</time>
      </trkpt>
      <trkpt lat="43.79452" lon="4.2359">
        <ele>130.44168510096</ele>
        <time>2026-05-02T10:42:17.977Z</time>
      </trkpt>
      <trkpt lat="43.7945" lon="4.23581">
        <ele>131.10217147983</ele>
        <time>2026-05-02T10:42:23.276Z</time>
      </trkpt>
      <trkpt lat="43.79449" lon="4.23572">
        <ele>131.71361358891</ele>
        <time>2026-05-02T10:42:29.002Z</time>
      </trkpt>
      <trkpt lat="43.79452" lon="4.23567">
        <ele>131.65396187873</ele>
        <time>2026-05-02T10:42:34.498Z</time>
      </trkpt>
      <trkpt lat="43.79452" lon="4.23563">
        <ele>131.76778635376</ele>
        <time>2026-05-02T10:42:40.037Z</time>
      </trkpt>
      <trkpt lat="43.79451" lon="4.23556">
        <ele>132.19091451673</ele>
        <time>2026-05-02T10:42:45.160Z</time>
      </trkpt>
      <trkpt lat="43.79452" lon="4.23548">
        <ele>132.50005662424</ele>
        <time>2026-05-02T10:42:50.441Z</time>
      </trkpt>
      <trkpt lat="43.79452" lon="4.23541">
        <ele>132.85422466685</ele>
        <time>2026-05-02T10:42:55.550Z</time>
      </trkpt>
      <trkpt lat="43.7945" lon="4.23537">
        <ele>133.27299306931</ele>
        <time>2026-05-02T10:43:00.673Z</time>
      </trkpt>
      <trkpt lat="43.79449" lon="4.2353">
        <ele>133.64538981062</ele>
        <time>2026-05-02T10:43:06.117Z</time>
      </trkpt>
      <trkpt lat="43.79451" lon="4.23525">
        <ele>133.70675035012</ele>
        <time>2026-05-02T10:43:11.557Z</time>
      </trkpt>
      <trkpt lat="43.79454" lon="4.23517">
        <ele>133.68917821449</ele>
        <time>2026-05-02T10:43:16.572Z</time>
      </trkpt>
      <trkpt lat="43.79457" lon="4.2351">
        <ele>133.58558681949</ele>
        <time>2026-05-02T10:43:21.586Z</time>
      </trkpt>
      <trkpt lat="43.79461" lon="4.23503">
        <ele>133.47058200473</ele>
        <time>2026-05-02T10:43:26.602Z</time>
      </trkpt>
      <trkpt lat="43.79466" lon="4.23499">
        <ele>133.21896642105</ele>
        <time>2026-05-02T10:43:31.602Z</time>
      </trkpt>
      <trkpt lat="43.7947" lon="4.23494">
        <ele>133.19019335741</ele>
        <time>2026-05-02T10:43:37.480Z</time>
      </trkpt>
      <trkpt lat="43.79475" lon="4.23496">
        <ele>132.74740413808</ele>
        <time>2026-05-02T10:43:43.080Z</time>
      </trkpt>
      <trkpt lat="43.7948" lon="4.23495">
        <ele>132.74246968198</ele>
        <time>2026-05-02T10:43:48.685Z</time>
      </trkpt>
      <trkpt lat="43.79481" lon="4.23491">
        <ele>133.12507953509</ele>
        <time>2026-05-02T10:43:54.557Z</time>
      </trkpt>
      <trkpt lat="43.79482" lon="4.23492">
        <ele>133.00494010549</ele>
        <time>2026-05-02T10:44:00.501Z</time>
      </trkpt>
      <trkpt lat="43.79482" lon="4.23491">
        <ele>133.17129378119</ele>
        <time>2026-05-02T10:44:07.401Z</time>
      </trkpt>
      <trkpt lat="43.79487" lon="4.23487">
        <ele>133.58036453388</ele>
        <time>2026-05-02T10:44:13.551Z</time>
      </trkpt>
      <trkpt lat="43.79491" lon="4.23483">
        <ele>134.00154308975</ele>
        <time>2026-05-02T10:44:19.102Z</time>
      </trkpt>
      <trkpt lat="43.79495" lon="4.23475">
        <ele>134.85083040839</ele>
        <time>2026-05-02T10:44:24.678Z</time>
      </trkpt>
      <trkpt lat="43.79501" lon="4.23467">
        <ele>135.60180460032</ele>
        <time>2026-05-02T10:44:29.941Z</time>
      </trkpt>
      <trkpt lat="43.79505" lon="4.2346">
        <ele>136.22010251973</ele>
        <time>2026-05-02T10:44:35.465Z</time>
      </trkpt>
      <trkpt lat="43.79512" lon="4.23457">
        <ele>136.56414035881</ele>
        <time>2026-05-02T10:44:41.335Z</time>
      </trkpt>
      <trkpt lat="43.79515" lon="4.23453">
        <ele>136.90427780985</ele>
        <time>2026-05-02T10:44:46.525Z</time>
      </trkpt>
      <trkpt lat="43.79518" lon="4.23448">
        <ele>137.30369698687</ele>
        <time>2026-05-02T10:44:51.653Z</time>
      </trkpt>
      <trkpt lat="43.79522" lon="4.23444">
        <ele>137.61286171688</ele>
        <time>2026-05-02T10:44:56.668Z</time>
      </trkpt>
      <trkpt lat="43.79518" lon="4.23447">
        <ele>137.36431615713</ele>
        <time>2026-05-02T10:45:02.315Z</time>
      </trkpt>
      <trkpt lat="43.79516" lon="4.23449">
        <ele>137.17378085017</ele>
        <time>2026-05-02T10:45:07.552Z</time>
      </trkpt>
      <trkpt lat="43.79517" lon="4.2345">
        <ele>137.12822068529</ele>
        <time>2026-05-02T10:45:12.567Z</time>
      </trkpt>
      <trkpt lat="43.79518" lon="4.23451">
        <ele>137.11067537975</ele>
        <time>2026-05-02T10:45:22.591Z</time>
      </trkpt>
      <trkpt lat="43.79517" lon="4.2345">
        <ele>137.1370586275</ele>
        <time>2026-05-02T10:45:31.586Z</time>
      </trkpt>
      <trkpt lat="43.79517" lon="4.23448">
        <ele>137.2683899619</ele>
        <time>2026-05-02T10:45:36.603Z</time>
      </trkpt>
      <trkpt lat="43.79519" lon="4.23448">
        <ele>137.29592152979</ele>
        <time>2026-05-02T10:45:41.618Z</time>
      </trkpt>
      <trkpt lat="43.7952" lon="4.23448">
        <ele>137.31741189605</ele>
        <time>2026-05-02T10:45:47.594Z</time>
      </trkpt>
      <trkpt lat="43.79521" lon="4.23449">
        <ele>137.30857449542</ele>
        <time>2026-05-02T10:45:55.529Z</time>
      </trkpt>
      <trkpt lat="43.79523" lon="4.23449">
        <ele>137.3824731332</ele>
        <time>2026-05-02T10:46:00.765Z</time>
      </trkpt>
      <trkpt lat="43.79528" lon="4.23448">
        <ele>137.50539775857</ele>
        <time>2026-05-02T10:46:06.137Z</time>
      </trkpt>
      <trkpt lat="43.79533" lon="4.23442">
        <ele>137.94726698069</ele>
        <time>2026-05-02T10:46:11.260Z</time>
      </trkpt>
      <trkpt lat="43.79535" lon="4.23432">
        <ele>138.6475298725</ele>
        <time>2026-05-02T10:46:16.400Z</time>
      </trkpt>
      <trkpt lat="43.79537" lon="4.23425">
        <ele>139.17213495097</ele>
        <time>2026-05-02T10:46:21.637Z</time>
      </trkpt>
      <trkpt lat="43.7954" lon="4.23427">
        <ele>139.11194419895</ele>
        <time>2026-05-02T10:46:26.659Z</time>
      </trkpt>
      <trkpt lat="43.79543" lon="4.23426">
        <ele>139.26928626562</ele>
        <time>2026-05-02T10:46:32.301Z</time>
      </trkpt>
      <trkpt lat="43.79548" lon="4.23418">
        <ele>139.85543259143</ele>
        <time>2026-05-02T10:46:37.377Z</time>
      </trkpt>
      <trkpt lat="43.79549" lon="4.23408">
        <ele>140.44268613162</ele>
        <time>2026-05-02T10:46:42.597Z</time>
      </trkpt>
      <trkpt lat="43.79554" lon="4.234">
        <ele>140.94804391198</ele>
        <time>2026-05-02T10:46:48.490Z</time>
      </trkpt>
      <trkpt lat="43.79559" lon="4.23401">
        <ele>141.05679799604</ele>
        <time>2026-05-02T10:46:53.656Z</time>
      </trkpt>
      <trkpt lat="43.79565" lon="4.23404">
        <ele>141.02109739213</ele>
        <time>2026-05-02T10:46:58.671Z</time>
      </trkpt>
      <trkpt lat="43.7957" lon="4.23409">
        <ele>140.86107232173</ele>
        <time>2026-05-02T10:47:04.647Z</time>
      </trkpt>
      <trkpt lat="43.79576" lon="4.23415">
        <ele>140.6224415759</ele>
        <time>2026-05-02T10:47:09.708Z</time>
      </trkpt>
      <trkpt lat="43.79581" lon="4.23422">
        <ele>140.47240403991</ele>
        <time>2026-05-02T10:47:14.913Z</time>
      </trkpt>
      <trkpt lat="43.79588" lon="4.23428">
        <ele>140.47195261677</ele>
        <time>2026-05-02T10:47:20.709Z</time>
      </trkpt>
      <trkpt lat="43.79591" lon="4.23438">
        <ele>140.22671604348</ele>
        <time>2026-05-02T10:47:25.731Z</time>
      </trkpt>
      <trkpt lat="43.79595" lon="4.23446">
        <ele>140.40012658381</ele>
        <time>2026-05-02T10:47:30.874Z</time>
      </trkpt>
      <trkpt lat="43.79601" lon="4.23451">
        <ele>140.70508562703</ele>
        <time>2026-05-02T10:47:36.450Z</time>
      </trkpt>
      <trkpt lat="43.79607" lon="4.23456">
        <ele>141.04563380043</ele>
        <time>2026-05-02T10:47:41.568Z</time>
      </trkpt>
      <trkpt lat="43.79613" lon="4.23462">
        <ele>141.54613853775</ele>
        <time>2026-05-02T10:47:47.649Z</time>
      </trkpt>
      <trkpt lat="43.79619" lon="4.23467">
        <ele>141.95330030593</ele>
        <time>2026-05-02T10:47:52.729Z</time>
      </trkpt>
      <trkpt lat="43.79624" lon="4.23473">
        <ele>142.30510058172</ele>
        <time>2026-05-02T10:47:57.861Z</time>
      </trkpt>
      <trkpt lat="43.79628" lon="4.23479">
        <ele>142.51423609556</ele>
        <time>2026-05-02T10:48:02.881Z</time>
      </trkpt>
      <trkpt lat="43.79634" lon="4.23487">
        <ele>142.86406481008</ele>
        <time>2026-05-02T10:48:08.470Z</time>
      </trkpt>
      <trkpt lat="43.79643" lon="4.23487">
        <ele>143.44852449607</ele>
        <time>2026-05-02T10:48:13.768Z</time>
      </trkpt>
      <trkpt lat="43.79649" lon="4.23488">
        <ele>143.75851550758</ele>
        <time>2026-05-02T10:48:19.034Z</time>
      </trkpt>
      <trkpt lat="43.79654" lon="4.23492">
        <ele>144.11596423531</ele>
        <time>2026-05-02T10:48:24.236Z</time>
      </trkpt>
      <trkpt lat="43.79661" lon="4.23494">
        <ele>144.62612214062</ele>
        <time>2026-05-02T10:48:29.394Z</time>
      </trkpt>
      <trkpt lat="43.79668" lon="4.23498">
        <ele>145.09560688018</ele>
        <time>2026-05-02T10:48:34.516Z</time>
      </trkpt>
      <trkpt lat="43.79673" lon="4.23506">
        <ele>145.05288198513</ele>
        <time>2026-05-02T10:48:40.333Z</time>
      </trkpt>
      <trkpt lat="43.79677" lon="4.23515">
        <ele>144.8960837696</ele>
        <time>2026-05-02T10:48:45.550Z</time>
      </trkpt>
      <trkpt lat="43.79683" lon="4.23523">
        <ele>144.96263152801</ele>
        <time>2026-05-02T10:48:50.932Z</time>
      </trkpt>
      <trkpt lat="43.79689" lon="4.23529">
        <ele>144.98393086356</ele>
        <time>2026-05-02T10:48:56.151Z</time>
      </trkpt>
      <trkpt lat="43.79693" lon="4.23536">
        <ele>144.91128348051</ele>
        <time>2026-05-02T10:49:01.598Z</time>
      </trkpt>
      <trkpt lat="43.79697" lon="4.23537">
        <ele>145.11451194362</ele>
        <time>2026-05-02T10:49:06.613Z</time>
      </trkpt>
      <trkpt lat="43.797" lon="4.23539">
        <ele>145.2446308711</ele>
        <time>2026-05-02T10:49:12.050Z</time>
      </trkpt>
      <trkpt lat="43.79706" lon="4.23542">
        <ele>145.47029032134</ele>
        <time>2026-05-02T10:49:17.656Z</time>
      </trkpt>
      <trkpt lat="43.79711" lon="4.23552">
        <ele>145.06160106691</ele>
        <time>2026-05-02T10:49:23.591Z</time>
      </trkpt>
      <trkpt lat="43.79716" lon="4.23558">
        <ele>144.86796646551</ele>
        <time>2026-05-02T10:49:29.453Z</time>
      </trkpt>
      <trkpt lat="43.79722" lon="4.2356">
        <ele>145.18491007364</ele>
        <time>2026-05-02T10:49:34.679Z</time>
      </trkpt>
      <trkpt lat="43.79729" lon="4.23563">
        <ele>145.51161836023</ele>
        <time>2026-05-02T10:49:40.292Z</time>
      </trkpt>
      <trkpt lat="43.79735" lon="4.23566">
        <ele>145.60508381127</ele>
        <time>2026-05-02T10:49:45.512Z</time>
      </trkpt>
      <trkpt lat="43.7974" lon="4.2357">
        <ele>145.64820006759</ele>
        <time>2026-05-02T10:49:50.577Z</time>
      </trkpt>
      <trkpt lat="43.79746" lon="4.23574">
        <ele>145.74644614785</ele>
        <time>2026-05-02T10:49:55.676Z</time>
      </trkpt>
      <trkpt lat="43.79754" lon="4.23577">
        <ele>146.15573307837</ele>
        <time>2026-05-02T10:50:01.332Z</time>
      </trkpt>
      <trkpt lat="43.79761" lon="4.2358">
        <ele>146.64264316703</ele>
        <time>2026-05-02T10:50:06.584Z</time>
      </trkpt>
      <trkpt lat="43.79767" lon="4.23584">
        <ele>146.79109168262</ele>
        <time>2026-05-02T10:50:12.430Z</time>
      </trkpt>
      <trkpt lat="43.79774" lon="4.23587">
        <ele>147.08089445056</ele>
        <time>2026-05-02T10:50:18.274Z</time>
      </trkpt>
      <trkpt lat="43.79781" lon="4.23591">
        <ele>147.23610050537</ele>
        <time>2026-05-02T10:50:23.656Z</time>
      </trkpt>
      <trkpt lat="43.79787" lon="4.23596">
        <ele>147.51191510891</ele>
        <time>2026-05-02T10:50:29.526Z</time>
      </trkpt>
      <trkpt lat="43.79793" lon="4.23603">
        <ele>147.77724452763</ele>
        <time>2026-05-02T10:50:35.390Z</time>
      </trkpt>
      <trkpt lat="43.79798" lon="4.23607">
        <ele>148.06930125211</ele>
        <time>2026-05-02T10:50:41.574Z</time>
      </trkpt>
      <trkpt lat="43.79799" lon="4.23606">
        <ele>148.24291884</ele>
        <time>2026-05-02T10:50:43.143Z</time>
      </trkpt>
      <trkpt lat="43.79802" lon="4.23609">
        <ele>148.47708772427</ele>
        <time>2026-05-02T10:50:47.478Z</time>
      </trkpt>
      <trkpt lat="43.79807" lon="4.23624">
        <ele>149.42448868922</ele>
        <time>2026-05-02T10:50:58.911Z</time>
      </trkpt>
      <trkpt lat="43.79808" lon="4.23633">
        <ele>149.95169453273</ele>
        <time>2026-05-02T10:51:05.814Z</time>
      </trkpt>
      <trkpt lat="43.79832" lon="4.23722">
        <ele>152.0706125757</ele>
        <time>2026-05-02T10:52:14.857Z</time>
      </trkpt>
      <trkpt lat="43.79815" lon="4.2374">
        <ele>150.779579016</ele>
        <time>2026-05-02T10:52:35.807Z</time>
      </trkpt>
      <trkpt lat="43.79804" lon="4.23755">
        <ele>149.66051725304</ele>
        <time>2026-05-02T10:52:51.462Z</time>
      </trkpt>
      <trkpt lat="43.79798" lon="4.23767">
        <ele>148.70337016127</ele>
        <time>2026-05-02T10:53:01.809Z</time>
      </trkpt>
      <trkpt lat="43.79792" lon="4.23785">
        <ele>147.03703019114</ele>
        <time>2026-05-02T10:53:16.431Z</time>
      </trkpt>
      <trkpt lat="43.79798" lon="4.23838">
        <ele>141.8499840816</ele>
        <time>2026-05-02T10:53:55.062Z</time>
      </trkpt>
      <trkpt lat="43.79801" lon="4.2386">
        <ele>139.41648307209</ele>
        <time>2026-05-02T10:54:10.956Z</time>
      </trkpt>
      <trkpt lat="43.79798" lon="4.23871">
        <ele>138.53525602304</ele>
        <time>2026-05-02T10:54:19.516Z</time>
      </trkpt>
      <trkpt lat="43.79801" lon="4.23887">
        <ele>137.36140451788</ele>
        <time>2026-05-02T10:54:31.579Z</time>
      </trkpt>
    </trkseg>
  </trk>
</gpx>